PWSweather.com
Personal Weather Stations
Station Observations
HVALPSUND
Hvalpsund, FarsoeDK 9640

HvalpsundFarsoeDK 9640

Lat: 56.705311, Lon: 9.203638

Elevation: 5

Station Type: Vantage Pro2

http://hvalpsundvejr.dk

High Low Average
Temperature 54.9°F12.7°C 44.1°F6.7°C 48.3°F9.1°C
Dew Point 46.4°F8.0°C 41.1°F5.1°C 44.1°F6.7°C
Winds 20.4 mph 32.8 kmh Calm Calm 8.0 mph S12.9 kmh S
Wind Gusts 23.0 mph37.0 kmh -- 11.0 mph17.7 kmh
Humidity 95% 69% 86%
Pressure 29.51 in999.3 mb 29.36 in994.2 mb -
Precipitation 0.24 in6.1 mm - -
Hour Temp Dew Point Humidity Winds Wind Gusts Pressure Precip Precip Rate Daily Precip Total
12:00 AM 46.8°F8.2°C 44.9°F7.2°C 93% 7.2 mph SE11.6 kmh SE 10.0 mph16.1 kmh 29.42 in996.3 mb 0.00 in0.0 mm 0.00 in0.0 mm 0.00 in0.0 mm
12:01 AM 46.9°F8.3°C 45.0°F7.2°C 93% 7.5 mph SE12.1 kmh SE 9.0 mph14.5 kmh 29.42 in996.3 mb 0.00 in0.0 mm 0.00 in0.0 mm 0.00 in0.0 mm
12:02 AM 46.9°F8.3°C 45.0°F7.2°C 93% 8.2 mph SE13.2 kmh SE 11.0 mph17.7 kmh 29.42 in996.3 mb 0.00 in0.0 mm 0.00 in0.0 mm 0.00 in0.0 mm
12:03 AM 46.9°F8.3°C 45.0°F7.2°C 93% 9.5 mph SSE15.3 kmh SSE 12.0 mph19.3 kmh 29.42 in996.3 mb 0.00 in0.0 mm 0.00 in0.0 mm 0.00 in0.0 mm
12:04 AM 46.9°F8.3°C 45.0°F7.2°C 93% 8.7 mph SSE14.0 kmh SSE 14.0 mph22.5 kmh 29.42 in996.3 mb 0.00 in0.0 mm 0.00 in0.0 mm 0.00 in0.0 mm
12:05 AM 47.0°F8.3°C 45.1°F7.3°C 93% 8.0 mph SE12.9 kmh SE 14.0 mph22.5 kmh 29.42 in996.3 mb 0.00 in0.0 mm 0.00 in0.0 mm 0.00 in0.0 mm
12:06 AM 46.9°F8.3°C 45.0°F7.2°C 93% 9.3 mph SE15.0 kmh SE 12.0 mph19.3 kmh 29.42 in996.3 mb 0.00 in0.0 mm 0.00 in0.0 mm 0.00 in0.0 mm
12:07 AM 46.9°F8.3°C 45.0°F7.2°C 93% 7.7 mph SE12.4 kmh SE 12.0 mph19.3 kmh 29.42 in996.3 mb 0.00 in0.0 mm 0.00 in0.0 mm 0.00 in0.0 mm
12:08 AM 46.8°F8.2°C 44.9°F7.2°C 93% 7.0 mph SE11.3 kmh SE 11.0 mph17.7 kmh 29.42 in996.3 mb 0.00 in0.0 mm 0.00 in0.0 mm 0.00 in0.0 mm
12:09 AM 46.7°F8.2°C 44.8°F7.1°C 93% 8.1 mph SE13.0 kmh SE 11.0 mph17.7 kmh 29.42 in996.3 mb 0.00 in0.0 mm 0.00 in0.0 mm 0.00 in0.0 mm
12:10 AM 46.6°F8.1°C 44.7°F7.1°C 93% 7.4 mph SE11.9 kmh SE 11.0 mph17.7 kmh 29.42 in996.3 mb 0.00 in0.0 mm 0.00 in0.0 mm 0.00 in0.0 mm
12:11 AM 46.5°F8.1°C 44.6°F7.0°C 93% 7.2 mph SE11.6 kmh SE 10.0 mph16.1 kmh 29.42 in996.3 mb 0.00 in0.0 mm 0.00 in0.0 mm 0.00 in0.0 mm
12:12 AM 46.5°F8.1°C 44.6°F7.0°C 93% 6.0 mph SE9.7 kmh SE 10.0 mph16.1 kmh 29.42 in996.3 mb 0.00 in0.0 mm 0.00 in0.0 mm 0.00 in0.0 mm
12:13 AM 46.4°F8.0°C 44.5°F6.9°C 93% 6.0 mph SE9.7 kmh SE 11.0 mph17.7 kmh 29.42 in996.3 mb 0.00 in0.0 mm 0.00 in0.0 mm 0.00 in0.0 mm
12:14 AM 46.3°F7.9°C 44.4°F6.9°C 93% 6.0 mph SE9.7 kmh SE 8.0 mph12.9 kmh 29.42 in996.3 mb 0.00 in0.0 mm 0.00 in0.0 mm 0.00 in0.0 mm
12:15 AM 46.3°F7.9°C 44.4°F6.9°C 93% 7.0 mph SE11.3 kmh SE 9.0 mph14.5 kmh 29.42 in996.3 mb 0.00 in0.0 mm 0.00 in0.0 mm 0.00 in0.0 mm
12:16 AM 46.3°F7.9°C 44.4°F6.9°C 93% 5.8 mph SE9.3 kmh SE 8.0 mph12.9 kmh 29.42 in996.3 mb 0.00 in0.0 mm 0.00 in0.0 mm 0.00 in0.0 mm
12:17 AM 46.1°F7.8°C 44.2°F6.8°C 93% 7.1 mph SE11.4 kmh SE 10.0 mph16.1 kmh 29.42 in996.3 mb 0.00 in0.0 mm 0.00 in0.0 mm 0.00 in0.0 mm
12:18 AM 46.1°F7.8°C 44.2°F6.8°C 93% 7.2 mph SE11.6 kmh SE 12.0 mph19.3 kmh 29.42 in996.3 mb 0.00 in0.0 mm 0.00 in0.0 mm 0.00 in0.0 mm
12:19 AM 46.0°F7.8°C 44.1°F6.7°C 93% 7.4 mph SE11.9 kmh SE 12.0 mph19.3 kmh 29.42 in996.3 mb 0.00 in0.0 mm 0.00 in0.0 mm 0.00 in0.0 mm
12:20 AM 46.0°F7.8°C 44.1°F6.7°C 93% 6.9 mph SE11.1 kmh SE 10.0 mph16.1 kmh 29.41 in995.9 mb 0.00 in0.0 mm 0.00 in0.0 mm 0.00 in0.0 mm
12:21 AM 46.0°F7.8°C 44.1°F6.7°C 93% 7.7 mph SE12.4 kmh SE 11.0 mph17.7 kmh 29.41 in995.9 mb 0.00 in0.0 mm 0.00 in0.0 mm 0.00 in0.0 mm
12:22 AM 46.0°F7.8°C 44.1°F6.7°C 93% 6.3 mph SE10.1 kmh SE 11.0 mph17.7 kmh 29.41 in995.9 mb 0.00 in0.0 mm 0.00 in0.0 mm 0.00 in0.0 mm
12:23 AM 46.0°F7.8°C 44.1°F6.7°C 93% 6.8 mph SSE10.9 kmh SSE 9.0 mph14.5 kmh 29.41 in995.9 mb 0.00 in0.0 mm 0.00 in0.0 mm 0.00 in0.0 mm
12:24 AM 46.1°F7.8°C 44.2°F6.8°C 93% 7.0 mph SE11.3 kmh SE 10.0 mph16.1 kmh 29.41 in995.9 mb 0.00 in0.0 mm 0.00 in0.0 mm 0.00 in0.0 mm
12:25 AM 46.1°F7.8°C 44.2°F6.8°C 93% 7.6 mph SE12.2 kmh SE 10.0 mph16.1 kmh 29.41 in995.9 mb 0.00 in0.0 mm 0.00 in0.0 mm 0.00 in0.0 mm
12:26 AM 46.1°F7.8°C 44.2°F6.8°C 93% 6.5 mph SE10.5 kmh SE 10.0 mph16.1 kmh 29.41 in995.9 mb 0.00 in0.0 mm 0.00 in0.0 mm 0.00 in0.0 mm
12:27 AM 46.1°F7.8°C 44.2°F6.8°C 93% 7.5 mph SE12.1 kmh SE 10.0 mph16.1 kmh 29.41 in995.9 mb 0.00 in0.0 mm 0.00 in0.0 mm 0.00 in0.0 mm
12:28 AM 46.2°F7.9°C 44.3°F6.8°C 93% 6.4 mph SE10.3 kmh SE 10.0 mph16.1 kmh 29.41 in995.9 mb 0.00 in0.0 mm 0.00 in0.0 mm 0.00 in0.0 mm
12:29 AM 46.2°F7.9°C 44.3°F6.8°C 93% 9.5 mph SE15.3 kmh SE 12.0 mph19.3 kmh 29.41 in995.9 mb 0.00 in0.0 mm 0.00 in0.0 mm 0.00 in0.0 mm
12:30 AM 46.3°F7.9°C 44.4°F6.9°C 93% 8.2 mph SE13.2 kmh SE 12.0 mph19.3 kmh 29.41 in995.9 mb 0.00 in0.0 mm 0.00 in0.0 mm 0.00 in0.0 mm
12:31 AM 46.3°F7.9°C 44.4°F6.9°C 93% 8.4 mph SE13.5 kmh SE 11.0 mph17.7 kmh 29.41 in995.9 mb 0.00 in0.0 mm 0.00 in0.0 mm 0.00 in0.0 mm
12:32 AM 46.4°F8.0°C 44.5°F6.9°C 93% 7.7 mph SE12.4 kmh SE 11.0 mph17.7 kmh 29.41 in995.9 mb 0.00 in0.0 mm 0.00 in0.0 mm 0.00 in0.0 mm
12:33 AM 46.4°F8.0°C 44.5°F6.9°C 93% 7.6 mph SE12.2 kmh SE 10.0 mph16.1 kmh 29.41 in995.9 mb 0.00 in0.0 mm 0.00 in0.0 mm 0.00 in0.0 mm
12:34 AM 46.5°F8.1°C 44.6°F7.0°C 93% 6.6 mph SSE10.6 kmh SSE 10.0 mph16.1 kmh 29.41 in995.9 mb 0.00 in0.0 mm 0.00 in0.0 mm 0.00 in0.0 mm
12:35 AM 46.5°F8.1°C 44.6°F7.0°C 93% 7.3 mph SSE11.7 kmh SSE 10.0 mph16.1 kmh 29.41 in995.9 mb 0.00 in0.0 mm 0.00 in0.0 mm 0.00 in0.0 mm
12:36 AM 46.5°F8.1°C 44.6°F7.0°C 93% 7.4 mph SE11.9 kmh SE 11.0 mph17.7 kmh 29.41 in995.9 mb 0.00 in0.0 mm 0.00 in0.0 mm 0.00 in0.0 mm
12:37 AM 46.5°F8.1°C 44.6°F7.0°C 93% 7.4 mph SE11.9 kmh SE 11.0 mph17.7 kmh 29.41 in995.9 mb 0.00 in0.0 mm 0.00 in0.0 mm 0.00 in0.0 mm
12:38 AM 46.6°F8.1°C 44.7°F7.1°C 93% 7.5 mph SE12.1 kmh SE 11.0 mph17.7 kmh 29.41 in995.9 mb 0.00 in0.0 mm 0.00 in0.0 mm 0.00 in0.0 mm
12:39 AM 46.6°F8.1°C 44.7°F7.1°C 93% 7.6 mph SE12.2 kmh SE 10.0 mph16.1 kmh 29.41 in995.9 mb 0.00 in0.0 mm 0.00 in0.0 mm 0.00 in0.0 mm
12:40 AM 46.6°F8.1°C 44.7°F7.1°C 93% 7.5 mph SE12.1 kmh SE 10.0 mph16.1 kmh 29.41 in995.9 mb 0.00 in0.0 mm 0.00 in0.0 mm 0.00 in0.0 mm
12:41 AM 46.6°F8.1°C 44.7°F7.1°C 93% 7.8 mph SE12.6 kmh SE 13.0 mph20.9 kmh 29.41 in995.9 mb 0.00 in0.0 mm 0.00 in0.0 mm 0.00 in0.0 mm
12:42 AM 46.7°F8.2°C 44.8°F7.1°C 93% 6.9 mph SE11.1 kmh SE 13.0 mph20.9 kmh 29.41 in995.9 mb 0.00 in0.0 mm 0.00 in0.0 mm 0.00 in0.0 mm
12:43 AM 46.6°F8.1°C 44.7°F7.1°C 93% 9.3 mph SSE15.0 kmh SSE 13.0 mph20.9 kmh 29.41 in995.9 mb 0.00 in0.0 mm 0.00 in0.0 mm 0.00 in0.0 mm
12:44 AM 46.6°F8.1°C 44.7°F7.1°C 93% 8.7 mph SE14.0 kmh SE 13.0 mph20.9 kmh 29.41 in995.9 mb 0.00 in0.0 mm 0.00 in0.0 mm 0.00 in0.0 mm
12:45 AM 46.6°F8.1°C 44.7°F7.1°C 93% 8.9 mph SSE14.3 kmh SSE 12.0 mph19.3 kmh 29.41 in995.9 mb 0.00 in0.0 mm 0.00 in0.0 mm 0.00 in0.0 mm
12:46 AM 46.6°F8.1°C 44.7°F7.1°C 93% 8.4 mph SSE13.5 kmh SSE 12.0 mph19.3 kmh 29.41 in995.9 mb 0.00 in0.0 mm 0.00 in0.0 mm 0.00 in0.0 mm
12:47 AM 46.6°F8.1°C 44.7°F7.1°C 93% 7.3 mph SSE11.7 kmh SSE 11.0 mph17.7 kmh 29.41 in995.9 mb 0.00 in0.0 mm 0.00 in0.0 mm 0.00 in0.0 mm
12:48 AM 46.7°F8.2°C 44.8°F7.1°C 93% 10.8 mph SE17.4 kmh SE 15.0 mph24.1 kmh 29.41 in995.9 mb 0.00 in0.0 mm 0.00 in0.0 mm 0.00 in0.0 mm
12:49 AM 46.7°F8.2°C 44.8°F7.1°C 93% 9.8 mph SSE15.8 kmh SSE 15.0 mph24.1 kmh 29.41 in995.9 mb 0.00 in0.0 mm 0.00 in0.0 mm 0.00 in0.0 mm
12:50 AM 46.7°F8.2°C 44.8°F7.1°C 93% 7.6 mph SE12.2 kmh SE 14.0 mph22.5 kmh 29.40 in995.6 mb 0.00 in0.0 mm 0.00 in0.0 mm 0.00 in0.0 mm
12:51 AM 46.7°F8.2°C 44.8°F7.1°C 93% 8.8 mph SSE14.2 kmh SSE 11.0 mph17.7 kmh 29.41 in995.9 mb 0.00 in0.0 mm 0.00 in0.0 mm 0.00 in0.0 mm
12:52 AM 46.8°F8.2°C 44.9°F7.2°C 93% 7.1 mph SE11.4 kmh SE 11.0 mph17.7 kmh 29.40 in995.6 mb 0.00 in0.0 mm 0.00 in0.0 mm 0.00 in0.0 mm
12:53 AM 46.8°F8.2°C 44.9°F7.2°C 93% 6.6 mph SSE10.6 kmh SSE 10.0 mph16.1 kmh 29.40 in995.6 mb 0.00 in0.0 mm 0.00 in0.0 mm 0.00 in0.0 mm
12:54 AM 46.8°F8.2°C 44.9°F7.2°C 93% 7.7 mph SSE12.4 kmh SSE 12.0 mph19.3 kmh 29.40 in995.6 mb 0.00 in0.0 mm 0.00 in0.0 mm 0.00 in0.0 mm
12:55 AM 46.8°F8.2°C 44.9°F7.2°C 93% 9.3 mph SSE15.0 kmh SSE 12.0 mph19.3 kmh 29.40 in995.6 mb 0.00 in0.0 mm 0.00 in0.0 mm 0.00 in0.0 mm
12:56 AM 46.8°F8.2°C 44.9°F7.2°C 93% 7.9 mph SE12.7 kmh SE 12.0 mph19.3 kmh 29.41 in995.9 mb 0.00 in0.0 mm 0.00 in0.0 mm 0.00 in0.0 mm
12:57 AM 46.7°F8.2°C 44.8°F7.1°C 93% 8.9 mph SSE14.3 kmh SSE 12.0 mph19.3 kmh 29.41 in995.9 mb 0.00 in0.0 mm 0.00 in0.0 mm 0.00 in0.0 mm
12:58 AM 46.7°F8.2°C 44.8°F7.1°C 93% 6.5 mph SSE10.5 kmh SSE 12.0 mph19.3 kmh 29.40 in995.6 mb 0.00 in0.0 mm 0.00 in0.0 mm 0.00 in0.0 mm
12:59 AM 46.7°F8.2°C 44.8°F7.1°C 93% 6.8 mph SE10.9 kmh SE 11.0 mph17.7 kmh 29.41 in995.9 mb 0.00 in0.0 mm 0.00 in0.0 mm 0.00 in0.0 mm
01:00 AM 46.7°F8.2°C 44.8°F7.1°C 93% 7.3 mph SE11.7 kmh SE 11.0 mph17.7 kmh 29.40 in995.6 mb 0.00 in0.0 mm 0.00 in0.0 mm 0.00 in0.0 mm
01:01 AM 46.6°F8.1°C 44.7°F7.1°C 93% 7.5 mph SE12.1 kmh SE 11.0 mph17.7 kmh 29.40 in995.6 mb 0.00 in0.0 mm 0.00 in0.0 mm 0.00 in0.0 mm
01:02 AM 46.6°F8.1°C 44.7°F7.1°C 93% 6.7 mph SSE10.8 kmh SSE 10.0 mph16.1 kmh 29.40 in995.6 mb 0.00 in0.0 mm 0.00 in0.0 mm 0.00 in0.0 mm
01:03 AM 46.5°F8.1°C 44.6°F7.0°C 93% 7.8 mph SE12.6 kmh SE 10.0 mph16.1 kmh 29.40 in995.6 mb 0.00 in0.0 mm 0.00 in0.0 mm 0.00 in0.0 mm
01:04 AM 46.5°F8.1°C 44.6°F7.0°C 93% 9.3 mph SE15.0 kmh SE 11.0 mph17.7 kmh 29.40 in995.6 mb 0.00 in0.0 mm 0.00 in0.0 mm 0.00 in0.0 mm
01:05 AM 46.4°F8.0°C 44.5°F6.9°C 93% 7.9 mph SSE12.7 kmh SSE 11.0 mph17.7 kmh 29.40 in995.6 mb 0.00 in0.0 mm 0.00 in0.0 mm 0.00 in0.0 mm
01:06 AM 46.5°F8.1°C 44.6°F7.0°C 93% 8.7 mph SE14.0 kmh SE 11.0 mph17.7 kmh 29.40 in995.6 mb 0.00 in0.0 mm 0.00 in0.0 mm 0.00 in0.0 mm
01:07 AM 46.4°F8.0°C 44.5°F6.9°C 93% 7.0 mph SE11.3 kmh SE 11.0 mph17.7 kmh 29.40 in995.6 mb 0.00 in0.0 mm 0.00 in0.0 mm 0.00 in0.0 mm
01:08 AM 46.3°F7.9°C 44.4°F6.9°C 93% 9.0 mph SE14.5 kmh SE 12.0 mph19.3 kmh 29.40 in995.6 mb 0.00 in0.0 mm 0.00 in0.0 mm 0.00 in0.0 mm
01:09 AM 46.3°F7.9°C 44.4°F6.9°C 93% 8.3 mph SSE13.4 kmh SSE 10.0 mph16.1 kmh 29.40 in995.6 mb 0.00 in0.0 mm 0.00 in0.0 mm 0.00 in0.0 mm
01:10 AM 46.4°F8.0°C 44.5°F6.9°C 93% 7.0 mph SE11.3 kmh SE 10.0 mph16.1 kmh 29.40 in995.6 mb 0.00 in0.0 mm 0.00 in0.0 mm 0.00 in0.0 mm
01:11 AM 46.3°F7.9°C 44.4°F6.9°C 93% 7.1 mph SE11.4 kmh SE 10.0 mph16.1 kmh 29.40 in995.6 mb 0.00 in0.0 mm 0.00 in0.0 mm 0.00 in0.0 mm
01:12 AM 46.4°F8.0°C 44.5°F6.9°C 93% 7.5 mph SE12.1 kmh SE 10.0 mph16.1 kmh 29.40 in995.6 mb 0.00 in0.0 mm 0.00 in0.0 mm 0.00 in0.0 mm
01:13 AM 46.3°F7.9°C 44.4°F6.9°C 93% 8.2 mph SE13.2 kmh SE 12.0 mph19.3 kmh 29.40 in995.6 mb 0.00 in0.0 mm 0.00 in0.0 mm 0.00 in0.0 mm
01:14 AM 46.3°F7.9°C 44.4°F6.9°C 93% 5.4 mph SE8.7 kmh SE 12.0 mph19.3 kmh 29.40 in995.6 mb 0.00 in0.0 mm 0.00 in0.0 mm 0.00 in0.0 mm
01:15 AM 46.3°F7.9°C 44.4°F6.9°C 93% 6.2 mph SE10.0 kmh SE 9.0 mph14.5 kmh 29.40 in995.6 mb 0.00 in0.0 mm 0.00 in0.0 mm 0.00 in0.0 mm
01:16 AM 46.4°F8.0°C 44.5°F6.9°C 93% 8.3 mph SE13.4 kmh SE 10.0 mph16.1 kmh 29.40 in995.6 mb 0.00 in0.0 mm 0.00 in0.0 mm 0.00 in0.0 mm
01:17 AM 46.4°F8.0°C 44.5°F6.9°C 93% 6.3 mph SE10.1 kmh SE 10.0 mph16.1 kmh 29.40 in995.6 mb 0.00 in0.0 mm 0.00 in0.0 mm 0.00 in0.0 mm
01:18 AM 46.4°F8.0°C 44.5°F6.9°C 93% 9.8 mph SSE15.8 kmh SSE 12.0 mph19.3 kmh 29.40 in995.6 mb 0.00 in0.0 mm 0.00 in0.0 mm 0.00 in0.0 mm
01:19 AM 46.4°F8.0°C 44.5°F6.9°C 93% 8.2 mph SE13.2 kmh SE 12.0 mph19.3 kmh 29.40 in995.6 mb 0.00 in0.0 mm 0.00 in0.0 mm 0.00 in0.0 mm
01:20 AM 46.4°F8.0°C 44.5°F6.9°C 93% 6.5 mph SSE10.5 kmh SSE 10.0 mph16.1 kmh 29.40 in995.6 mb 0.00 in0.0 mm 0.00 in0.0 mm 0.00 in0.0 mm
01:21 AM 46.4°F8.0°C 44.5°F6.9°C 93% 6.1 mph SE9.8 kmh SE 10.0 mph16.1 kmh 29.40 in995.6 mb 0.00 in0.0 mm 0.00 in0.0 mm 0.00 in0.0 mm
01:22 AM 46.3°F7.9°C 44.4°F6.9°C 93% 7.3 mph SSE11.7 kmh SSE 10.0 mph16.1 kmh 29.40 in995.6 mb 0.00 in0.0 mm 0.00 in0.0 mm 0.00 in0.0 mm
01:23 AM 46.4°F8.0°C 44.5°F6.9°C 93% 7.3 mph SSE11.7 kmh SSE 10.0 mph16.1 kmh 29.40 in995.6 mb 0.00 in0.0 mm 0.00 in0.0 mm 0.00 in0.0 mm
01:24 AM 46.4°F8.0°C 44.5°F6.9°C 93% 6.3 mph SSE10.1 kmh SSE 10.0 mph16.1 kmh 29.40 in995.6 mb 0.00 in0.0 mm 0.00 in0.0 mm 0.00 in0.0 mm
01:25 AM 46.5°F8.1°C 44.6°F7.0°C 93% 5.5 mph SSE8.9 kmh SSE 11.0 mph17.7 kmh 29.40 in995.6 mb 0.00 in0.0 mm 0.00 in0.0 mm 0.00 in0.0 mm
01:26 AM 46.5°F8.1°C 44.6°F7.0°C 93% 4.6 mph SSE7.4 kmh SSE 11.0 mph17.7 kmh 29.40 in995.6 mb 0.00 in0.0 mm 0.00 in0.0 mm 0.00 in0.0 mm
01:27 AM 46.5°F8.1°C 44.6°F7.0°C 93% 8.1 mph SSE13.0 kmh SSE 11.0 mph17.7 kmh 29.40 in995.6 mb 0.00 in0.0 mm 0.00 in0.0 mm 0.00 in0.0 mm
01:28 AM 46.5°F8.1°C 44.6°F7.0°C 93% 5.4 mph SSE8.7 kmh SSE 11.0 mph17.7 kmh 29.40 in995.6 mb 0.00 in0.0 mm 0.00 in0.0 mm 0.00 in0.0 mm
01:29 AM 46.5°F8.1°C 44.6°F7.0°C 93% 8.0 mph SSE12.9 kmh SSE 11.0 mph17.7 kmh 29.41 in995.9 mb 0.00 in0.0 mm 0.00 in0.0 mm 0.00 in0.0 mm
01:30 AM 46.7°F8.2°C 44.8°F7.1°C 93% 9.0 mph SSE14.5 kmh SSE 15.0 mph24.1 kmh 29.40 in995.6 mb 0.00 in0.0 mm 0.00 in0.0 mm 0.00 in0.0 mm
01:31 AM 46.8°F8.2°C 44.9°F7.2°C 93% 8.6 mph SSE13.8 kmh SSE 15.0 mph24.1 kmh 29.40 in995.6 mb 0.00 in0.0 mm 0.00 in0.0 mm 0.00 in0.0 mm
01:32 AM 46.8°F8.2°C 44.9°F7.2°C 93% 7.8 mph SSE12.6 kmh SSE 12.0 mph19.3 kmh 29.40 in995.6 mb 0.00 in0.0 mm 0.00 in0.0 mm 0.00 in0.0 mm
01:33 AM 46.9°F8.3°C 45.0°F7.2°C 93% 7.7 mph SSE12.4 kmh SSE 12.0 mph19.3 kmh 29.41 in995.9 mb 0.00 in0.0 mm 0.00 in0.0 mm 0.00 in0.0 mm
01:34 AM 47.0°F8.3°C 45.1°F7.3°C 93% 10.0 mph SSE16.1 kmh SSE 15.0 mph24.1 kmh 29.40 in995.6 mb 0.00 in0.0 mm 0.00 in0.0 mm 0.00 in0.0 mm
01:35 AM 47.0°F8.3°C 45.1°F7.3°C 93% 9.1 mph SSE14.6 kmh SSE 15.0 mph24.1 kmh 29.41 in995.9 mb 0.00 in0.0 mm 0.00 in0.0 mm 0.00 in0.0 mm
01:36 AM 47.0°F8.3°C 45.1°F7.3°C 93% 10.8 mph SSE17.4 kmh SSE 16.0 mph25.7 kmh 29.41 in995.9 mb 0.00 in0.0 mm 0.00 in0.0 mm 0.00 in0.0 mm
01:37 AM 47.0°F8.3°C 45.1°F7.3°C 93% 9.3 mph SSE15.0 kmh SSE 16.0 mph25.7 kmh 29.41 in995.9 mb 0.00 in0.0 mm 0.00 in0.0 mm 0.00 in0.0 mm
01:38 AM 47.0°F8.3°C 45.1°F7.3°C 93% 9.7 mph SSE15.6 kmh SSE 17.0 mph27.4 kmh 29.41 in995.9 mb 0.00 in0.0 mm 0.00 in0.0 mm 0.00 in0.0 mm
01:39 AM 47.1°F8.4°C 45.2°F7.3°C 93% 7.7 mph SSE12.4 kmh SSE 17.0 mph27.4 kmh 29.41 in995.9 mb 0.00 in0.0 mm 0.00 in0.0 mm 0.00 in0.0 mm
01:40 AM 47.1°F8.4°C 45.2°F7.3°C 93% 8.0 mph S12.9 kmh S 11.0 mph17.7 kmh 29.41 in995.9 mb 0.00 in0.0 mm 0.00 in0.0 mm 0.00 in0.0 mm
01:41 AM 47.1°F8.4°C 45.2°F7.3°C 93% 8.0 mph S12.9 kmh S 13.0 mph20.9 kmh 29.41 in995.9 mb 0.00 in0.0 mm 0.00 in0.0 mm 0.00 in0.0 mm
01:42 AM 47.2°F8.4°C 45.3°F7.4°C 93% 9.2 mph S14.8 kmh S 12.0 mph19.3 kmh 29.41 in995.9 mb 0.01 in0.3 mm 0.60 in15.2 mm 0.01 in0.3 mm
01:43 AM 47.2°F8.4°C 45.3°F7.4°C 93% 10.1 mph SSE16.3 kmh SSE 12.0 mph19.3 kmh 29.41 in995.9 mb 0.01 in0.3 mm 0.00 in0.0 mm 0.01 in0.3 mm
01:44 AM 47.2°F8.4°C 45.3°F7.4°C 93% 8.3 mph SSE13.4 kmh SSE 12.0 mph19.3 kmh 29.41 in995.9 mb 0.02 in0.5 mm 0.60 in15.2 mm 0.02 in0.5 mm
01:45 AM 47.2°F8.4°C 45.3°F7.4°C 93% 8.1 mph SSE13.0 kmh SSE 12.0 mph19.3 kmh 29.41 in995.9 mb 0.02 in0.5 mm 0.00 in0.0 mm 0.02 in0.5 mm
01:46 AM 47.1°F8.4°C 45.2°F7.3°C 93% 7.7 mph SSE12.4 kmh SSE 12.0 mph19.3 kmh 29.41 in995.9 mb 0.02 in0.5 mm 0.00 in0.0 mm 0.02 in0.5 mm
01:47 AM 47.1°F8.4°C 45.2°F7.3°C 93% 7.9 mph SSE12.7 kmh SSE 12.0 mph19.3 kmh 29.41 in995.9 mb 0.02 in0.5 mm 0.00 in0.0 mm 0.02 in0.5 mm
01:48 AM 47.2°F8.4°C 45.3°F7.4°C 93% 8.9 mph SSE14.3 kmh SSE 12.0 mph19.3 kmh 29.41 in995.9 mb 0.02 in0.5 mm 0.00 in0.0 mm 0.02 in0.5 mm
01:49 AM 47.1°F8.4°C 45.2°F7.3°C 93% 8.7 mph SSE14.0 kmh SSE 11.0 mph17.7 kmh 29.41 in995.9 mb 0.02 in0.5 mm 0.00 in0.0 mm 0.02 in0.5 mm
01:50 AM 47.1°F8.4°C 45.2°F7.3°C 93% 10.2 mph SSE16.4 kmh SSE 15.0 mph24.1 kmh 29.41 in995.9 mb 0.02 in0.5 mm 0.00 in0.0 mm 0.02 in0.5 mm
01:51 AM 47.1°F8.4°C 45.2°F7.3°C 93% 10.0 mph SSE16.1 kmh SSE 15.0 mph24.1 kmh 29.41 in995.9 mb 0.02 in0.5 mm 0.00 in0.0 mm 0.02 in0.5 mm
01:52 AM 47.0°F8.3°C 45.1°F7.3°C 93% 9.1 mph SSE14.6 kmh SSE 14.0 mph22.5 kmh 29.41 in995.9 mb 0.02 in0.5 mm 0.00 in0.0 mm 0.02 in0.5 mm
01:53 AM 47.0°F8.3°C 45.1°F7.3°C 93% 7.3 mph SSE11.7 kmh SSE 12.0 mph19.3 kmh 29.41 in995.9 mb 0.02 in0.5 mm 0.00 in0.0 mm 0.02 in0.5 mm
01:54 AM 47.0°F8.3°C 45.1°F7.3°C 93% 8.7 mph SE14.0 kmh SE 13.0 mph20.9 kmh 29.41 in995.9 mb 0.03 in0.8 mm 0.60 in15.2 mm 0.03 in0.8 mm
01:55 AM 47.0°F8.3°C 45.1°F7.3°C 93% 10.1 mph SSE16.3 kmh SSE 15.0 mph24.1 kmh 29.41 in995.9 mb 0.03 in0.8 mm 0.00 in0.0 mm 0.03 in0.8 mm
01:56 AM 47.0°F8.3°C 45.1°F7.3°C 93% 9.8 mph SSE15.8 kmh SSE 15.0 mph24.1 kmh 29.41 in995.9 mb 0.03 in0.8 mm 0.00 in0.0 mm 0.03 in0.8 mm
01:57 AM 47.0°F8.3°C 45.1°F7.3°C 93% 9.0 mph SSE14.5 kmh SSE 12.0 mph19.3 kmh 29.41 in995.9 mb 0.03 in0.8 mm 0.00 in0.0 mm 0.03 in0.8 mm
01:58 AM 47.0°F8.3°C 45.1°F7.3°C 93% 9.0 mph SSE14.5 kmh SSE 11.0 mph17.7 kmh 29.41 in995.9 mb 0.03 in0.8 mm 0.00 in0.0 mm 0.03 in0.8 mm
01:59 AM 47.0°F8.3°C 45.1°F7.3°C 93% 9.1 mph SSE14.6 kmh SSE 11.0 mph17.7 kmh 29.41 in995.9 mb 0.04 in1.0 mm 0.60 in15.2 mm 0.04 in1.0 mm
02:00 AM 47.0°F8.3°C 45.1°F7.3°C 93% 6.5 mph SSE10.5 kmh SSE 11.0 mph17.7 kmh 29.41 in995.9 mb 0.04 in1.0 mm 0.00 in0.0 mm 0.04 in1.0 mm
02:01 AM 47.0°F8.3°C 45.1°F7.3°C 93% 9.0 mph SSE14.5 kmh SSE 13.0 mph20.9 kmh 29.41 in995.9 mb 0.04 in1.0 mm 0.00 in0.0 mm 0.04 in1.0 mm
02:02 AM 47.1°F8.4°C 45.2°F7.3°C 93% 7.5 mph SSE12.1 kmh SSE 13.0 mph20.9 kmh 29.41 in995.9 mb 0.04 in1.0 mm 0.00 in0.0 mm 0.04 in1.0 mm
02:03 AM 47.0°F8.3°C 45.1°F7.3°C 93% 7.2 mph SSE11.6 kmh SSE 10.0 mph16.1 kmh 29.41 in995.9 mb 0.04 in1.0 mm 0.00 in0.0 mm 0.04 in1.0 mm
02:04 AM 47.0°F8.3°C 45.1°F7.3°C 93% 6.6 mph SSE10.6 kmh SSE 10.0 mph16.1 kmh 29.41 in995.9 mb 0.05 in1.3 mm 0.60 in15.2 mm 0.05 in1.3 mm
02:05 AM 47.0°F8.3°C 45.1°F7.3°C 93% 6.6 mph SSE10.6 kmh SSE 10.0 mph16.1 kmh 29.41 in995.9 mb 0.05 in1.3 mm 0.00 in0.0 mm 0.05 in1.3 mm
02:06 AM 47.0°F8.3°C 45.1°F7.3°C 93% 7.5 mph SSE12.1 kmh SSE 10.0 mph16.1 kmh 29.41 in995.9 mb 0.05 in1.3 mm 0.00 in0.0 mm 0.05 in1.3 mm
02:07 AM 47.0°F8.3°C 45.1°F7.3°C 93% 6.6 mph SSE10.6 kmh SSE 10.0 mph16.1 kmh 29.41 in995.9 mb 0.06 in1.5 mm 0.60 in15.2 mm 0.06 in1.5 mm
02:08 AM 47.0°F8.3°C 45.1°F7.3°C 93% 6.7 mph SSE10.8 kmh SSE 10.0 mph16.1 kmh 29.41 in995.9 mb 0.06 in1.5 mm 0.00 in0.0 mm 0.06 in1.5 mm
02:09 AM 47.0°F8.3°C 45.1°F7.3°C 93% 7.9 mph S12.7 kmh S 10.0 mph16.1 kmh 29.41 in995.9 mb 0.06 in1.5 mm 0.00 in0.0 mm 0.06 in1.5 mm
02:10 AM 47.1°F8.4°C 45.2°F7.3°C 93% 6.0 mph SSE9.7 kmh SSE 10.0 mph16.1 kmh 29.41 in995.9 mb 0.06 in1.5 mm 0.00 in0.0 mm 0.06 in1.5 mm
02:11 AM 47.1°F8.4°C 45.2°F7.3°C 93% 7.0 mph SSE11.3 kmh SSE 10.0 mph16.1 kmh 29.41 in995.9 mb 0.06 in1.5 mm 0.00 in0.0 mm 0.06 in1.5 mm
02:12 AM 47.1°F8.4°C 45.2°F7.3°C 93% 5.9 mph SSE9.5 kmh SSE 8.0 mph12.9 kmh 29.41 in995.9 mb 0.06 in1.5 mm 0.00 in0.0 mm 0.06 in1.5 mm
02:13 AM 47.1°F8.4°C 45.2°F7.3°C 93% 6.5 mph S10.5 kmh S 9.0 mph14.5 kmh 29.41 in995.9 mb 0.06 in1.5 mm 0.00 in0.0 mm 0.06 in1.5 mm
02:14 AM 47.2°F8.4°C 45.3°F7.4°C 93% 7.2 mph S11.6 kmh S 10.0 mph16.1 kmh 29.41 in995.9 mb 0.06 in1.5 mm 0.00 in0.0 mm 0.06 in1.5 mm
02:15 AM 47.1°F8.4°C 45.2°F7.3°C 93% 5.1 mph S8.2 kmh S 10.0 mph16.1 kmh 29.41 in995.9 mb 0.06 in1.5 mm 0.00 in0.0 mm 0.06 in1.5 mm
02:16 AM 47.1°F8.4°C 45.2°F7.3°C 93% 4.8 mph S7.7 kmh S 9.0 mph14.5 kmh 29.41 in995.9 mb 0.06 in1.5 mm 0.00 in0.0 mm 0.06 in1.5 mm
02:17 AM 47.1°F8.4°C 45.2°F7.3°C 93% 7.6 mph SSE12.2 kmh SSE 10.0 mph16.1 kmh 29.41 in995.9 mb 0.06 in1.5 mm 0.00 in0.0 mm 0.06 in1.5 mm
02:18 AM 47.0°F8.3°C 45.1°F7.3°C 93% 6.9 mph SSE11.1 kmh SSE 10.0 mph16.1 kmh 29.41 in995.9 mb 0.06 in1.5 mm 0.00 in0.0 mm 0.06 in1.5 mm
02:19 AM 47.0°F8.3°C 45.1°F7.3°C 93% 4.5 mph SSE7.2 kmh SSE 9.0 mph14.5 kmh 29.41 in995.9 mb 0.07 in1.8 mm 0.60 in15.2 mm 0.07 in1.8 mm
02:20 AM 47.0°F8.3°C 45.1°F7.3°C 93% 6.7 mph SSE10.8 kmh SSE 10.0 mph16.1 kmh 29.41 in995.9 mb 0.07 in1.8 mm 0.00 in0.0 mm 0.07 in1.8 mm
02:21 AM 47.0°F8.3°C 45.1°F7.3°C 93% 6.5 mph S10.5 kmh S 10.0 mph16.1 kmh 29.41 in995.9 mb 0.07 in1.8 mm 0.00 in0.0 mm 0.07 in1.8 mm
02:22 AM 46.9°F8.3°C 45.0°F7.2°C 93% 5.4 mph SSE8.7 kmh SSE 10.0 mph16.1 kmh 29.41 in995.9 mb 0.07 in1.8 mm 0.00 in0.0 mm 0.07 in1.8 mm
02:23 AM 46.9°F8.3°C 45.0°F7.2°C 93% 6.5 mph SSE10.5 kmh SSE 10.0 mph16.1 kmh 29.41 in995.9 mb 0.07 in1.8 mm 0.00 in0.0 mm 0.07 in1.8 mm
02:24 AM 46.9°F8.3°C 45.0°F7.2°C 93% 7.4 mph SSE11.9 kmh SSE 10.0 mph16.1 kmh 29.40 in995.6 mb 0.07 in1.8 mm 0.00 in0.0 mm 0.07 in1.8 mm
02:25 AM 46.9°F8.3°C 45.0°F7.2°C 93% 7.3 mph SE11.7 kmh SE 10.0 mph16.1 kmh 29.40 in995.6 mb 0.07 in1.8 mm 0.00 in0.0 mm 0.07 in1.8 mm
02:26 AM 46.9°F8.3°C 45.0°F7.2°C 93% 6.7 mph SE10.8 kmh SE 10.0 mph16.1 kmh 29.40 in995.6 mb 0.08 in2.0 mm 0.60 in15.2 mm 0.08 in2.0 mm
02:27 AM 46.9°F8.3°C 45.0°F7.2°C 93% 5.7 mph SSE9.2 kmh SSE 9.0 mph14.5 kmh 29.40 in995.6 mb 0.08 in2.0 mm 0.00 in0.0 mm 0.08 in2.0 mm
02:28 AM 46.9°F8.3°C 45.0°F7.2°C 93% 5.0 mph SE8.0 kmh SE 8.0 mph12.9 kmh 29.40 in995.6 mb 0.09 in2.3 mm 0.60 in15.2 mm 0.09 in2.3 mm
02:29 AM 46.8°F8.2°C 44.9°F7.2°C 93% 4.8 mph SE7.7 kmh SE 7.0 mph11.3 kmh 29.40 in995.6 mb 0.09 in2.3 mm 0.00 in0.0 mm 0.09 in2.3 mm
02:30 AM 46.8°F8.2°C 44.9°F7.2°C 93% 6.2 mph SE10.0 kmh SE 8.0 mph12.9 kmh 29.40 in995.6 mb 0.09 in2.3 mm 0.00 in0.0 mm 0.09 in2.3 mm
02:31 AM 46.8°F8.2°C 44.9°F7.2°C 93% 6.0 mph SE9.7 kmh SE 8.0 mph12.9 kmh 29.39 in995.3 mb 0.09 in2.3 mm 0.00 in0.0 mm 0.09 in2.3 mm
02:32 AM 46.8°F8.2°C 44.9°F7.2°C 93% 7.0 mph SE11.3 kmh SE 8.0 mph12.9 kmh 29.39 in995.3 mb 0.10 in2.5 mm 0.60 in15.2 mm 0.10 in2.5 mm
02:33 AM 46.8°F8.2°C 44.9°F7.2°C 93% 3.2 mph SE5.1 kmh SE 4.0 mph6.4 kmh 29.39 in995.3 mb 0.10 in2.5 mm 0.00 in0.0 mm 0.10 in2.5 mm
02:34 AM 46.8°F8.2°C 44.9°F7.2°C 93% 3.9 mph SE6.3 kmh SE 5.0 mph8.0 kmh 29.39 in995.3 mb 0.10 in2.5 mm 0.00 in0.0 mm 0.10 in2.5 mm
02:35 AM 46.7°F8.2°C 44.8°F7.1°C 93% 4.4 mph SE7.1 kmh SE 5.0 mph8.0 kmh 29.39 in995.3 mb 0.10 in2.5 mm 0.00 in0.0 mm 0.10 in2.5 mm
02:36 AM 46.7°F8.2°C 44.8°F7.1°C 93% 5.0 mph SE8.0 kmh SE 8.0 mph12.9 kmh 29.39 in995.3 mb 0.10 in2.5 mm 0.00 in0.0 mm 0.10 in2.5 mm
02:37 AM 46.7°F8.2°C 44.8°F7.1°C 93% 5.0 mph SE8.0 kmh SE 8.0 mph12.9 kmh 29.39 in995.3 mb 0.10 in2.5 mm 0.00 in0.0 mm 0.10 in2.5 mm
02:38 AM 46.7°F8.2°C 44.8°F7.1°C 93% 4.5 mph SE7.2 kmh SE 7.0 mph11.3 kmh 29.39 in995.3 mb 0.10 in2.5 mm 0.00 in0.0 mm 0.10 in2.5 mm
02:39 AM 46.7°F8.2°C 44.8°F7.1°C 93% 5.1 mph SE8.2 kmh SE 7.0 mph11.3 kmh 29.39 in995.3 mb 0.10 in2.5 mm 0.00 in0.0 mm 0.10 in2.5 mm
02:40 AM 46.6°F8.1°C 44.7°F7.1°C 93% 4.9 mph SE7.9 kmh SE 7.0 mph11.3 kmh 29.39 in995.3 mb 0.10 in2.5 mm 0.00 in0.0 mm 0.10 in2.5 mm
02:41 AM 46.5°F8.1°C 44.6°F7.0°C 93% 5.3 mph SE8.5 kmh SE 7.0 mph11.3 kmh 29.39 in995.3 mb 0.10 in2.5 mm 0.00 in0.0 mm 0.10 in2.5 mm
02:42 AM 46.5°F8.1°C 44.6°F7.0°C 93% 4.2 mph SE6.8 kmh SE 7.0 mph11.3 kmh 29.39 in995.3 mb 0.09 in2.3 mm 0.00 in0.0 mm 0.10 in2.5 mm
02:43 AM 46.4°F8.0°C 44.5°F6.9°C 93% 4.8 mph SE7.7 kmh SE 6.0 mph9.7 kmh 29.39 in995.3 mb 0.09 in2.3 mm 0.00 in0.0 mm 0.10 in2.5 mm
02:44 AM 46.3°F7.9°C 44.4°F6.9°C 93% 5.0 mph SE8.0 kmh SE 7.0 mph11.3 kmh 29.38 in994.9 mb 0.09 in2.3 mm 0.00 in0.0 mm 0.10 in2.5 mm
02:45 AM 46.3°F7.9°C 44.4°F6.9°C 93% 5.1 mph SE8.2 kmh SE 8.0 mph12.9 kmh 29.39 in995.3 mb 0.09 in2.3 mm 0.00 in0.0 mm 0.10 in2.5 mm
02:46 AM 46.2°F7.9°C 44.3°F6.8°C 93% 5.1 mph SE8.2 kmh SE 8.0 mph12.9 kmh 29.39 in995.3 mb 0.09 in2.3 mm 0.00 in0.0 mm 0.10 in2.5 mm
02:47 AM 46.2°F7.9°C 44.3°F6.8°C 93% 5.1 mph SSE8.2 kmh SSE 7.0 mph11.3 kmh 29.38 in994.9 mb 0.09 in2.3 mm 0.00 in0.0 mm 0.10 in2.5 mm
02:48 AM 46.1°F7.8°C 44.2°F6.8°C 93% 4.6 mph SE7.4 kmh SE 7.0 mph11.3 kmh 29.38 in994.9 mb 0.09 in2.3 mm 0.00 in0.0 mm 0.10 in2.5 mm
02:49 AM 46.2°F7.9°C 44.3°F6.8°C 93% 4.1 mph SE6.6 kmh SE 6.0 mph9.7 kmh 29.38 in994.9 mb 0.09 in2.3 mm 0.00 in0.0 mm 0.10 in2.5 mm
02:50 AM 46.2°F7.9°C 44.3°F6.8°C 93% 5.0 mph SE8.0 kmh SE 7.0 mph11.3 kmh 29.38 in994.9 mb 0.08 in2.0 mm 0.00 in0.0 mm 0.10 in2.5 mm
02:51 AM 46.1°F7.8°C 44.2°F6.8°C 93% 5.9 mph SE9.5 kmh SE 8.0 mph12.9 kmh 29.38 in994.9 mb 0.08 in2.0 mm 0.00 in0.0 mm 0.10 in2.5 mm
02:52 AM 46.1°F7.8°C 44.2°F6.8°C 93% 5.5 mph SE8.9 kmh SE 8.0 mph12.9 kmh 29.38 in994.9 mb 0.08 in2.0 mm 0.00 in0.0 mm 0.10 in2.5 mm
02:53 AM 46.1°F7.8°C 44.2°F6.8°C 93% 6.5 mph SE10.5 kmh SE 8.0 mph12.9 kmh 29.37 in994.6 mb 0.08 in2.0 mm 0.00 in0.0 mm 0.10 in2.5 mm
02:54 AM 46.1°F7.8°C 44.2°F6.8°C 93% 5.9 mph SE9.5 kmh SE 8.0 mph12.9 kmh 29.38 in994.9 mb 0.07 in1.8 mm 0.00 in0.0 mm 0.10 in2.5 mm
02:55 AM 46.1°F7.8°C 44.2°F6.8°C 93% 7.2 mph SE11.6 kmh SE 8.0 mph12.9 kmh 29.38 in994.9 mb 0.08 in2.0 mm 0.60 in15.2 mm 0.11 in2.8 mm
02:56 AM 46.1°F7.8°C 44.2°F6.8°C 93% 7.1 mph SE11.4 kmh SE 8.0 mph12.9 kmh 29.38 in994.9 mb 0.08 in2.0 mm 0.00 in0.0 mm 0.11 in2.8 mm
02:57 AM 46.1°F7.8°C 44.2°F6.8°C 93% 7.0 mph SE11.3 kmh SE 9.0 mph14.5 kmh 29.38 in994.9 mb 0.08 in2.0 mm 0.00 in0.0 mm 0.11 in2.8 mm
02:58 AM 46.2°F7.9°C 44.3°F6.8°C 93% 8.0 mph SE12.9 kmh SE 10.0 mph16.1 kmh 29.37 in994.6 mb 0.08 in2.0 mm 0.00 in0.0 mm 0.11 in2.8 mm
02:59 AM 46.2°F7.9°C 44.3°F6.8°C 93% 8.1 mph SE13.0 kmh SE 10.0 mph16.1 kmh 29.37 in994.6 mb 0.07 in1.8 mm 0.00 in0.0 mm 0.11 in2.8 mm
03:00 AM 46.1°F7.8°C 44.2°F6.8°C 93% 6.9 mph SE11.1 kmh SE 10.0 mph16.1 kmh 29.37 in994.6 mb 0.07 in1.8 mm 0.00 in0.0 mm 0.11 in2.8 mm
03:01 AM 46.2°F7.9°C 44.3°F6.8°C 93% 7.9 mph SE12.7 kmh SE 9.0 mph14.5 kmh 29.37 in994.6 mb 0.07 in1.8 mm 0.00 in0.0 mm 0.11 in2.8 mm
03:02 AM 46.1°F7.8°C 44.2°F6.8°C 93% 6.4 mph SE10.3 kmh SE 10.0 mph16.1 kmh 29.37 in994.6 mb 0.07 in1.8 mm 0.00 in0.0 mm 0.11 in2.8 mm
03:03 AM 46.1°F7.8°C 44.2°F6.8°C 93% 6.9 mph SE11.1 kmh SE 10.0 mph16.1 kmh 29.38 in994.9 mb 0.07 in1.8 mm 0.00 in0.0 mm 0.11 in2.8 mm
03:04 AM 46.1°F7.8°C 44.2°F6.8°C 93% 5.4 mph SE8.7 kmh SE 8.0 mph12.9 kmh 29.37 in994.6 mb 0.06 in1.5 mm 0.00 in0.0 mm 0.11 in2.8 mm
03:05 AM 46.1°F7.8°C 44.2°F6.8°C 93% 4.6 mph SE7.4 kmh SE 8.0 mph12.9 kmh 29.37 in994.6 mb 0.06 in1.5 mm 0.00 in0.0 mm 0.11 in2.8 mm
03:06 AM 46.0°F7.8°C 44.1°F6.7°C 93% 5.6 mph SE9.0 kmh SE 8.0 mph12.9 kmh 29.37 in994.6 mb 0.06 in1.5 mm 0.00 in0.0 mm 0.11 in2.8 mm
03:07 AM 45.9°F7.7°C 44.0°F6.7°C 93% 6.0 mph SE9.7 kmh SE 8.0 mph12.9 kmh 29.37 in994.6 mb 0.06 in1.5 mm 0.00 in0.0 mm 0.11 in2.8 mm
03:08 AM 45.9°F7.7°C 44.0°F6.7°C 93% 5.0 mph SE8.0 kmh SE 6.0 mph9.7 kmh 29.37 in994.6 mb 0.06 in1.5 mm 0.00 in0.0 mm 0.11 in2.8 mm
03:09 AM 45.8°F7.7°C 43.9°F6.6°C 93% 5.0 mph SE8.0 kmh SE 6.0 mph9.7 kmh 29.37 in994.6 mb 0.06 in1.5 mm 0.00 in0.0 mm 0.11 in2.8 mm
03:10 AM 45.8°F7.7°C 43.9°F6.6°C 93% 5.2 mph SE8.4 kmh SE 7.0 mph11.3 kmh 29.37 in994.6 mb 0.05 in1.3 mm 0.00 in0.0 mm 0.11 in2.8 mm
03:11 AM 45.8°F7.7°C 43.9°F6.6°C 93% 5.2 mph SE8.4 kmh SE 7.0 mph11.3 kmh 29.37 in994.6 mb 0.05 in1.3 mm 0.00 in0.0 mm 0.11 in2.8 mm
03:12 AM 45.7°F7.6°C 43.8°F6.6°C 93% 5.3 mph SE8.5 kmh SE 7.0 mph11.3 kmh 29.37 in994.6 mb 0.05 in1.3 mm 0.00 in0.0 mm 0.11 in2.8 mm
03:13 AM 45.7°F7.6°C 43.8°F6.6°C 93% 5.9 mph SE9.5 kmh SE 8.0 mph12.9 kmh 29.37 in994.6 mb 0.05 in1.3 mm 0.00 in0.0 mm 0.11 in2.8 mm
03:14 AM 45.7°F7.6°C 43.8°F6.6°C 93% 5.4 mph SE8.7 kmh SE 8.0 mph12.9 kmh 29.38 in994.9 mb 0.05 in1.3 mm 0.00 in0.0 mm 0.11 in2.8 mm
03:15 AM 45.7°F7.6°C 43.8°F6.6°C 93% 5.1 mph SE8.2 kmh SE 7.0 mph11.3 kmh 29.38 in994.9 mb 0.05 in1.3 mm 0.00 in0.0 mm 0.11 in2.8 mm
03:16 AM 45.6°F7.6°C 43.7°F6.5°C 93% 5.5 mph SSE8.9 kmh SSE 7.0 mph11.3 kmh 29.38 in994.9 mb 0.05 in1.3 mm 0.00 in0.0 mm 0.11 in2.8 mm
03:17 AM 45.7°F7.6°C 43.8°F6.6°C 93% 4.4 mph SSE7.1 kmh SSE 7.0 mph11.3 kmh 29.38 in994.9 mb 0.05 in1.3 mm 0.00 in0.0 mm 0.11 in2.8 mm
03:18 AM 45.8°F7.7°C 44.2°F6.8°C 94% 5.0 mph S8.0 kmh S 7.0 mph11.3 kmh 29.38 in994.9 mb 0.05 in1.3 mm 0.00 in0.0 mm 0.11 in2.8 mm
03:19 AM 45.8°F7.7°C 44.2°F6.8°C 94% 4.8 mph S7.7 kmh S 11.0 mph17.7 kmh 29.38 in994.9 mb 0.04 in1.0 mm 0.00 in0.0 mm 0.11 in2.8 mm
03:20 AM 46.0°F7.8°C 44.4°F6.9°C 94% 6.7 mph S10.8 kmh S 11.0 mph17.7 kmh 29.38 in994.9 mb 0.04 in1.0 mm 0.00 in0.0 mm 0.11 in2.8 mm
03:21 AM 46.2°F7.9°C 44.6°F7.0°C 94% 7.2 mph S11.6 kmh S 9.0 mph14.5 kmh 29.38 in994.9 mb 0.04 in1.0 mm 0.00 in0.0 mm 0.11 in2.8 mm
03:22 AM 46.4°F8.0°C 44.8°F7.1°C 94% 9.2 mph S14.8 kmh S 12.0 mph19.3 kmh 29.38 in994.9 mb 0.04 in1.0 mm 0.00 in0.0 mm 0.11 in2.8 mm
03:23 AM 46.6°F8.1°C 45.0°F7.2°C 94% 6.7 mph S10.8 kmh S 12.0 mph19.3 kmh 29.38 in994.9 mb 0.04 in1.0 mm 0.00 in0.0 mm 0.11 in2.8 mm
03:24 AM 46.7°F8.2°C 45.1°F7.3°C 94% 5.8 mph S9.3 kmh S 9.0 mph14.5 kmh 29.38 in994.9 mb 0.04 in1.0 mm 0.00 in0.0 mm 0.11 in2.8 mm
03:25 AM 46.8°F8.2°C 45.2°F7.3°C 94% 6.6 mph S10.6 kmh S 10.0 mph16.1 kmh 29.38 in994.9 mb 0.04 in1.0 mm 0.00 in0.0 mm 0.11 in2.8 mm
03:26 AM 46.9°F8.3°C 45.3°F7.4°C 94% 5.0 mph S8.0 kmh S 10.0 mph16.1 kmh 29.39 in995.3 mb 0.03 in0.8 mm 0.00 in0.0 mm 0.11 in2.8 mm
03:27 AM 47.0°F8.3°C 45.4°F7.4°C 94% 6.0 mph S9.7 kmh S 9.0 mph14.5 kmh 29.38 in994.9 mb 0.03 in0.8 mm 0.00 in0.0 mm 0.11 in2.8 mm
03:28 AM 47.0°F8.3°C 45.4°F7.4°C 94% 5.8 mph SSE9.3 kmh SSE 9.0 mph14.5 kmh 29.38 in994.9 mb 0.02 in0.5 mm 0.00 in0.0 mm 0.11 in2.8 mm
03:29 AM 47.0°F8.3°C 45.4°F7.4°C 94% 5.0 mph SSE8.0 kmh SSE 8.0 mph12.9 kmh 29.38 in994.9 mb 0.02 in0.5 mm 0.00 in0.0 mm 0.11 in2.8 mm
03:30 AM 47.0°F8.3°C 45.4°F7.4°C 94% 5.3 mph SSE8.5 kmh SSE 8.0 mph12.9 kmh 29.38 in994.9 mb 0.02 in0.5 mm 0.00 in0.0 mm 0.11 in2.8 mm
03:31 AM 47.1°F8.4°C 45.5°F7.5°C 94% 6.5 mph SE10.5 kmh SE 9.0 mph14.5 kmh 29.38 in994.9 mb 0.02 in0.5 mm 0.00 in0.0 mm 0.11 in2.8 mm
03:32 AM 47.1°F8.4°C 45.5°F7.5°C 94% 7.5 mph SE12.1 kmh SE 9.0 mph14.5 kmh 29.38 in994.9 mb 0.02 in0.5 mm 0.00 in0.0 mm 0.12 in3.0 mm
03:33 AM 47.0°F8.3°C 45.4°F7.4°C 94% 9.3 mph SE15.0 kmh SE 11.0 mph17.7 kmh 29.38 in994.9 mb 0.02 in0.5 mm 0.00 in0.0 mm 0.12 in3.0 mm
03:34 AM 47.0°F8.3°C 45.4°F7.4°C 94% 7.5 mph SE12.1 kmh SE 11.0 mph17.7 kmh 29.38 in994.9 mb 0.02 in0.5 mm 0.00 in0.0 mm 0.12 in3.0 mm
03:35 AM 47.0°F8.3°C 45.4°F7.4°C 94% 5.5 mph SE8.9 kmh SE 10.0 mph16.1 kmh 29.37 in994.6 mb 0.02 in0.5 mm 0.00 in0.0 mm 0.13 in3.3 mm
03:36 AM 47.0°F8.3°C 45.4°F7.4°C 94% 3.8 mph SE6.1 kmh SE 8.0 mph12.9 kmh 29.37 in994.6 mb 0.02 in0.5 mm 0.00 in0.0 mm 0.13 in3.3 mm
03:37 AM 46.9°F8.3°C 45.0°F7.2°C 93% 3.8 mph SE6.1 kmh SE 5.0 mph8.0 kmh 29.37 in994.6 mb 0.02 in0.5 mm 0.00 in0.0 mm 0.13 in3.3 mm
03:38 AM 46.9°F8.3°C 45.0°F7.2°C 93% 4.3 mph SE6.9 kmh SE 8.0 mph12.9 kmh 29.37 in994.6 mb 0.02 in0.5 mm 0.00 in0.0 mm 0.13 in3.3 mm
03:39 AM 46.9°F8.3°C 45.0°F7.2°C 93% 4.2 mph SSE6.8 kmh SSE 8.0 mph12.9 kmh 29.37 in994.6 mb 0.03 in0.8 mm 0.60 in15.2 mm 0.13 in3.3 mm
03:40 AM 46.9°F8.3°C 45.0°F7.2°C 93% 3.1 mph SSE5.0 kmh SSE 5.0 mph8.0 kmh 29.37 in994.6 mb 0.03 in0.8 mm 0.00 in0.0 mm 0.13 in3.3 mm
03:41 AM 46.9°F8.3°C 45.0°F7.2°C 93% 3.4 mph SSE5.5 kmh SSE 4.0 mph6.4 kmh 29.37 in994.6 mb 0.03 in0.8 mm 0.00 in0.0 mm 0.13 in3.3 mm
03:42 AM 46.8°F8.2°C 45.2°F7.3°C 94% 3.8 mph SSE6.1 kmh SSE 5.0 mph8.0 kmh 29.37 in994.6 mb 0.03 in0.8 mm 0.00 in0.0 mm 0.13 in3.3 mm
03:43 AM 46.8°F8.2°C 44.9°F7.2°C 93% 3.7 mph SSE6.0 kmh SSE 5.0 mph8.0 kmh 29.37 in994.6 mb 0.03 in0.8 mm 0.00 in0.0 mm 0.13 in3.3 mm
03:44 AM 46.8°F8.2°C 44.9°F7.2°C 93% 3.5 mph SE5.6 kmh SE 5.0 mph8.0 kmh 29.37 in994.6 mb 0.03 in0.8 mm 0.00 in0.0 mm 0.13 in3.3 mm
03:45 AM 46.7°F8.2°C 44.8°F7.1°C 93% 4.0 mph SE6.4 kmh SE 5.0 mph8.0 kmh 29.37 in994.6 mb 0.04 in1.0 mm 0.60 in15.2 mm 0.14 in3.6 mm
03:46 AM 46.7°F8.2°C 44.8°F7.1°C 93% 4.7 mph SE7.6 kmh SE 8.0 mph12.9 kmh 29.37 in994.6 mb 0.04 in1.0 mm 0.00 in0.0 mm 0.14 in3.6 mm
03:47 AM 46.7°F8.2°C 44.8°F7.1°C 93% 5.0 mph SE8.0 kmh SE 6.0 mph9.7 kmh 29.37 in994.6 mb 0.04 in1.0 mm 0.00 in0.0 mm 0.14 in3.6 mm
03:48 AM 46.7°F8.2°C 45.1°F7.3°C 94% 5.0 mph SE8.0 kmh SE 7.0 mph11.3 kmh 29.37 in994.6 mb 0.04 in1.0 mm 0.00 in0.0 mm 0.14 in3.6 mm
03:49 AM 46.6°F8.1°C 45.0°F7.2°C 94% 4.0 mph SE6.4 kmh SE 4.0 mph6.4 kmh 29.37 in994.6 mb 0.04 in1.0 mm 0.00 in0.0 mm 0.14 in3.6 mm
03:50 AM 46.5°F8.1°C 44.9°F7.2°C 94% 4.8 mph SE7.7 kmh SE 7.0 mph11.3 kmh 29.37 in994.6 mb 0.04 in1.0 mm 0.00 in0.0 mm 0.14 in3.6 mm
03:51 AM 46.6°F8.1°C 45.0°F7.2°C 94% 5.3 mph SE8.5 kmh SE 7.0 mph11.3 kmh 29.36 in994.2 mb 0.04 in1.0 mm 0.00 in0.0 mm 0.14 in3.6 mm
03:52 AM 46.5°F8.1°C 44.9°F7.2°C 94% 5.4 mph SE8.7 kmh SE 8.0 mph12.9 kmh 29.36 in994.2 mb 0.04 in1.0 mm 0.00 in0.0 mm 0.14 in3.6 mm
03:53 AM 46.5°F8.1°C 44.9°F7.2°C 94% 5.0 mph SE8.0 kmh SE 8.0 mph12.9 kmh 29.36 in994.2 mb 0.04 in1.0 mm 0.00 in0.0 mm 0.14 in3.6 mm
03:54 AM 46.4°F8.0°C 44.8°F7.1°C 94% 5.0 mph SE8.0 kmh SE 8.0 mph12.9 kmh 29.36 in994.2 mb 0.04 in1.0 mm 0.00 in0.0 mm 0.14 in3.6 mm
03:55 AM 46.4°F8.0°C 44.8°F7.1°C 94% 6.2 mph SE10.0 kmh SE 8.0 mph12.9 kmh 29.36 in994.2 mb 0.03 in0.8 mm 0.00 in0.0 mm 0.14 in3.6 mm
03:56 AM 46.4°F8.0°C 44.8°F7.1°C 94% 6.1 mph SE9.8 kmh SE 8.0 mph12.9 kmh 29.36 in994.2 mb 0.03 in0.8 mm 0.00 in0.0 mm 0.14 in3.6 mm
03:57 AM 46.2°F7.9°C 44.3°F6.8°C 93% 5.5 mph SE8.9 kmh SE 8.0 mph12.9 kmh 29.36 in994.2 mb 0.03 in0.8 mm 0.00 in0.0 mm 0.14 in3.6 mm
03:58 AM 46.2°F7.9°C 44.3°F6.8°C 93% 4.9 mph SE7.9 kmh SE 8.0 mph12.9 kmh 29.36 in994.2 mb 0.03 in0.8 mm 0.00 in0.0 mm 0.14 in3.6 mm
03:59 AM 46.1°F7.8°C 44.2°F6.8°C 93% 5.0 mph SE8.0 kmh SE 8.0 mph12.9 kmh 29.36 in994.2 mb 0.03 in0.8 mm 0.00 in0.0 mm 0.14 in3.6 mm
04:00 AM 46.1°F7.8°C 44.2°F6.8°C 93% 5.1 mph SE8.2 kmh SE 8.0 mph12.9 kmh 29.36 in994.2 mb 0.04 in1.0 mm 0.01 in0.3 mm 0.15 in3.8 mm
04:01 AM 46.0°F7.8°C 44.1°F6.7°C 93% 3.9 mph SE6.3 kmh SE 8.0 mph12.9 kmh 29.36 in994.2 mb 0.04 in1.0 mm 0.00 in0.0 mm 0.15 in3.8 mm
04:02 AM 45.9°F7.7°C 44.0°F6.7°C 93% 4.6 mph SE7.4 kmh SE 7.0 mph11.3 kmh 29.36 in994.2 mb 0.04 in1.0 mm 0.00 in0.0 mm 0.15 in3.8 mm
04:03 AM 45.9°F7.7°C 44.0°F6.7°C 93% 5.2 mph SE8.4 kmh SE 8.0 mph12.9 kmh 29.36 in994.2 mb 0.04 in1.0 mm 0.00 in0.0 mm 0.15 in3.8 mm
04:04 AM 45.8°F7.7°C 43.9°F6.6°C 93% 5.4 mph SE8.7 kmh SE 8.0 mph12.9 kmh 29.36 in994.2 mb 0.04 in1.0 mm 0.00 in0.0 mm 0.15 in3.8 mm
04:05 AM 45.8°F7.7°C 43.9°F6.6°C 93% 5.4 mph SE8.7 kmh SE 8.0 mph12.9 kmh 29.36 in994.2 mb 0.04 in1.0 mm 0.00 in0.0 mm 0.15 in3.8 mm
04:06 AM 45.8°F7.7°C 43.9°F6.6°C 93% 5.9 mph SE9.5 kmh SE 8.0 mph12.9 kmh 29.36 in994.2 mb 0.04 in1.0 mm 0.00 in0.0 mm 0.15 in3.8 mm
04:07 AM 45.7°F7.6°C 43.8°F6.6°C 93% 5.9 mph SE9.5 kmh SE 8.0 mph12.9 kmh 29.36 in994.2 mb 0.04 in1.0 mm 0.00 in0.0 mm 0.15 in3.8 mm
04:08 AM 45.6°F7.6°C 43.7°F6.5°C 93% 5.5 mph SE8.9 kmh SE 8.0 mph12.9 kmh 29.36 in994.2 mb 0.04 in1.0 mm 0.00 in0.0 mm 0.15 in3.8 mm
04:09 AM 45.6°F7.6°C 43.7°F6.5°C 93% 6.0 mph SE9.7 kmh SE 7.0 mph11.3 kmh 29.36 in994.2 mb 0.04 in1.0 mm 0.00 in0.0 mm 0.15 in3.8 mm
04:10 AM 45.6°F7.6°C 43.7°F6.5°C 93% 5.0 mph SE8.0 kmh SE 8.0 mph12.9 kmh 29.36 in994.2 mb 0.04 in1.0 mm 0.00 in0.0 mm 0.15 in3.8 mm
04:11 AM 45.6°F7.6°C 43.7°F6.5°C 93% 6.7 mph SE10.8 kmh SE 7.0 mph11.3 kmh 29.36 in994.2 mb 0.04 in1.0 mm 0.00 in0.0 mm 0.15 in3.8 mm
04:12 AM 45.5°F7.5°C 43.6°F6.4°C 93% 6.0 mph SE9.7 kmh SE 8.0 mph12.9 kmh 29.36 in994.2 mb 0.04 in1.0 mm 0.00 in0.0 mm 0.15 in3.8 mm
04:13 AM 45.5°F7.5°C 43.6°F6.4°C 93% 6.8 mph SE10.9 kmh SE 9.0 mph14.5 kmh 29.36 in994.2 mb 0.04 in1.0 mm 0.00 in0.0 mm 0.15 in3.8 mm
04:14 AM 45.5°F7.5°C 43.9°F6.6°C 94% 5.1 mph SE8.2 kmh SE 9.0 mph14.5 kmh 29.36 in994.2 mb 0.04 in1.0 mm 0.00 in0.0 mm 0.15 in3.8 mm
04:15 AM 45.5°F7.5°C 43.9°F6.6°C 94% 5.0 mph SE8.0 kmh SE 8.0 mph12.9 kmh 29.36 in994.2 mb 0.04 in1.0 mm 0.00 in0.0 mm 0.15 in3.8 mm
04:16 AM 45.5°F7.5°C 43.9°F6.6°C 94% 5.4 mph SE8.7 kmh SE 8.0 mph12.9 kmh 29.36 in994.2 mb 0.04 in1.0 mm 0.00 in0.0 mm 0.15 in3.8 mm
04:17 AM 45.6°F7.6°C 44.0°F6.7°C 94% 5.3 mph SE8.5 kmh SE 8.0 mph12.9 kmh 29.36 in994.2 mb 0.04 in1.0 mm 0.00 in0.0 mm 0.15 in3.8 mm
04:18 AM 45.6°F7.6°C 44.0°F6.7°C 94% 4.5 mph SE7.2 kmh SE 8.0 mph12.9 kmh 29.36 in994.2 mb 0.04 in1.0 mm 0.00 in0.0 mm 0.15 in3.8 mm
04:19 AM 45.5°F7.5°C 43.9°F6.6°C 94% 4.8 mph SE7.7 kmh SE 7.0 mph11.3 kmh 29.36 in994.2 mb 0.04 in1.0 mm 0.00 in0.0 mm 0.15 in3.8 mm
04:20 AM 45.6°F7.6°C 44.0°F6.7°C 94% 4.6 mph SE7.4 kmh SE 6.0 mph9.7 kmh 29.36 in994.2 mb 0.04 in1.0 mm 0.00 in0.0 mm 0.15 in3.8 mm
04:21 AM 45.5°F7.5°C 43.9°F6.6°C 94% 5.8 mph SE9.3 kmh SE 8.0 mph12.9 kmh 29.36 in994.2 mb 0.05 in1.3 mm 0.60 in15.2 mm 0.16 in4.1 mm
04:22 AM 45.6°F7.6°C 44.0°F6.7°C 94% 4.8 mph SE7.7 kmh SE 8.0 mph12.9 kmh 29.36 in994.2 mb 0.05 in1.3 mm 0.00 in0.0 mm 0.16 in4.1 mm
04:23 AM 45.6°F7.6°C 44.0°F6.7°C 94% 5.5 mph SE8.9 kmh SE 8.0 mph12.9 kmh 29.36 in994.2 mb 0.05 in1.3 mm 0.00 in0.0 mm 0.16 in4.1 mm
04:24 AM 45.6°F7.6°C 44.0°F6.7°C 94% 4.7 mph SE7.6 kmh SE 8.0 mph12.9 kmh 29.36 in994.2 mb 0.05 in1.3 mm 0.00 in0.0 mm 0.16 in4.1 mm
04:25 AM 45.7°F7.6°C 44.1°F6.7°C 94% 4.9 mph SE7.9 kmh SE 7.0 mph11.3 kmh 29.36 in994.2 mb 0.05 in1.3 mm 0.00 in0.0 mm 0.16 in4.1 mm
04:26 AM 45.7°F7.6°C 44.1°F6.7°C 94% 4.1 mph SE6.6 kmh SE 7.0 mph11.3 kmh 29.36 in994.2 mb 0.05 in1.3 mm 0.00 in0.0 mm 0.16 in4.1 mm
04:27 AM 45.7°F7.6°C 44.1°F6.7°C 94% 4.8 mph SE7.7 kmh SE 7.0 mph11.3 kmh 29.36 in994.2 mb 0.05 in1.3 mm 0.00 in0.0 mm 0.16 in4.1 mm
04:28 AM 45.7°F7.6°C 44.1°F6.7°C 94% 3.6 mph SE5.8 kmh SE 7.0 mph11.3 kmh 29.36 in994.2 mb 0.05 in1.3 mm 0.00 in0.0 mm 0.16 in4.1 mm
04:29 AM 45.7°F7.6°C 44.1°F6.7°C 94% 3.8 mph SE6.1 kmh SE 5.0 mph8.0 kmh 29.36 in994.2 mb 0.05 in1.3 mm 0.00 in0.0 mm 0.16 in4.1 mm
04:30 AM 45.6°F7.6°C 44.0°F6.7°C 94% 4.0 mph SE6.4 kmh SE 5.0 mph8.0 kmh 29.36 in994.2 mb 0.05 in1.3 mm 0.00 in0.0 mm 0.16 in4.1 mm
04:31 AM 45.6°F7.6°C 44.0°F6.7°C 94% 4.0 mph SE6.4 kmh SE 5.0 mph8.0 kmh 29.36 in994.2 mb 0.05 in1.3 mm 0.00 in0.0 mm 0.16 in4.1 mm
04:32 AM 45.7°F7.6°C 44.1°F6.7°C 94% 5.0 mph SE8.0 kmh SE 5.0 mph8.0 kmh 29.36 in994.2 mb 0.04 in1.0 mm 0.00 in0.0 mm 0.16 in4.1 mm
04:33 AM 45.6°F7.6°C 44.0°F6.7°C 94% 5.0 mph SE8.0 kmh SE 7.0 mph11.3 kmh 29.36 in994.2 mb 0.04 in1.0 mm 0.00 in0.0 mm 0.16 in4.1 mm
04:34 AM 45.6°F7.6°C 44.0°F6.7°C 94% 4.5 mph SE7.2 kmh SE 7.0 mph11.3 kmh 29.36 in994.2 mb 0.04 in1.0 mm 0.00 in0.0 mm 0.16 in4.1 mm
04:35 AM 45.6°F7.6°C 44.0°F6.7°C 94% 4.4 mph SE7.1 kmh SE 7.0 mph11.3 kmh 29.36 in994.2 mb 0.03 in0.8 mm 0.00 in0.0 mm 0.16 in4.1 mm
04:36 AM 45.5°F7.5°C 43.6°F6.4°C 93% 4.8 mph SE7.7 kmh SE 7.0 mph11.3 kmh 29.36 in994.2 mb 0.03 in0.8 mm 0.00 in0.0 mm 0.16 in4.1 mm
04:37 AM 45.5°F7.5°C 43.9°F6.6°C 94% 4.9 mph SE7.9 kmh SE 7.0 mph11.3 kmh 29.36 in994.2 mb 0.03 in0.8 mm 0.00 in0.0 mm 0.16 in4.1 mm
04:38 AM 45.5°F7.5°C 43.9°F6.6°C 94% 4.4 mph SE7.1 kmh SE 7.0 mph11.3 kmh 29.36 in994.2 mb 0.03 in0.8 mm 0.00 in0.0 mm 0.16 in4.1 mm
04:39 AM 45.4°F7.4°C 43.8°F6.6°C 94% 4.6 mph SE7.4 kmh SE 5.0 mph8.0 kmh 29.36 in994.2 mb 0.02 in0.5 mm 0.00 in0.0 mm 0.16 in4.1 mm
04:40 AM 45.4°F7.4°C 43.8°F6.6°C 94% 4.2 mph SSE6.8 kmh SSE 5.0 mph8.0 kmh 29.36 in994.2 mb 0.02 in0.5 mm 0.00 in0.0 mm 0.16 in4.1 mm
04:41 AM 45.4°F7.4°C 43.8°F6.6°C 94% 4.5 mph SSE7.2 kmh SSE 5.0 mph8.0 kmh 29.36 in994.2 mb 0.02 in0.5 mm 0.00 in0.0 mm 0.16 in4.1 mm
04:42 AM 45.4°F7.4°C 43.8°F6.6°C 94% 4.8 mph SSE7.7 kmh SSE 6.0 mph9.7 kmh 29.36 in994.2 mb 0.02 in0.5 mm 0.00 in0.0 mm 0.16 in4.1 mm
04:43 AM 45.4°F7.4°C 43.8°F6.6°C 94% 5.3 mph SSE8.5 kmh SSE 7.0 mph11.3 kmh 29.36 in994.2 mb 0.02 in0.5 mm 0.00 in0.0 mm 0.16 in4.1 mm
04:44 AM 45.4°F7.4°C 43.8°F6.6°C 94% 4.6 mph SSE7.4 kmh SSE 7.0 mph11.3 kmh 29.36 in994.2 mb 0.02 in0.5 mm 0.00 in0.0 mm 0.16 in4.1 mm
04:45 AM 45.4°F7.4°C 43.8°F6.6°C 94% 4.4 mph SSE7.1 kmh SSE 6.0 mph9.7 kmh 29.36 in994.2 mb 0.02 in0.5 mm 0.00 in0.0 mm 0.16 in4.1 mm
04:46 AM 45.4°F7.4°C 43.8°F6.6°C 94% 5.3 mph S8.5 kmh S 7.0 mph11.3 kmh 29.36 in994.2 mb 0.02 in0.5 mm 0.00 in0.0 mm 0.16 in4.1 mm
04:47 AM 45.5°F7.5°C 43.9°F6.6°C 94% 5.7 mph SSE9.2 kmh SSE 9.0 mph14.5 kmh 29.36 in994.2 mb 0.02 in0.5 mm 0.00 in0.0 mm 0.16 in4.1 mm
04:48 AM 45.6°F7.6°C 44.0°F6.7°C 94% 4.7 mph SSE7.6 kmh SSE 9.0 mph14.5 kmh 29.36 in994.2 mb 0.02 in0.5 mm 0.00 in0.0 mm 0.16 in4.1 mm
04:49 AM 45.6°F7.6°C 44.0°F6.7°C 94% 4.4 mph S7.1 kmh S 9.0 mph14.5 kmh 29.36 in994.2 mb 0.02 in0.5 mm 0.00 in0.0 mm 0.16 in4.1 mm
04:50 AM 45.8°F7.7°C 44.2°F6.8°C 94% 5.4 mph SSE8.7 kmh SSE 9.0 mph14.5 kmh 29.36 in994.2 mb 0.02 in0.5 mm 0.00 in0.0 mm 0.16 in4.1 mm
04:51 AM 46.0°F7.8°C 44.4°F6.9°C 94% 5.7 mph S9.2 kmh S 8.0 mph12.9 kmh 29.37 in994.6 mb 0.02 in0.5 mm 0.00 in0.0 mm 0.16 in4.1 mm
04:52 AM 46.1°F7.8°C 44.5°F6.9°C 94% 4.6 mph SSE7.4 kmh SSE 8.0 mph12.9 kmh 29.37 in994.6 mb 0.02 in0.5 mm 0.00 in0.0 mm 0.16 in4.1 mm
04:53 AM 46.3°F7.9°C 44.7°F7.1°C 94% 4.5 mph SSE7.2 kmh SSE 8.0 mph12.9 kmh 29.37 in994.6 mb 0.02 in0.5 mm 0.00 in0.0 mm 0.16 in4.1 mm
04:54 AM 46.4°F8.0°C 44.8°F7.1°C 94% 4.5 mph S7.2 kmh S 7.0 mph11.3 kmh 29.37 in994.6 mb 0.02 in0.5 mm 0.00 in0.0 mm 0.16 in4.1 mm
04:55 AM 46.5°F8.1°C 44.9°F7.2°C 94% 5.4 mph S8.7 kmh S 9.0 mph14.5 kmh 29.37 in994.6 mb 0.02 in0.5 mm 0.00 in0.0 mm 0.16 in4.1 mm
04:56 AM 46.5°F8.1°C 44.9°F7.2°C 94% 5.5 mph S8.9 kmh S 9.0 mph14.5 kmh 29.37 in994.6 mb 0.02 in0.5 mm 0.00 in0.0 mm 0.16 in4.1 mm
04:57 AM 46.6°F8.1°C 45.0°F7.2°C 94% 4.3 mph S6.9 kmh S 7.0 mph11.3 kmh 29.37 in994.6 mb 0.02 in0.5 mm 0.00 in0.0 mm 0.17 in4.3 mm
04:58 AM 46.7°F8.2°C 45.1°F7.3°C 94% 4.8 mph S7.7 kmh S 7.0 mph11.3 kmh 29.36 in994.2 mb 0.02 in0.5 mm 0.00 in0.0 mm 0.17 in4.3 mm
04:59 AM 46.7°F8.2°C 45.1°F7.3°C 94% 5.3 mph S8.5 kmh S 7.0 mph11.3 kmh 29.37 in994.6 mb 0.02 in0.5 mm 0.00 in0.0 mm 0.17 in4.3 mm
05:00 AM 46.7°F8.2°C 45.1°F7.3°C 94% 7.1 mph S11.4 kmh S 10.0 mph16.1 kmh 29.36 in994.2 mb 0.02 in0.5 mm 0.00 in0.0 mm 0.17 in4.3 mm
05:01 AM 46.7°F8.2°C 45.1°F7.3°C 94% 5.7 mph S9.2 kmh S 10.0 mph16.1 kmh 29.37 in994.6 mb 0.02 in0.5 mm 0.00 in0.0 mm 0.17 in4.3 mm
05:02 AM 46.7°F8.2°C 45.1°F7.3°C 94% 4.7 mph S7.6 kmh S 8.0 mph12.9 kmh 29.37 in994.6 mb 0.02 in0.5 mm 0.00 in0.0 mm 0.17 in4.3 mm
05:03 AM 46.7°F8.2°C 45.1°F7.3°C 94% 5.7 mph S9.2 kmh S 8.0 mph12.9 kmh 29.37 in994.6 mb 0.02 in0.5 mm 0.00 in0.0 mm 0.17 in4.3 mm
05:04 AM 46.7°F8.2°C 45.1°F7.3°C 94% 5.6 mph SSE9.0 kmh SSE 9.0 mph14.5 kmh 29.37 in994.6 mb 0.02 in0.5 mm 0.00 in0.0 mm 0.17 in4.3 mm
05:05 AM 46.8°F8.2°C 45.2°F7.3°C 94% 5.8 mph S9.3 kmh S 9.0 mph14.5 kmh 29.37 in994.6 mb 0.02 in0.5 mm 0.00 in0.0 mm 0.17 in4.3 mm
05:06 AM 46.7°F8.2°C 45.1°F7.3°C 94% 5.9 mph S9.5 kmh S 9.0 mph14.5 kmh 29.37 in994.6 mb 0.02 in0.5 mm 0.00 in0.0 mm 0.17 in4.3 mm
05:07 AM 46.7°F8.2°C 45.1°F7.3°C 94% 5.8 mph S9.3 kmh S 9.0 mph14.5 kmh 29.37 in994.6 mb 0.02 in0.5 mm 0.00 in0.0 mm 0.17 in4.3 mm
05:08 AM 46.7°F8.2°C 45.1°F7.3°C 94% 5.4 mph S8.7 kmh S 7.0 mph11.3 kmh 29.37 in994.6 mb 0.02 in0.5 mm 0.00 in0.0 mm 0.17 in4.3 mm
05:09 AM 46.7°F8.2°C 45.1°F7.3°C 94% 5.7 mph S9.2 kmh S 7.0 mph11.3 kmh 29.37 in994.6 mb 0.02 in0.5 mm 0.00 in0.0 mm 0.17 in4.3 mm
05:10 AM 46.8°F8.2°C 45.2°F7.3°C 94% 4.8 mph S7.7 kmh S 7.0 mph11.3 kmh 29.36 in994.2 mb 0.02 in0.5 mm 0.00 in0.0 mm 0.17 in4.3 mm
05:11 AM 46.7°F8.2°C 45.1°F7.3°C 94% 5.1 mph S8.2 kmh S 7.0 mph11.3 kmh 29.36 in994.2 mb 0.02 in0.5 mm 0.00 in0.0 mm 0.17 in4.3 mm
05:12 AM 46.7°F8.2°C 45.1°F7.3°C 94% 4.6 mph S7.4 kmh S 8.0 mph12.9 kmh 29.37 in994.6 mb 0.02 in0.5 mm 0.00 in0.0 mm 0.17 in4.3 mm
05:13 AM 46.7°F8.2°C 45.1°F7.3°C 94% 5.0 mph S8.0 kmh S 8.0 mph12.9 kmh 29.36 in994.2 mb 0.02 in0.5 mm 0.00 in0.0 mm 0.17 in4.3 mm
05:14 AM 46.7°F8.2°C 45.1°F7.3°C 94% 5.0 mph S8.0 kmh S 7.0 mph11.3 kmh 29.37 in994.6 mb 0.02 in0.5 mm 0.00 in0.0 mm 0.17 in4.3 mm
05:15 AM 46.7°F8.2°C 45.1°F7.3°C 94% 5.0 mph S8.0 kmh S 7.0 mph11.3 kmh 29.37 in994.6 mb 0.02 in0.5 mm 0.00 in0.0 mm 0.17 in4.3 mm
05:16 AM 46.7°F8.2°C 45.1°F7.3°C 94% 4.7 mph S7.6 kmh S 6.0 mph9.7 kmh 29.37 in994.6 mb 0.02 in0.5 mm 0.00 in0.0 mm 0.17 in4.3 mm
05:17 AM 46.7°F8.2°C 45.1°F7.3°C 94% 5.6 mph S9.0 kmh S 7.0 mph11.3 kmh 29.37 in994.6 mb 0.02 in0.5 mm 0.00 in0.0 mm 0.17 in4.3 mm
05:18 AM 46.7°F8.2°C 45.1°F7.3°C 94% 4.8 mph S7.7 kmh S 7.0 mph11.3 kmh 29.37 in994.6 mb 0.02 in0.5 mm 0.00 in0.0 mm 0.17 in4.3 mm
05:19 AM 46.7°F8.2°C 45.1°F7.3°C 94% 4.6 mph S7.4 kmh S 6.0 mph9.7 kmh 29.37 in994.6 mb 0.02 in0.5 mm 0.00 in0.0 mm 0.17 in4.3 mm
05:20 AM 46.7°F8.2°C 45.1°F7.3°C 94% 6.2 mph S10.0 kmh S 8.0 mph12.9 kmh 29.37 in994.6 mb 0.02 in0.5 mm 0.00 in0.0 mm 0.17 in4.3 mm
05:21 AM 46.7°F8.2°C 45.1°F7.3°C 94% 6.1 mph SSW9.8 kmh SSW 9.0 mph14.5 kmh 29.37 in994.6 mb 0.02 in0.5 mm 0.00 in0.0 mm 0.17 in4.3 mm
05:22 AM 46.9°F8.3°C 45.3°F7.4°C 94% 7.4 mph SSW11.9 kmh SSW 9.0 mph14.5 kmh 29.37 in994.6 mb 0.02 in0.5 mm 0.00 in0.0 mm 0.17 in4.3 mm
05:23 AM 46.9°F8.3°C 45.3°F7.4°C 94% 5.5 mph S8.9 kmh S 9.0 mph14.5 kmh 29.37 in994.6 mb 0.02 in0.5 mm 0.00 in0.0 mm 0.17 in4.3 mm
05:24 AM 47.0°F8.3°C 45.4°F7.4°C 94% 5.5 mph SW8.9 kmh SW 7.0 mph11.3 kmh 29.37 in994.6 mb 0.02 in0.5 mm 0.00 in0.0 mm 0.17 in4.3 mm
05:25 AM 47.0°F8.3°C 45.4°F7.4°C 94% 4.1 mph SW6.6 kmh SW 7.0 mph11.3 kmh 29.37 in994.6 mb 0.02 in0.5 mm 0.00 in0.0 mm 0.17 in4.3 mm
05:26 AM 47.0°F8.3°C 45.4°F7.4°C 94% 4.9 mph SSW7.9 kmh SSW 6.0 mph9.7 kmh 29.37 in994.6 mb 0.02 in0.5 mm 0.00 in0.0 mm 0.17 in4.3 mm
05:27 AM 47.0°F8.3°C 45.4°F7.4°C 94% 5.6 mph SSW9.0 kmh SSW 7.0 mph11.3 kmh 29.37 in994.6 mb 0.02 in0.5 mm 0.00 in0.0 mm 0.17 in4.3 mm
05:28 AM 47.1°F8.4°C 45.5°F7.5°C 94% 5.2 mph SSW8.4 kmh SSW 7.0 mph11.3 kmh 29.37 in994.6 mb 0.02 in0.5 mm 0.00 in0.0 mm 0.17 in4.3 mm
05:29 AM 47.2°F8.4°C 45.6°F7.6°C 94% 5.6 mph SSW9.0 kmh SSW 8.0 mph12.9 kmh 29.37 in994.6 mb 0.02 in0.5 mm 0.00 in0.0 mm 0.17 in4.3 mm
05:30 AM 47.2°F8.4°C 45.6°F7.6°C 94% 5.8 mph SW9.3 kmh SW 8.0 mph12.9 kmh 29.37 in994.6 mb 0.02 in0.5 mm 0.00 in0.0 mm 0.17 in4.3 mm
05:31 AM 47.2°F8.4°C 45.6°F7.6°C 94% 6.9 mph SW11.1 kmh SW 9.0 mph14.5 kmh 29.37 in994.6 mb 0.02 in0.5 mm 0.00 in0.0 mm 0.18 in4.6 mm
05:32 AM 47.3°F8.5°C 45.7°F7.6°C 94% 8.4 mph SW13.5 kmh SW 10.0 mph16.1 kmh 29.37 in994.6 mb 0.02 in0.5 mm 0.00 in0.0 mm 0.18 in4.6 mm
05:33 AM 47.3°F8.5°C 45.7°F7.6°C 94% 6.5 mph SW10.5 kmh SW 10.0 mph16.1 kmh 29.37 in994.6 mb 0.02 in0.5 mm 0.00 in0.0 mm 0.18 in4.6 mm
05:34 AM 47.3°F8.5°C 45.7°F7.6°C 94% 7.1 mph SW11.4 kmh SW 10.0 mph16.1 kmh 29.37 in994.6 mb 0.03 in0.8 mm 0.60 in15.2 mm 0.19 in4.8 mm
05:35 AM 47.3°F8.5°C 45.7°F7.6°C 94% 8.1 mph SW13.0 kmh SW 10.0 mph16.1 kmh 29.37 in994.6 mb 0.03 in0.8 mm 0.00 in0.0 mm 0.19 in4.8 mm
05:36 AM 47.3°F8.5°C 45.7°F7.6°C 94% 9.7 mph SW15.6 kmh SW 12.0 mph19.3 kmh 29.37 in994.6 mb 0.03 in0.8 mm 0.00 in0.0 mm 0.19 in4.8 mm
05:37 AM 47.3°F8.5°C 45.7°F7.6°C 94% 10.0 mph SW16.1 kmh SW 13.0 mph20.9 kmh 29.37 in994.6 mb 0.03 in0.8 mm 0.00 in0.0 mm 0.19 in4.8 mm
05:38 AM 47.3°F8.5°C 45.7°F7.6°C 94% 8.7 mph SW14.0 kmh SW 13.0 mph20.9 kmh 29.38 in994.9 mb 0.03 in0.8 mm 0.00 in0.0 mm 0.19 in4.8 mm
05:39 AM 47.4°F8.6°C 45.8°F7.7°C 94% 8.6 mph SW13.8 kmh SW 12.0 mph19.3 kmh 29.38 in994.9 mb 0.04 in1.0 mm 0.60 in15.2 mm 0.20 in5.1 mm
05:40 AM 47.3°F8.5°C 45.7°F7.6°C 94% 9.6 mph SSW15.4 kmh SSW 11.0 mph17.7 kmh 29.38 in994.9 mb 0.04 in1.0 mm 0.00 in0.0 mm 0.20 in5.1 mm
05:41 AM 47.3°F8.5°C 45.7°F7.6°C 94% 8.0 mph SW12.9 kmh SW 10.0 mph16.1 kmh 29.38 in994.9 mb 0.04 in1.0 mm 0.00 in0.0 mm 0.20 in5.1 mm
05:42 AM 47.3°F8.5°C 45.7°F7.6°C 94% 10.0 mph SW16.1 kmh SW 13.0 mph20.9 kmh 29.38 in994.9 mb 0.04 in1.0 mm 0.00 in0.0 mm 0.20 in5.1 mm
05:43 AM 47.3°F8.5°C 45.7°F7.6°C 94% 10.0 mph SW16.1 kmh SW 12.0 mph19.3 kmh 29.38 in994.9 mb 0.04 in1.0 mm 0.00 in0.0 mm 0.20 in5.1 mm
05:44 AM 47.2°F8.4°C 45.6°F7.6°C 94% 10.0 mph SW16.1 kmh SW 13.0 mph20.9 kmh 29.38 in994.9 mb 0.05 in1.3 mm 0.60 in15.2 mm 0.20 in5.1 mm
05:45 AM 47.0°F8.3°C 45.4°F7.4°C 94% 8.8 mph SW14.2 kmh SW 13.0 mph20.9 kmh 29.38 in994.9 mb 0.05 in1.3 mm 0.00 in0.0 mm 0.20 in5.1 mm
05:46 AM 47.0°F8.3°C 45.4°F7.4°C 94% 9.0 mph SW14.5 kmh SW 14.0 mph22.5 kmh 29.38 in994.9 mb 0.05 in1.3 mm 0.00 in0.0 mm 0.20 in5.1 mm
05:47 AM 46.8°F8.2°C 45.2°F7.3°C 94% 11.5 mph SW18.5 kmh SW 14.0 mph22.5 kmh 29.37 in994.6 mb 0.05 in1.3 mm 0.00 in0.0 mm 0.20 in5.1 mm
05:48 AM 46.8°F8.2°C 45.2°F7.3°C 94% 12.0 mph SW19.3 kmh SW 14.0 mph22.5 kmh 29.37 in994.6 mb 0.06 in1.5 mm 0.60 in15.2 mm 0.21 in5.3 mm
05:49 AM 46.7°F8.2°C 45.1°F7.3°C 94% 10.2 mph SW16.4 kmh SW 14.0 mph22.5 kmh 29.37 in994.6 mb 0.06 in1.5 mm 0.00 in0.0 mm 0.21 in5.3 mm
05:50 AM 46.6°F8.1°C 45.0°F7.2°C 94% 11.0 mph SW17.7 kmh SW 13.0 mph20.9 kmh 29.37 in994.6 mb 0.06 in1.5 mm 0.00 in0.0 mm 0.21 in5.3 mm
05:51 AM 46.5°F8.1°C 44.9°F7.2°C 94% 11.3 mph SW18.2 kmh SW 13.0 mph20.9 kmh 29.37 in994.6 mb 0.06 in1.5 mm 0.00 in0.0 mm 0.22 in5.6 mm
05:52 AM 46.5°F8.1°C 44.9°F7.2°C 94% 9.7 mph SW15.6 kmh SW 13.0 mph20.9 kmh 29.37 in994.6 mb 0.06 in1.5 mm 0.00 in0.0 mm 0.22 in5.6 mm
05:53 AM 46.3°F7.9°C 44.7°F7.1°C 94% 11.0 mph SW17.7 kmh SW 15.0 mph24.1 kmh 29.37 in994.6 mb 0.06 in1.5 mm 0.00 in0.0 mm 0.22 in5.6 mm
05:54 AM 46.3°F7.9°C 44.4°F6.9°C 93% 10.2 mph SW16.4 kmh SW 15.0 mph24.1 kmh 29.37 in994.6 mb 0.06 in1.5 mm 0.00 in0.0 mm 0.22 in5.6 mm
05:55 AM 46.2°F7.9°C 44.3°F6.8°C 93% 10.5 mph SW16.9 kmh SW 14.0 mph22.5 kmh 29.37 in994.6 mb 0.06 in1.5 mm 0.00 in0.0 mm 0.22 in5.6 mm
05:56 AM 46.0°F7.8°C 44.1°F6.7°C 93% 9.7 mph SW15.6 kmh SW 14.0 mph22.5 kmh 29.37 in994.6 mb 0.06 in1.5 mm 0.00 in0.0 mm 0.22 in5.6 mm
05:57 AM 45.9°F7.7°C 44.0°F6.7°C 93% 10.5 mph SW16.9 kmh SW 12.0 mph19.3 kmh 29.37 in994.6 mb 0.06 in1.5 mm 0.00 in0.0 mm 0.23 in5.8 mm
05:58 AM 45.7°F7.6°C 43.8°F6.6°C 93% 10.4 mph SW16.7 kmh SW 12.0 mph19.3 kmh 29.37 in994.6 mb 0.06 in1.5 mm 0.00 in0.0 mm 0.23 in5.8 mm
05:59 AM 45.5°F7.5°C 43.6°F6.4°C 93% 10.1 mph WSW16.3 kmh WSW 12.0 mph19.3 kmh 29.37 in994.6 mb 0.06 in1.5 mm 0.00 in0.0 mm 0.23 in5.8 mm
06:00 AM 45.4°F7.4°C 43.5°F6.4°C 93% 9.8 mph SW15.8 kmh SW 12.0 mph19.3 kmh 29.37 in994.6 mb 0.06 in1.5 mm 0.00 in0.0 mm 0.23 in5.8 mm
06:01 AM 45.2°F7.3°C 43.3°F6.3°C 93% 9.6 mph SW15.4 kmh SW 11.0 mph17.7 kmh 29.37 in994.6 mb 0.06 in1.5 mm 0.00 in0.0 mm 0.23 in5.8 mm
06:02 AM 45.1°F7.3°C 43.2°F6.2°C 93% 9.5 mph SW15.3 kmh SW 10.0 mph16.1 kmh 29.37 in994.6 mb 0.06 in1.5 mm 0.00 in0.0 mm 0.23 in5.8 mm
06:03 AM 44.9°F7.2°C 43.0°F6.1°C 93% 8.9 mph WSW14.3 kmh WSW 10.0 mph16.1 kmh 29.37 in994.6 mb 0.06 in1.5 mm 0.00 in0.0 mm 0.23 in5.8 mm
06:04 AM 44.8°F7.1°C 42.9°F6.1°C 93% 9.1 mph WSW14.6 kmh WSW 10.0 mph16.1 kmh 29.37 in994.6 mb 0.07 in1.8 mm 0.60 in15.2 mm 0.24 in6.1 mm
06:05 AM 44.7°F7.1°C 42.8°F6.0°C 93% 9.1 mph WSW14.6 kmh WSW 10.0 mph16.1 kmh 29.36 in994.2 mb 0.07 in1.8 mm 0.00 in0.0 mm 0.24 in6.1 mm
06:06 AM 44.6°F7.0°C 42.7°F5.9°C 93% 8.9 mph WSW14.3 kmh WSW 10.0 mph16.1 kmh 29.36 in994.2 mb 0.07 in1.8 mm 0.00 in0.0 mm 0.24 in6.1 mm
06:07 AM 44.6°F7.0°C 42.7°F5.9°C 93% 8.6 mph WSW13.8 kmh WSW 11.0 mph17.7 kmh 29.36 in994.2 mb 0.07 in1.8 mm 0.00 in0.0 mm 0.24 in6.1 mm
06:08 AM 44.5°F6.9°C 42.6°F5.9°C 93% 6.6 mph WSW10.6 kmh WSW 11.0 mph17.7 kmh 29.36 in994.2 mb 0.07 in1.8 mm 0.00 in0.0 mm 0.24 in6.1 mm
06:09 AM 44.4°F6.9°C 42.5°F5.8°C 93% 7.9 mph SW12.7 kmh SW 9.0 mph14.5 kmh 29.36 in994.2 mb 0.07 in1.8 mm 0.00 in0.0 mm 0.24 in6.1 mm
06:10 AM 44.4°F6.9°C 42.5°F5.8°C 93% 7.0 mph WSW11.3 kmh WSW 9.0 mph14.5 kmh 29.36 in994.2 mb 0.07 in1.8 mm 0.00 in0.0 mm 0.24 in6.1 mm
06:11 AM 44.3°F6.8°C 42.4°F5.8°C 93% 7.0 mph SW11.3 kmh SW 9.0 mph14.5 kmh 29.36 in994.2 mb 0.07 in1.8 mm 0.00 in0.0 mm 0.24 in6.1 mm
06:12 AM 44.4°F6.9°C 42.5°F5.8°C 93% 5.3 mph SW8.5 kmh SW 6.0 mph9.7 kmh 29.36 in994.2 mb 0.07 in1.8 mm 0.00 in0.0 mm 0.24 in6.1 mm
06:13 AM 44.6°F7.0°C 43.0°F6.1°C 94% 5.6 mph SSW9.0 kmh SSW 8.0 mph12.9 kmh 29.36 in994.2 mb 0.07 in1.8 mm 0.00 in0.0 mm 0.24 in6.1 mm
06:14 AM 44.9°F7.2°C 43.3°F6.3°C 94% 6.8 mph SSW10.9 kmh SSW 8.0 mph12.9 kmh 29.36 in994.2 mb 0.07 in1.8 mm 0.00 in0.0 mm 0.24 in6.1 mm
06:15 AM 45.2°F7.3°C 43.6°F6.4°C 94% 6.5 mph S10.5 kmh S 9.0 mph14.5 kmh 29.36 in994.2 mb 0.07 in1.8 mm 0.00 in0.0 mm 0.24 in6.1 mm
06:16 AM 45.3°F7.4°C 43.7°F6.5°C 94% 5.4 mph S8.7 kmh S 9.0 mph14.5 kmh 29.36 in994.2 mb 0.07 in1.8 mm 0.00 in0.0 mm 0.24 in6.1 mm
06:17 AM 45.5°F7.5°C 43.9°F6.6°C 94% 5.0 mph S8.0 kmh S 7.0 mph11.3 kmh 29.36 in994.2 mb 0.06 in1.5 mm 0.00 in0.0 mm 0.24 in6.1 mm
06:18 AM 45.6°F7.6°C 44.3°F6.8°C 95% 5.4 mph S8.7 kmh S 7.0 mph11.3 kmh 29.36 in994.2 mb 0.06 in1.5 mm 0.00 in0.0 mm 0.24 in6.1 mm
06:19 AM 45.7°F7.6°C 44.4°F6.9°C 95% 5.1 mph S8.2 kmh S 7.0 mph11.3 kmh 29.36 in994.2 mb 0.06 in1.5 mm 0.00 in0.0 mm 0.24 in6.1 mm
06:20 AM 45.8°F7.7°C 44.2°F6.8°C 94% 2.8 mph S4.5 kmh S 6.0 mph9.7 kmh 29.36 in994.2 mb 0.06 in1.5 mm 0.00 in0.0 mm 0.24 in6.1 mm
06:21 AM 45.8°F7.7°C 44.2°F6.8°C 94% 2.8 mph S4.5 kmh S 5.0 mph8.0 kmh 29.36 in994.2 mb 0.06 in1.5 mm 0.00 in0.0 mm 0.24 in6.1 mm
06:22 AM 45.9°F7.7°C 44.3°F6.8°C 94% 2.0 mph S3.2 kmh S 3.0 mph4.8 kmh 29.36 in994.2 mb 0.06 in1.5 mm 0.00 in0.0 mm 0.24 in6.1 mm
06:23 AM 45.9°F7.7°C 44.3°F6.8°C 94% 2.0 mph SSW3.2 kmh SSW 4.0 mph6.4 kmh 29.36 in994.2 mb 0.06 in1.5 mm 0.00 in0.0 mm 0.24 in6.1 mm
06:24 AM 45.9°F7.7°C 44.3°F6.8°C 94% 2.0 mph SSW3.2 kmh SSW 2.0 mph3.2 kmh 29.36 in994.2 mb 0.06 in1.5 mm 0.00 in0.0 mm 0.24 in6.1 mm
06:25 AM 46.0°F7.8°C 44.4°F6.9°C 94% 1.7 mph SSW2.7 kmh SSW 3.0 mph4.8 kmh 29.36 in994.2 mb 0.06 in1.5 mm 0.00 in0.0 mm 0.24 in6.1 mm
06:26 AM 46.0°F7.8°C 44.4°F6.9°C 94% 1.3 mph SSW2.1 kmh SSW 3.0 mph4.8 kmh 29.36 in994.2 mb 0.06 in1.5 mm 0.00 in0.0 mm 0.24 in6.1 mm
06:27 AM 45.9°F7.7°C 44.3°F6.8°C 94% 1.4 mph SSW2.3 kmh SSW 2.0 mph3.2 kmh 29.36 in994.2 mb 0.06 in1.5 mm 0.00 in0.0 mm 0.24 in6.1 mm
06:28 AM 45.9°F7.7°C 44.3°F6.8°C 94% 1.6 mph SSW2.6 kmh SSW 2.0 mph3.2 kmh 29.36 in994.2 mb 0.06 in1.5 mm 0.00 in0.0 mm 0.24 in6.1 mm
06:29 AM 45.9°F7.7°C 44.3°F6.8°C 94% 1.6 mph SSW2.6 kmh SSW 3.0 mph4.8 kmh 29.36 in994.2 mb 0.06 in1.5 mm 0.00 in0.0 mm 0.24 in6.1 mm
06:30 AM 45.9°F7.7°C 44.3°F6.8°C 94% 2.0 mph SSW3.2 kmh SSW 3.0 mph4.8 kmh 29.36 in994.2 mb 0.06 in1.5 mm 0.00 in0.0 mm 0.24 in6.1 mm
06:31 AM 45.9°F7.7°C 44.3°F6.8°C 94% 2.4 mph SSW3.9 kmh SSW 3.0 mph4.8 kmh 29.36 in994.2 mb 0.06 in1.5 mm 0.00 in0.0 mm 0.24 in6.1 mm
06:32 AM 45.9°F7.7°C 44.3°F6.8°C 94% 2.0 mph SSW3.2 kmh SSW 3.0 mph4.8 kmh 29.36 in994.2 mb 0.06 in1.5 mm 0.00 in0.0 mm 0.24 in6.1 mm
06:33 AM 45.8°F7.7°C 44.2°F6.8°C 94% 3.0 mph SSW4.8 kmh SSW 4.0 mph6.4 kmh 29.36 in994.2 mb 0.06 in1.5 mm 0.00 in0.0 mm 0.24 in6.1 mm
06:34 AM 45.9°F7.7°C 44.3°F6.8°C 94% 3.0 mph SSW4.8 kmh SSW 4.0 mph6.4 kmh 29.36 in994.2 mb 0.05 in1.3 mm 0.00 in0.0 mm 0.24 in6.1 mm
06:35 AM 45.9°F7.7°C 44.3°F6.8°C 94% 4.0 mph SSW6.4 kmh SSW 5.0 mph8.0 kmh 29.36 in994.2 mb 0.05 in1.3 mm 0.00 in0.0 mm 0.24 in6.1 mm
06:36 AM 46.0°F7.8°C 44.4°F6.9°C 94% 3.0 mph SSW4.8 kmh SSW 5.0 mph8.0 kmh 29.36 in994.2 mb 0.05 in1.3 mm 0.00 in0.0 mm 0.24 in6.1 mm
06:37 AM 46.0°F7.8°C 44.4°F6.9°C 94% 3.0 mph SSW4.8 kmh SSW 4.0 mph6.4 kmh 29.36 in994.2 mb 0.05 in1.3 mm 0.00 in0.0 mm 0.24 in6.1 mm
06:38 AM 46.1°F7.8°C 44.5°F6.9°C 94% 4.0 mph SSW6.4 kmh SSW 5.0 mph8.0 kmh 29.37 in994.6 mb 0.05 in1.3 mm 0.00 in0.0 mm 0.24 in6.1 mm
06:39 AM 46.1°F7.8°C 44.5°F6.9°C 94% 5.0 mph SW8.0 kmh SW 6.0 mph9.7 kmh 29.37 in994.6 mb 0.04 in1.0 mm 0.00 in0.0 mm 0.24 in6.1 mm
06:40 AM 46.1°F7.8°C 44.5°F6.9°C 94% 5.3 mph SW8.5 kmh SW 6.0 mph9.7 kmh 29.37 in994.6 mb 0.04 in1.0 mm 0.00 in0.0 mm 0.24 in6.1 mm
06:41 AM 46.1°F7.8°C 44.5°F6.9°C 94% 5.8 mph SW9.3 kmh SW 7.0 mph11.3 kmh 29.37 in994.6 mb 0.04 in1.0 mm 0.00 in0.0 mm 0.24 in6.1 mm
06:42 AM 46.1°F7.8°C 44.5°F6.9°C 94% 6.1 mph SW9.8 kmh SW 7.0 mph11.3 kmh 29.37 in994.6 mb 0.04 in1.0 mm 0.00 in0.0 mm 0.24 in6.1 mm
06:43 AM 46.0°F7.8°C 44.4°F6.9°C 94% 7.0 mph SW11.3 kmh SW 9.0 mph14.5 kmh 29.37 in994.6 mb 0.04 in1.0 mm 0.00 in0.0 mm 0.24 in6.1 mm
06:44 AM 46.1°F7.8°C 44.5°F6.9°C 94% 8.3 mph SW13.4 kmh SW 10.0 mph16.1 kmh 29.38 in994.9 mb 0.03 in0.8 mm 0.00 in0.0 mm 0.24 in6.1 mm
06:45 AM 46.1°F7.8°C 44.5°F6.9°C 94% 7.8 mph SSW12.6 kmh SSW 10.0 mph16.1 kmh 29.38 in994.9 mb 0.03 in0.8 mm 0.00 in0.0 mm 0.24 in6.1 mm
06:46 AM 46.1°F7.8°C 44.5°F6.9°C 94% 4.5 mph S7.2 kmh S 9.0 mph14.5 kmh 29.38 in994.9 mb 0.03 in0.8 mm 0.00 in0.0 mm 0.24 in6.1 mm
06:47 AM 46.1°F7.8°C 44.5°F6.9°C 94% 7.4 mph SSW11.9 kmh SSW 13.0 mph20.9 kmh 29.38 in994.9 mb 0.03 in0.8 mm 0.00 in0.0 mm 0.24 in6.1 mm
06:48 AM 46.0°F7.8°C 44.4°F6.9°C 94% 9.5 mph SW15.3 kmh SW 13.0 mph20.9 kmh 29.38 in994.9 mb 0.02 in0.5 mm 0.00 in0.0 mm 0.24 in6.1 mm
06:49 AM 46.0°F7.8°C 44.4°F6.9°C 94% 11.0 mph SW17.7 kmh SW 14.0 mph22.5 kmh 29.38 in994.9 mb 0.02 in0.5 mm 0.00 in0.0 mm 0.24 in6.1 mm
06:50 AM 46.0°F7.8°C 44.4°F6.9°C 94% 9.1 mph SW14.6 kmh SW 14.0 mph22.5 kmh 29.38 in994.9 mb 0.02 in0.5 mm 0.00 in0.0 mm 0.24 in6.1 mm
06:51 AM 46.0°F7.8°C 44.4°F6.9°C 94% 8.5 mph SSW13.7 kmh SSW 12.0 mph19.3 kmh 29.38 in994.9 mb 0.02 in0.5 mm 0.00 in0.0 mm 0.24 in6.1 mm
06:52 AM 46.0°F7.8°C 44.4°F6.9°C 94% 8.5 mph SW13.7 kmh SW 11.0 mph17.7 kmh 29.38 in994.9 mb 0.02 in0.5 mm 0.00 in0.0 mm 0.24 in6.1 mm
06:53 AM 46.0°F7.8°C 44.4°F6.9°C 94% 7.5 mph SW12.1 kmh SW 11.0 mph17.7 kmh 29.38 in994.9 mb 0.02 in0.5 mm 0.00 in0.0 mm 0.24 in6.1 mm
06:54 AM 46.0°F7.8°C 44.4°F6.9°C 94% 8.9 mph SW14.3 kmh SW 13.0 mph20.9 kmh 29.38 in994.9 mb 0.02 in0.5 mm 0.00 in0.0 mm 0.24 in6.1 mm
06:55 AM 46.0°F7.8°C 44.4°F6.9°C 94% 10.7 mph SW17.2 kmh SW 16.0 mph25.7 kmh 29.38 in994.9 mb 0.02 in0.5 mm 0.00 in0.0 mm 0.24 in6.1 mm
06:56 AM 46.0°F7.8°C 44.4°F6.9°C 94% 9.6 mph SW15.4 kmh SW 16.0 mph25.7 kmh 29.38 in994.9 mb 0.02 in0.5 mm 0.00 in0.0 mm 0.24 in6.1 mm
06:57 AM 46.0°F7.8°C 44.4°F6.9°C 94% 10.1 mph SW16.3 kmh SW 14.0 mph22.5 kmh 29.38 in994.9 mb 0.01 in0.3 mm 0.00 in0.0 mm 0.24 in6.1 mm
06:58 AM 46.0°F7.8°C 44.4°F6.9°C 94% 9.0 mph SW14.5 kmh SW 11.0 mph17.7 kmh 29.38 in994.9 mb 0.01 in0.3 mm 0.00 in0.0 mm 0.24 in6.1 mm
06:59 AM 46.0°F7.8°C 44.4°F6.9°C 94% 9.0 mph SSW14.5 kmh SSW 12.0 mph19.3 kmh 29.38 in994.9 mb 0.01 in0.3 mm 0.00 in0.0 mm 0.24 in6.1 mm
07:00 AM 46.0°F7.8°C 44.4°F6.9°C 94% 10.0 mph SW16.1 kmh SW 14.0 mph22.5 kmh 29.38 in994.9 mb 0.01 in0.3 mm 0.00 in0.0 mm 0.24 in6.1 mm
07:01 AM 46.0°F7.8°C 44.1°F6.7°C 93% 10.6 mph SW17.1 kmh SW 14.0 mph22.5 kmh 29.38 in994.9 mb 0.01 in0.3 mm 0.00 in0.0 mm 0.24 in6.1 mm
07:02 AM 46.0°F7.8°C 44.4°F6.9°C 94% 11.9 mph SW19.2 kmh SW 17.0 mph27.4 kmh 29.38 in994.9 mb 0.01 in0.3 mm 0.00 in0.0 mm 0.24 in6.1 mm
07:03 AM 46.0°F7.8°C 44.1°F6.7°C 93% 9.3 mph SW15.0 kmh SW 17.0 mph27.4 kmh 29.39 in995.3 mb 0.01 in0.3 mm 0.00 in0.0 mm 0.24 in6.1 mm
07:04 AM 46.0°F7.8°C 44.1°F6.7°C 93% 11.5 mph SW18.5 kmh SW 14.0 mph22.5 kmh 29.39 in995.3 mb 0.00 in0.0 mm 0.00 in0.0 mm 0.24 in6.1 mm
07:05 AM 46.1°F7.8°C 44.2°F6.8°C 93% 10.8 mph SW17.4 kmh SW 14.0 mph22.5 kmh 29.39 in995.3 mb 0.00 in0.0 mm 0.00 in0.0 mm 0.24 in6.1 mm
07:06 AM 46.1°F7.8°C 44.5°F6.9°C 94% 11.5 mph SW18.5 kmh SW 14.0 mph22.5 kmh 29.39 in995.3 mb 0.00 in0.0 mm 0.00 in0.0 mm 0.24 in6.1 mm
07:07 AM 46.0°F7.8°C 44.1°F6.7°C 93% 8.5 mph SW13.7 kmh SW 14.0 mph22.5 kmh 29.39 in995.3 mb 0.00 in0.0 mm 0.00 in0.0 mm 0.24 in6.1 mm
07:08 AM 46.0°F7.8°C 44.1°F6.7°C 93% 11.4 mph SW18.3 kmh SW 17.0 mph27.4 kmh 29.39 in995.3 mb 0.00 in0.0 mm 0.00 in0.0 mm 0.24 in6.1 mm
07:09 AM 46.0°F7.8°C 44.1°F6.7°C 93% 13.9 mph SW22.4 kmh SW 17.0 mph27.4 kmh 29.39 in995.3 mb 0.00 in0.0 mm 0.00 in0.0 mm 0.24 in6.1 mm
07:10 AM 45.9°F7.7°C 44.0°F6.7°C 93% 13.8 mph SW22.2 kmh SW 17.0 mph27.4 kmh 29.39 in995.3 mb 0.00 in0.0 mm 0.00 in0.0 mm 0.24 in6.1 mm
07:11 AM 45.9°F7.7°C 44.0°F6.7°C 93% 13.9 mph SW22.4 kmh SW 17.0 mph27.4 kmh 29.39 in995.3 mb 0.00 in0.0 mm 0.00 in0.0 mm 0.24 in6.1 mm
07:12 AM 45.9°F7.7°C 44.0°F6.7°C 93% 13.6 mph SW21.9 kmh SW 16.0 mph25.7 kmh 29.39 in995.3 mb 0.00 in0.0 mm 0.00 in0.0 mm 0.24 in6.1 mm
07:13 AM 45.9°F7.7°C 44.0°F6.7°C 93% 13.9 mph SW22.4 kmh SW 17.0 mph27.4 kmh 29.39 in995.3 mb 0.00 in0.0 mm 0.00 in0.0 mm 0.24 in6.1 mm
07:14 AM 45.8°F7.7°C 43.9°F6.6°C 93% 10.8 mph SW17.4 kmh SW 17.0 mph27.4 kmh 29.39 in995.3 mb 0.00 in0.0 mm 0.00 in0.0 mm 0.24 in6.1 mm
07:15 AM 45.8°F7.7°C 43.9°F6.6°C 93% 11.9 mph SW19.2 kmh SW 17.0 mph27.4 kmh 29.39 in995.3 mb 0.00 in0.0 mm 0.00 in0.0 mm 0.24 in6.1 mm
07:16 AM 45.8°F7.7°C 43.9°F6.6°C 93% 13.7 mph SW22.0 kmh SW 17.0 mph27.4 kmh 29.39 in995.3 mb 0.00 in0.0 mm 0.00 in0.0 mm 0.24 in6.1 mm
07:17 AM 45.8°F7.7°C 43.9°F6.6°C 93% 11.6 mph SW18.7 kmh SW 17.0 mph27.4 kmh 29.39 in995.3 mb 0.00 in0.0 mm 0.00 in0.0 mm 0.24 in6.1 mm
07:18 AM 45.7°F7.6°C 43.8°F6.6°C 93% 11.6 mph SW18.7 kmh SW 16.0 mph25.7 kmh 29.39 in995.3 mb 0.00 in0.0 mm 0.00 in0.0 mm 0.24 in6.1 mm
07:19 AM 45.7°F7.6°C 43.8°F6.6°C 93% 12.9 mph SW20.8 kmh SW 16.0 mph25.7 kmh 29.39 in995.3 mb 0.00 in0.0 mm 0.00 in0.0 mm 0.24 in6.1 mm
07:20 AM 45.7°F7.6°C 43.8°F6.6°C 93% 13.6 mph SW21.9 kmh SW 17.0 mph27.4 kmh 29.39 in995.3 mb 0.00 in0.0 mm 0.00 in0.0 mm 0.24 in6.1 mm
07:21 AM 45.5°F7.5°C 43.6°F6.4°C 93% 13.8 mph SW22.2 kmh SW 17.0 mph27.4 kmh 29.39 in995.3 mb 0.00 in0.0 mm 0.00 in0.0 mm 0.24 in6.1 mm
07:22 AM 45.5°F7.5°C 43.6°F6.4°C 93% 14.4 mph SW23.2 kmh SW 18.0 mph29.0 kmh 29.39 in995.3 mb 0.00 in0.0 mm 0.00 in0.0 mm 0.24 in6.1 mm
07:23 AM 45.5°F7.5°C 43.6°F6.4°C 93% 15.3 mph SW24.6 kmh SW 19.0 mph30.6 kmh 29.39 in995.3 mb 0.00 in0.0 mm 0.00 in0.0 mm 0.24 in6.1 mm
07:24 AM 45.5°F7.5°C 43.6°F6.4°C 93% 15.5 mph SW24.9 kmh SW 19.0 mph30.6 kmh 29.40 in995.6 mb 0.00 in0.0 mm 0.00 in0.0 mm 0.24 in6.1 mm
07:25 AM 45.5°F7.5°C 43.6°F6.4°C 93% 16.5 mph SW26.6 kmh SW 18.0 mph29.0 kmh 29.39 in995.3 mb 0.00 in0.0 mm 0.00 in0.0 mm 0.24 in6.1 mm
07:26 AM 45.3°F7.4°C 43.4°F6.3°C 93% 16.5 mph SW26.6 kmh SW 20.0 mph32.2 kmh 29.40 in995.6 mb 0.00 in0.0 mm 0.00 in0.0 mm 0.24 in6.1 mm
07:27 AM 45.4°F7.4°C 43.5°F6.4°C 93% 15.8 mph SW25.4 kmh SW 20.0 mph32.2 kmh 29.40 in995.6 mb 0.00 in0.0 mm 0.00 in0.0 mm 0.24 in6.1 mm
07:28 AM 45.2°F7.3°C 43.3°F6.3°C 93% 17.8 mph SW28.6 kmh SW 20.0 mph32.2 kmh 29.40 in995.6 mb 0.00 in0.0 mm 0.00 in0.0 mm 0.24 in6.1 mm
07:29 AM 45.2°F7.3°C 43.0°F6.1°C 92% 16.0 mph SW25.7 kmh SW 19.0 mph30.6 kmh 29.40 in995.6 mb 0.00 in0.0 mm 0.00 in0.0 mm 0.24 in6.1 mm
07:30 AM 45.1°F7.3°C 42.9°F6.1°C 92% 16.0 mph SW25.7 kmh SW 19.0 mph30.6 kmh 29.40 in995.6 mb 0.00 in0.0 mm 0.00 in0.0 mm 0.24 in6.1 mm
07:31 AM 45.0°F7.2°C 42.8°F6.0°C 92% 15.6 mph SW25.1 kmh SW 18.0 mph29.0 kmh 29.40 in995.6 mb 0.00 in0.0 mm 0.00 in0.0 mm 0.24 in6.1 mm
07:32 AM 44.9°F7.2°C 42.7°F5.9°C 92% 15.0 mph SW24.1 kmh SW 18.0 mph29.0 kmh 29.40 in995.6 mb 0.00 in0.0 mm 0.00 in0.0 mm 0.24 in6.1 mm
07:33 AM 44.9°F7.2°C 42.7°F5.9°C 92% 14.7 mph SW23.7 kmh SW 18.0 mph29.0 kmh 29.40 in995.6 mb 0.00 in0.0 mm 0.00 in0.0 mm 0.24 in6.1 mm
07:34 AM 44.8°F7.1°C 42.6°F5.9°C 92% 15.0 mph SW24.1 kmh SW 18.0 mph29.0 kmh 29.40 in995.6 mb 0.00 in0.0 mm 0.00 in0.0 mm 0.24 in6.1 mm
07:35 AM 44.7°F7.1°C 42.5°F5.8°C 92% 14.9 mph SW24.0 kmh SW 18.0 mph29.0 kmh 29.40 in995.6 mb 0.00 in0.0 mm 0.00 in0.0 mm 0.24 in6.1 mm
07:36 AM 44.6°F7.0°C 42.4°F5.8°C 92% 14.2 mph SW22.9 kmh SW 17.0 mph27.4 kmh 29.40 in995.6 mb 0.00 in0.0 mm 0.00 in0.0 mm 0.24 in6.1 mm
07:37 AM 44.7°F7.1°C 42.5°F5.8°C 92% 13.5 mph SW21.7 kmh SW 17.0 mph27.4 kmh 29.40 in995.6 mb 0.00 in0.0 mm 0.00 in0.0 mm 0.24 in6.1 mm
07:38 AM 44.7°F7.1°C 42.5°F5.8°C 92% 15.5 mph SW24.9 kmh SW 18.0 mph29.0 kmh 29.40 in995.6 mb 0.00 in0.0 mm 0.00 in0.0 mm 0.24 in6.1 mm
07:39 AM 44.6°F7.0°C 42.4°F5.8°C 92% 14.8 mph SW23.8 kmh SW 18.0 mph29.0 kmh 29.41 in995.9 mb 0.00 in0.0 mm 0.00 in0.0 mm 0.24 in6.1 mm
07:40 AM 44.6°F7.0°C 42.4°F5.8°C 92% 14.1 mph SW22.7 kmh SW 18.0 mph29.0 kmh 29.41 in995.9 mb 0.00 in0.0 mm 0.00 in0.0 mm 0.24 in6.1 mm
07:41 AM 44.6°F7.0°C 42.4°F5.8°C 92% 14.7 mph SW23.7 kmh SW 17.0 mph27.4 kmh 29.41 in995.9 mb 0.00 in0.0 mm 0.00 in0.0 mm 0.24 in6.1 mm
07:42 AM 44.7°F7.1°C 42.8°F6.0°C 93% 15.4 mph SW24.8 kmh SW 18.0 mph29.0 kmh 29.41 in995.9 mb 0.00 in0.0 mm 0.00 in0.0 mm 0.24 in6.1 mm
07:43 AM 44.7°F7.1°C 42.8°F6.0°C 93% 17.2 mph SW27.7 kmh SW 21.0 mph33.8 kmh 29.41 in995.9 mb 0.00 in0.0 mm 0.00 in0.0 mm 0.24 in6.1 mm
07:44 AM 44.9°F7.2°C 43.0°F6.1°C 93% 20.4 mph SW32.8 kmh SW 23.0 mph37.0 kmh 29.41 in995.9 mb 0.00 in0.0 mm 0.00 in0.0 mm 0.24 in6.1 mm
07:45 AM 44.9°F7.2°C 43.0°F6.1°C 93% 16.9 mph SW27.2 kmh SW 23.0 mph37.0 kmh 29.41 in995.9 mb 0.00 in0.0 mm 0.00 in0.0 mm 0.24 in6.1 mm
07:46 AM 44.7°F7.1°C 42.8°F6.0°C 93% 16.7 mph SW26.9 kmh SW 19.0 mph30.6 kmh 29.41 in995.9 mb 0.00 in0.0 mm 0.00 in0.0 mm 0.24 in6.1 mm
07:47 AM 44.7°F7.1°C 42.8°F6.0°C 93% 18.9 mph SW30.4 kmh SW 22.0 mph35.4 kmh 29.41 in995.9 mb 0.00 in0.0 mm 0.00 in0.0 mm 0.24 in6.1 mm
07:48 AM 44.7°F7.1°C 42.5°F5.8°C 92% 16.2 mph SW26.1 kmh SW 22.0 mph35.4 kmh 29.41 in995.9 mb 0.00 in0.0 mm 0.00 in0.0 mm 0.24 in6.1 mm
07:49 AM 44.7°F7.1°C 42.5°F5.8°C 92% 16.9 mph SW27.2 kmh SW 19.0 mph30.6 kmh 29.41 in995.9 mb 0.00 in0.0 mm 0.00 in0.0 mm 0.24 in6.1 mm
07:50 AM 44.6°F7.0°C 42.4°F5.8°C 92% 15.3 mph SW24.6 kmh SW 20.0 mph32.2 kmh 29.41 in995.9 mb 0.00 in0.0 mm 0.00 in0.0 mm 0.24 in6.1 mm
07:51 AM 44.7°F7.1°C 42.5°F5.8°C 92% 17.0 mph SW27.4 kmh SW 20.0 mph32.2 kmh 29.41 in995.9 mb 0.00 in0.0 mm 0.00 in0.0 mm 0.24 in6.1 mm
07:52 AM 44.8°F7.1°C 42.6°F5.9°C 92% 15.7 mph SW25.3 kmh SW 20.0 mph32.2 kmh 29.41 in995.9 mb 0.00 in0.0 mm 0.00 in0.0 mm 0.24 in6.1 mm
07:53 AM 44.9°F7.2°C 42.7°F5.9°C 92% 15.3 mph SW24.6 kmh SW 20.0 mph32.2 kmh 29.41 in995.9 mb 0.00 in0.0 mm 0.00 in0.0 mm 0.24 in6.1 mm
07:54 AM 44.9°F7.2°C 42.7°F5.9°C 92% 13.5 mph SW21.7 kmh SW 19.0 mph30.6 kmh 29.41 in995.9 mb 0.00 in0.0 mm 0.00 in0.0 mm 0.24 in6.1 mm
07:55 AM 44.8°F7.1°C 42.6°F5.9°C 92% 15.3 mph SW24.6 kmh SW 19.0 mph30.6 kmh 29.41 in995.9 mb 0.00 in0.0 mm 0.00 in0.0 mm 0.24 in6.1 mm
07:56 AM 44.7°F7.1°C 42.5°F5.8°C 92% 14.5 mph SW23.3 kmh SW 19.0 mph30.6 kmh 29.41 in995.9 mb 0.00 in0.0 mm 0.00 in0.0 mm 0.24 in6.1 mm
07:57 AM 44.8°F7.1°C 42.6°F5.9°C 92% 16.0 mph SW25.7 kmh SW 21.0 mph33.8 kmh 29.41 in995.9 mb 0.00 in0.0 mm 0.00 in0.0 mm 0.24 in6.1 mm
07:58 AM 44.7°F7.1°C 42.5°F5.8°C 92% 16.8 mph SW27.0 kmh SW 21.0 mph33.8 kmh 29.41 in995.9 mb 0.00 in0.0 mm 0.00 in0.0 mm 0.24 in6.1 mm
07:59 AM 44.7°F7.1°C 42.5°F5.8°C 92% 15.3 mph SW24.6 kmh SW 19.0 mph30.6 kmh 29.41 in995.9 mb 0.00 in0.0 mm 0.00 in0.0 mm 0.24 in6.1 mm
08:00 AM 44.7°F7.1°C 42.5°F5.8°C 92% 14.8 mph SW23.8 kmh SW 19.0 mph30.6 kmh 29.41 in995.9 mb 0.00 in0.0 mm 0.00 in0.0 mm 0.24 in6.1 mm
08:01 AM 44.7°F7.1°C 42.5°F5.8°C 92% 14.2 mph SW22.9 kmh SW 18.0 mph29.0 kmh 29.41 in995.9 mb 0.00 in0.0 mm 0.00 in0.0 mm 0.24 in6.1 mm
08:02 AM 44.8°F7.1°C 42.6°F5.9°C 92% 14.1 mph SW22.7 kmh SW 17.0 mph27.4 kmh 29.41 in995.9 mb 0.00 in0.0 mm 0.00 in0.0 mm 0.24 in6.1 mm
08:03 AM 44.7°F7.1°C 42.2°F5.7°C 91% 12.2 mph SW19.6 kmh SW 17.0 mph27.4 kmh 29.42 in996.3 mb 0.00 in0.0 mm 0.00 in0.0 mm 0.24 in6.1 mm
08:04 AM 44.7°F7.1°C 42.2°F5.7°C 91% 12.7 mph SW20.4 kmh SW 16.0 mph25.7 kmh 29.41 in995.9 mb 0.00 in0.0 mm 0.00 in0.0 mm 0.24 in6.1 mm
08:05 AM 44.7°F7.1°C 42.2°F5.7°C 91% 14.1 mph SW22.7 kmh SW 18.0 mph29.0 kmh 29.42 in996.3 mb 0.00 in0.0 mm 0.00 in0.0 mm 0.24 in6.1 mm
08:06 AM 44.7°F7.1°C 42.2°F5.7°C 91% 14.1 mph SW22.7 kmh SW 18.0 mph29.0 kmh 29.42 in996.3 mb 0.00 in0.0 mm 0.00 in0.0 mm 0.24 in6.1 mm
08:07 AM 44.7°F7.1°C 42.2°F5.7°C 91% 12.8 mph SW20.6 kmh SW 18.0 mph29.0 kmh 29.42 in996.3 mb 0.00 in0.0 mm 0.00 in0.0 mm 0.24 in6.1 mm
08:08 AM 44.6°F7.0°C 42.1°F5.6°C 91% 12.6 mph SW20.3 kmh SW 16.0 mph25.7 kmh 29.42 in996.3 mb 0.00 in0.0 mm 0.00 in0.0 mm 0.24 in6.1 mm
08:09 AM 44.6°F7.0°C 42.1°F5.6°C 91% 13.5 mph SW21.7 kmh SW 16.0 mph25.7 kmh 29.42 in996.3 mb 0.00 in0.0 mm 0.00 in0.0 mm 0.24 in6.1 mm
08:10 AM 44.7°F7.1°C 42.2°F5.7°C 91% 13.2 mph SW21.2 kmh SW 17.0 mph27.4 kmh 29.42 in996.3 mb 0.00 in0.0 mm 0.00 in0.0 mm 0.24 in6.1 mm
08:11 AM 44.6°F7.0°C 42.1°F5.6°C 91% 13.0 mph SW20.9 kmh SW 17.0 mph27.4 kmh 29.42 in996.3 mb 0.00 in0.0 mm 0.00 in0.0 mm 0.24 in6.1 mm
08:12 AM 44.7°F7.1°C 42.2°F5.7°C 91% 13.0 mph SW20.9 kmh SW 19.0 mph30.6 kmh 29.42 in996.3 mb 0.00 in0.0 mm 0.00 in0.0 mm 0.24 in6.1 mm
08:13 AM 44.7°F7.1°C 42.2°F5.7°C 91% 15.1 mph SW24.3 kmh SW 19.0 mph30.6 kmh 29.42 in996.3 mb 0.00 in0.0 mm 0.00 in0.0 mm 0.24 in6.1 mm
08:14 AM 44.8°F7.1°C 42.3°F5.7°C 91% 15.5 mph SW24.9 kmh SW 20.0 mph32.2 kmh 29.42 in996.3 mb 0.00 in0.0 mm 0.00 in0.0 mm 0.24 in6.1 mm
08:15 AM 44.7°F7.1°C 42.2°F5.7°C 91% 15.5 mph SW24.9 kmh SW 20.0 mph32.2 kmh 29.42 in996.3 mb 0.00 in0.0 mm 0.00 in0.0 mm 0.24 in6.1 mm
08:16 AM 44.7°F7.1°C 42.2°F5.7°C 91% 15.6 mph SW25.1 kmh SW 18.0 mph29.0 kmh 29.42 in996.3 mb 0.00 in0.0 mm 0.00 in0.0 mm 0.24 in6.1 mm
08:17 AM 44.8°F7.1°C 42.3°F5.7°C 91% 14.8 mph SW23.8 kmh SW 18.0 mph29.0 kmh 29.42 in996.3 mb 0.00 in0.0 mm 0.00 in0.0 mm 0.24 in6.1 mm
08:18 AM 44.7°F7.1°C 42.2°F5.7°C 91% 13.4 mph SW21.6 kmh SW 18.0 mph29.0 kmh 29.42 in996.3 mb 0.00 in0.0 mm 0.00 in0.0 mm 0.24 in6.1 mm
08:19 AM 44.8°F7.1°C 42.3°F5.7°C 91% 12.8 mph SW20.6 kmh SW 17.0 mph27.4 kmh 29.43 in996.6 mb 0.00 in0.0 mm 0.00 in0.0 mm 0.24 in6.1 mm
08:20 AM 44.7°F7.1°C 42.2°F5.7°C 91% 15.9 mph SW25.6 kmh SW 19.0 mph30.6 kmh 29.42 in996.3 mb 0.00 in0.0 mm 0.00 in0.0 mm 0.24 in6.1 mm
08:21 AM 44.7°F7.1°C 42.2°F5.7°C 91% 15.7 mph SW25.3 kmh SW 19.0 mph30.6 kmh 29.43 in996.6 mb 0.00 in0.0 mm 0.00 in0.0 mm 0.24 in6.1 mm
08:22 AM 44.6°F7.0°C 42.1°F5.6°C 91% 15.1 mph SW24.3 kmh SW 18.0 mph29.0 kmh 29.43 in996.6 mb 0.00 in0.0 mm 0.00 in0.0 mm 0.24 in6.1 mm
08:23 AM 44.6°F7.0°C 41.9°F5.5°C 90% 14.9 mph SW24.0 kmh SW 18.0 mph29.0 kmh 29.43 in996.6 mb 0.00 in0.0 mm 0.00 in0.0 mm 0.24 in6.1 mm
08:24 AM 44.4°F6.9°C 41.7°F5.4°C 90% 14.0 mph SW22.5 kmh SW 18.0 mph29.0 kmh 29.43 in996.6 mb 0.00 in0.0 mm 0.00 in0.0 mm 0.24 in6.1 mm
08:25 AM 44.4°F6.9°C 41.7°F5.4°C 90% 14.8 mph SW23.8 kmh SW 17.0 mph27.4 kmh 29.43 in996.6 mb 0.00 in0.0 mm 0.00 in0.0 mm 0.24 in6.1 mm
08:26 AM 44.4°F6.9°C 41.7°F5.4°C 90% 13.5 mph SW21.7 kmh SW 17.0 mph27.4 kmh 29.43 in996.6 mb 0.00 in0.0 mm 0.00 in0.0 mm 0.24 in6.1 mm
08:27 AM 44.4°F6.9°C 41.7°F5.4°C 90% 13.3 mph SW21.4 kmh SW 16.0 mph25.7 kmh 29.43 in996.6 mb 0.00 in0.0 mm 0.00 in0.0 mm 0.24 in6.1 mm
08:28 AM 44.4°F6.9°C 41.9°F5.5°C 91% 11.3 mph SW18.2 kmh SW 16.0 mph25.7 kmh 29.43 in996.6 mb 0.00 in0.0 mm 0.00 in0.0 mm 0.24 in6.1 mm
08:29 AM 44.4°F6.9°C 41.9°F5.5°C 91% 11.9 mph SW19.2 kmh SW 14.0 mph22.5 kmh 29.43 in996.6 mb 0.00 in0.0 mm 0.00 in0.0 mm 0.24 in6.1 mm
08:30 AM 44.4°F6.9°C 41.9°F5.5°C 91% 12.6 mph SW20.3 kmh SW 14.0 mph22.5 kmh 29.43 in996.6 mb 0.00 in0.0 mm 0.00 in0.0 mm 0.24 in6.1 mm
08:31 AM 44.5°F6.9°C 42.0°F5.6°C 91% 9.9 mph SW15.9 kmh SW 14.0 mph22.5 kmh 29.43 in996.6 mb 0.00 in0.0 mm 0.00 in0.0 mm 0.24 in6.1 mm
08:32 AM 44.5°F6.9°C 42.0°F5.6°C 91% 11.9 mph SW19.2 kmh SW 14.0 mph22.5 kmh 29.43 in996.6 mb 0.00 in0.0 mm 0.00 in0.0 mm 0.24 in6.1 mm
08:33 AM 44.5°F6.9°C 42.0°F5.6°C 91% 11.0 mph SW17.7 kmh SW 14.0 mph22.5 kmh 29.43 in996.6 mb 0.00 in0.0 mm 0.00 in0.0 mm 0.24 in6.1 mm
08:34 AM 44.5°F6.9°C 42.0°F5.6°C 91% 12.0 mph SW19.3 kmh SW 14.0 mph22.5 kmh 29.43 in996.6 mb 0.00 in0.0 mm 0.00 in0.0 mm 0.24 in6.1 mm
08:35 AM 44.5°F6.9°C 42.0°F5.6°C 91% 14.0 mph SW22.5 kmh SW 16.0 mph25.7 kmh 29.43 in996.6 mb 0.00 in0.0 mm 0.00 in0.0 mm 0.24 in6.1 mm
08:36 AM 44.5°F6.9°C 42.0°F5.6°C 91% 14.6 mph SW23.5 kmh SW 17.0 mph27.4 kmh 29.43 in996.6 mb 0.00 in0.0 mm 0.00 in0.0 mm 0.24 in6.1 mm
08:37 AM 44.5°F6.9°C 42.0°F5.6°C 91% 13.1 mph SW21.1 kmh SW 17.0 mph27.4 kmh 29.43 in996.6 mb 0.00 in0.0 mm 0.00 in0.0 mm 0.24 in6.1 mm
08:38 AM 44.5°F6.9°C 42.0°F5.6°C 91% 12.8 mph SW20.6 kmh SW 18.0 mph29.0 kmh 29.43 in996.6 mb 0.00 in0.0 mm 0.00 in0.0 mm 0.24 in6.1 mm
08:39 AM 44.5°F6.9°C 42.0°F5.6°C 91% 14.1 mph SW22.7 kmh SW 18.0 mph29.0 kmh 29.43 in996.6 mb 0.00 in0.0 mm 0.00 in0.0 mm 0.24 in6.1 mm
08:40 AM 44.5°F6.9°C 42.0°F5.6°C 91% 13.5 mph SW21.7 kmh SW 17.0 mph27.4 kmh 29.43 in996.6 mb 0.00 in0.0 mm 0.00 in0.0 mm 0.24 in6.1 mm
08:41 AM 44.5°F6.9°C 42.0°F5.6°C 91% 14.1 mph SW22.7 kmh SW 18.0 mph29.0 kmh 29.43 in996.6 mb 0.00 in0.0 mm 0.00 in0.0 mm 0.24 in6.1 mm
08:42 AM 44.5°F6.9°C 42.0°F5.6°C 91% 14.6 mph SW23.5 kmh SW 18.0 mph29.0 kmh 29.43 in996.6 mb 0.00 in0.0 mm 0.00 in0.0 mm 0.24 in6.1 mm
08:43 AM 44.5°F6.9°C 42.0°F5.6°C 91% 13.4 mph SW21.6 kmh SW 18.0 mph29.0 kmh 29.43 in996.6 mb 0.00 in0.0 mm 0.00 in0.0 mm 0.24 in6.1 mm
08:44 AM 44.4°F6.9°C 41.7°F5.4°C 90% 14.7 mph SW23.7 kmh SW 19.0 mph30.6 kmh 29.43 in996.6 mb 0.00 in0.0 mm 0.00 in0.0 mm 0.24 in6.1 mm
08:45 AM 44.3°F6.8°C 41.6°F5.3°C 90% 16.2 mph SW26.1 kmh SW 19.0 mph30.6 kmh 29.43 in996.6 mb 0.00 in0.0 mm 0.00 in0.0 mm 0.24 in6.1 mm
08:46 AM 44.3°F6.8°C 41.6°F5.3°C 90% 15.2 mph SW24.5 kmh SW 19.0 mph30.6 kmh 29.43 in996.6 mb 0.00 in0.0 mm 0.00 in0.0 mm 0.24 in6.1 mm
08:47 AM 44.2°F6.8°C 41.5°F5.3°C 90% 15.0 mph SW24.1 kmh SW 18.0 mph29.0 kmh 29.43 in996.6 mb 0.00 in0.0 mm 0.00 in0.0 mm 0.24 in6.1 mm
08:48 AM 44.2°F6.8°C 41.5°F5.3°C 90% 15.5 mph SW24.9 kmh SW 18.0 mph29.0 kmh 29.43 in996.6 mb 0.00 in0.0 mm 0.00 in0.0 mm 0.24 in6.1 mm
08:49 AM 44.2°F6.8°C 41.5°F5.3°C 90% 14.0 mph SW22.5 kmh SW 18.0 mph29.0 kmh 29.43 in996.6 mb 0.00 in0.0 mm 0.00 in0.0 mm 0.24 in6.1 mm
08:50 AM 44.2°F6.8°C 41.5°F5.3°C 90% 15.1 mph SW24.3 kmh SW 19.0 mph30.6 kmh 29.43 in996.6 mb 0.00 in0.0 mm 0.00 in0.0 mm 0.24 in6.1 mm
08:51 AM 44.2°F6.8°C 41.5°F5.3°C 90% 16.8 mph SW27.0 kmh SW 20.0 mph32.2 kmh 29.43 in996.6 mb 0.00 in0.0 mm 0.00 in0.0 mm 0.24 in6.1 mm
08:52 AM 44.2°F6.8°C 41.5°F5.3°C 90% 13.6 mph SW21.9 kmh SW 20.0 mph32.2 kmh 29.43 in996.6 mb 0.00 in0.0 mm 0.00 in0.0 mm 0.24 in6.1 mm
08:53 AM 44.3°F6.8°C 41.6°F5.3°C 90% 13.4 mph SW21.6 kmh SW 17.0 mph27.4 kmh 29.43 in996.6 mb 0.00 in0.0 mm 0.00 in0.0 mm 0.24 in6.1 mm
08:54 AM 44.3°F6.8°C 41.8°F5.4°C 91% 15.0 mph SW24.1 kmh SW 19.0 mph30.6 kmh 29.44 in997.0 mb 0.00 in0.0 mm 0.00 in0.0 mm 0.24 in6.1 mm
08:55 AM 44.4°F6.9°C 41.7°F5.4°C 90% 11.9 mph SW19.2 kmh SW 19.0 mph30.6 kmh 29.43 in996.6 mb 0.00 in0.0 mm 0.00 in0.0 mm 0.24 in6.1 mm
08:56 AM 44.5°F6.9°C 41.8°F5.4°C 90% 12.0 mph SW19.3 kmh SW 14.0 mph22.5 kmh 29.43 in996.6 mb 0.00 in0.0 mm 0.00 in0.0 mm 0.24 in6.1 mm
08:57 AM 44.5°F6.9°C 42.0°F5.6°C 91% 12.4 mph SW20.0 kmh SW 16.0 mph25.7 kmh 29.43 in996.6 mb 0.00 in0.0 mm 0.00 in0.0 mm 0.24 in6.1 mm
08:58 AM 44.5°F6.9°C 42.0°F5.6°C 91% 14.6 mph SW23.5 kmh SW 17.0 mph27.4 kmh 29.43 in996.6 mb 0.00 in0.0 mm 0.00 in0.0 mm 0.24 in6.1 mm
08:59 AM 44.6°F7.0°C 41.9°F5.5°C 90% 15.4 mph SW24.8 kmh SW 18.0 mph29.0 kmh 29.43 in996.6 mb 0.00 in0.0 mm 0.00 in0.0 mm 0.24 in6.1 mm
09:00 AM 44.7°F7.1°C 42.2°F5.7°C 91% 13.2 mph SW21.2 kmh SW 18.0 mph29.0 kmh 29.43 in996.6 mb 0.00 in0.0 mm 0.00 in0.0 mm 0.24 in6.1 mm
09:01 AM 44.8°F7.1°C 42.3°F5.7°C 91% 12.2 mph SW19.6 kmh SW 16.0 mph25.7 kmh 29.44 in997.0 mb 0.00 in0.0 mm 0.00 in0.0 mm 0.24 in6.1 mm
09:02 AM 44.8°F7.1°C 42.3°F5.7°C 91% 16.6 mph SW26.7 kmh SW 19.0 mph30.6 kmh 29.44 in997.0 mb 0.00 in0.0 mm 0.00 in0.0 mm 0.24 in6.1 mm
09:03 AM 44.7°F7.1°C 41.9°F5.5°C 90% 16.3 mph SW26.2 kmh SW 19.0 mph30.6 kmh 29.44 in997.0 mb 0.00 in0.0 mm 0.00 in0.0 mm 0.24 in6.1 mm
09:04 AM 44.7°F7.1°C 41.9°F5.5°C 90% 15.7 mph SW25.3 kmh SW 21.0 mph33.8 kmh 29.44 in997.0 mb 0.00 in0.0 mm 0.00 in0.0 mm 0.24 in6.1 mm
09:05 AM 44.7°F7.1°C 41.9°F5.5°C 90% 14.7 mph SW23.7 kmh SW 21.0 mph33.8 kmh 29.44 in997.0 mb 0.00 in0.0 mm 0.00 in0.0 mm 0.24 in6.1 mm
09:06 AM 44.7°F7.1°C 41.9°F5.5°C 90% 15.0 mph SW24.1 kmh SW 19.0 mph30.6 kmh 29.44 in997.0 mb 0.00 in0.0 mm 0.00 in0.0 mm 0.24 in6.1 mm
09:07 AM 44.7°F7.1°C 41.9°F5.5°C 90% 15.0 mph SW24.1 kmh SW 19.0 mph30.6 kmh 29.44 in997.0 mb 0.00 in0.0 mm 0.00 in0.0 mm 0.24 in6.1 mm
09:08 AM 44.7°F7.1°C 41.9°F5.5°C 90% 14.8 mph SW23.8 kmh SW 19.0 mph30.6 kmh 29.44 in997.0 mb 0.00 in0.0 mm 0.00 in0.0 mm 0.24 in6.1 mm
09:09 AM 44.7°F7.1°C 41.9°F5.5°C 90% 16.2 mph SW26.1 kmh SW 19.0 mph30.6 kmh 29.44 in997.0 mb 0.00 in0.0 mm 0.00 in0.0 mm 0.24 in6.1 mm
09:10 AM 44.7°F7.1°C 41.7°F5.4°C 89% 17.3 mph SW27.8 kmh SW 19.0 mph30.6 kmh 29.44 in997.0 mb 0.00 in0.0 mm 0.00 in0.0 mm 0.24 in6.1 mm
09:11 AM 44.6°F7.0°C 41.6°F5.3°C 89% 15.4 mph SW24.8 kmh SW 20.0 mph32.2 kmh 29.44 in997.0 mb 0.00 in0.0 mm 0.00 in0.0 mm 0.24 in6.1 mm
09:12 AM 44.5°F6.9°C 41.5°F5.3°C 89% 15.7 mph SW25.3 kmh SW 20.0 mph32.2 kmh 29.44 in997.0 mb 0.00 in0.0 mm 0.00 in0.0 mm 0.24 in6.1 mm
09:13 AM 44.6°F7.0°C 41.6°F5.3°C 89% 15.4 mph SW24.8 kmh SW 18.0 mph29.0 kmh 29.44 in997.0 mb 0.00 in0.0 mm 0.00 in0.0 mm 0.24 in6.1 mm
09:14 AM 44.5°F6.9°C 41.5°F5.3°C 89% 14.9 mph SW24.0 kmh SW 18.0 mph29.0 kmh 29.44 in997.0 mb 0.00 in0.0 mm 0.00 in0.0 mm 0.24 in6.1 mm
09:15 AM 44.5°F6.9°C 41.5°F5.3°C 89% 16.1 mph SW25.9 kmh SW 19.0 mph30.6 kmh 29.44 in997.0 mb 0.00 in0.0 mm 0.00 in0.0 mm 0.24 in6.1 mm
09:16 AM 44.6°F7.0°C 41.9°F5.5°C 90% 13.3 mph SW21.4 kmh SW 19.0 mph30.6 kmh 29.44 in997.0 mb 0.00 in0.0 mm 0.00 in0.0 mm 0.24 in6.1 mm
09:17 AM 44.6°F7.0°C 41.9°F5.5°C 90% 12.1 mph SW19.5 kmh SW 15.0 mph24.1 kmh 29.44 in997.0 mb 0.00 in0.0 mm 0.00 in0.0 mm 0.24 in6.1 mm
09:18 AM 44.7°F7.1°C 41.9°F5.5°C 90% 11.5 mph SW18.5 kmh SW 14.0 mph22.5 kmh 29.44 in997.0 mb 0.00 in0.0 mm 0.00 in0.0 mm 0.24 in6.1 mm
09:19 AM 44.9°F7.2°C 42.1°F5.6°C 90% 14.9 mph SW24.0 kmh SW 18.0 mph29.0 kmh 29.44 in997.0 mb 0.00 in0.0 mm 0.00 in0.0 mm 0.24 in6.1 mm
09:20 AM 44.9°F7.2°C 42.1°F5.6°C 90% 13.5 mph SW21.7 kmh SW 19.0 mph30.6 kmh 29.44 in997.0 mb 0.00 in0.0 mm 0.00 in0.0 mm 0.24 in6.1 mm
09:21 AM 44.9°F7.2°C 42.1°F5.6°C 90% 14.4 mph SW23.2 kmh SW 19.0 mph30.6 kmh 29.44 in997.0 mb 0.00 in0.0 mm 0.00 in0.0 mm 0.24 in6.1 mm
09:22 AM 44.9°F7.2°C 42.1°F5.6°C 90% 16.5 mph SW26.6 kmh SW 20.0 mph32.2 kmh 29.45 in997.3 mb 0.00 in0.0 mm 0.00 in0.0 mm 0.24 in6.1 mm
09:23 AM 44.9°F7.2°C 41.9°F5.5°C 89% 15.1 mph SW24.3 kmh SW 20.0 mph32.2 kmh 29.45 in997.3 mb 0.00 in0.0 mm 0.00 in0.0 mm 0.24 in6.1 mm
09:24 AM 44.8°F7.1°C 41.8°F5.4°C 89% 14.8 mph SW23.8 kmh SW 17.0 mph27.4 kmh 29.45 in997.3 mb 0.00 in0.0 mm 0.00 in0.0 mm 0.24 in6.1 mm
09:25 AM 44.8°F7.1°C 41.8°F5.4°C 89% 13.5 mph SW21.7 kmh SW 17.0 mph27.4 kmh 29.45 in997.3 mb 0.00 in0.0 mm 0.00 in0.0 mm 0.24 in6.1 mm
09:26 AM 44.8°F7.1°C 41.8°F5.4°C 89% 13.0 mph SW20.9 kmh SW 16.0 mph25.7 kmh 29.45 in997.3 mb 0.00 in0.0 mm 0.00 in0.0 mm 0.24 in6.1 mm
09:27 AM 44.8°F7.1°C 42.0°F5.6°C 90% 12.1 mph SW19.5 kmh SW 16.0 mph25.7 kmh 29.45 in997.3 mb 0.00 in0.0 mm 0.00 in0.0 mm 0.24 in6.1 mm
09:28 AM 44.9°F7.2°C 42.1°F5.6°C 90% 12.5 mph SW20.1 kmh SW 15.0 mph24.1 kmh 29.45 in997.3 mb 0.00 in0.0 mm 0.00 in0.0 mm 0.24 in6.1 mm
09:29 AM 44.9°F7.2°C 42.1°F5.6°C 90% 11.9 mph SW19.2 kmh SW 17.0 mph27.4 kmh 29.45 in997.3 mb 0.00 in0.0 mm 0.00 in0.0 mm 0.24 in6.1 mm
09:30 AM 44.9°F7.2°C 42.1°F5.6°C 90% 13.1 mph SW21.1 kmh SW 17.0 mph27.4 kmh 29.45 in997.3 mb 0.00 in0.0 mm 0.00 in0.0 mm 0.24 in6.1 mm
09:31 AM 45.0°F7.2°C 42.2°F5.7°C 90% 14.3 mph SW23.0 kmh SW 18.0 mph29.0 kmh 29.45 in997.3 mb 0.00 in0.0 mm 0.00 in0.0 mm 0.24 in6.1 mm
09:32 AM 44.9°F7.2°C 42.1°F5.6°C 90% 15.9 mph SW25.6 kmh SW 20.0 mph32.2 kmh 29.45 in997.3 mb 0.00 in0.0 mm 0.00 in0.0 mm 0.24 in6.1 mm
09:33 AM 44.9°F7.2°C 41.9°F5.5°C 89% 15.7 mph SW25.3 kmh SW 20.0 mph32.2 kmh 29.45 in997.3 mb 0.00 in0.0 mm 0.00 in0.0 mm 0.24 in6.1 mm
09:34 AM 44.8°F7.1°C 41.8°F5.4°C 89% 14.2 mph SW22.9 kmh SW 18.0 mph29.0 kmh 29.45 in997.3 mb 0.00 in0.0 mm 0.00 in0.0 mm 0.24 in6.1 mm
09:35 AM 44.9°F7.2°C 41.9°F5.5°C 89% 13.0 mph SW20.9 kmh SW 16.0 mph25.7 kmh 29.45 in997.3 mb 0.00 in0.0 mm 0.00 in0.0 mm 0.24 in6.1 mm
09:36 AM 44.9°F7.2°C 42.1°F5.6°C 90% 10.3 mph SW16.6 kmh SW 16.0 mph25.7 kmh 29.45 in997.3 mb 0.00 in0.0 mm 0.00 in0.0 mm 0.24 in6.1 mm
09:37 AM 44.9°F7.2°C 42.1°F5.6°C 90% 13.6 mph SW21.9 kmh SW 17.0 mph27.4 kmh 29.45 in997.3 mb 0.00 in0.0 mm 0.00 in0.0 mm 0.24 in6.1 mm
09:38 AM 44.9°F7.2°C 42.1°F5.6°C 90% 14.3 mph SW23.0 kmh SW 17.0 mph27.4 kmh 29.45 in997.3 mb 0.00 in0.0 mm 0.00 in0.0 mm 0.24 in6.1 mm
09:39 AM 44.9°F7.2°C 41.9°F5.5°C 89% 16.0 mph SW25.7 kmh SW 20.0 mph32.2 kmh 29.45 in997.3 mb 0.00 in0.0 mm 0.00 in0.0 mm 0.24 in6.1 mm
09:40 AM 44.8°F7.1°C 41.8°F5.4°C 89% 15.0 mph SW24.1 kmh SW 17.0 mph27.4 kmh 29.45 in997.3 mb 0.00 in0.0 mm 0.00 in0.0 mm 0.24 in6.1 mm
09:41 AM 44.8°F7.1°C 41.8°F5.4°C 89% 17.2 mph SW27.7 kmh SW 18.0 mph29.0 kmh 29.45 in997.3 mb 0.00 in0.0 mm 0.00 in0.0 mm 0.24 in6.1 mm
09:42 AM 44.6°F7.0°C 41.6°F5.3°C 89% 16.0 mph WSW25.7 kmh WSW 18.0 mph29.0 kmh 29.45 in997.3 mb 0.00 in0.0 mm 0.00 in0.0 mm 0.24 in6.1 mm
09:43 AM 44.5°F6.9°C 41.5°F5.3°C 89% 14.1 mph WSW22.7 kmh WSW 18.0 mph29.0 kmh 29.45 in997.3 mb 0.00 in0.0 mm 0.00 in0.0 mm 0.24 in6.1 mm
09:44 AM 44.4°F6.9°C 41.4°F5.2°C 89% 14.2 mph WSW22.9 kmh WSW 16.0 mph25.7 kmh 29.45 in997.3 mb 0.00 in0.0 mm 0.00 in0.0 mm 0.24 in6.1 mm
09:45 AM 44.3°F6.8°C 41.3°F5.2°C 89% 14.0 mph WSW22.5 kmh WSW 16.0 mph25.7 kmh 29.45 in997.3 mb 0.00 in0.0 mm 0.00 in0.0 mm 0.24 in6.1 mm
09:46 AM 44.2°F6.8°C 41.2°F5.1°C 89% 13.8 mph SW22.2 kmh SW 16.0 mph25.7 kmh 29.46 in997.6 mb 0.00 in0.0 mm 0.00 in0.0 mm 0.24 in6.1 mm
09:47 AM 44.1°F6.7°C 41.1°F5.1°C 89% 13.3 mph SW21.4 kmh SW 15.0 mph24.1 kmh 29.46 in997.6 mb 0.00 in0.0 mm 0.00 in0.0 mm 0.24 in6.1 mm
09:48 AM 44.2°F6.8°C 41.2°F5.1°C 89% 12.8 mph SW20.6 kmh SW 15.0 mph24.1 kmh 29.46 in997.6 mb 0.00 in0.0 mm 0.00 in0.0 mm 0.24 in6.1 mm
09:49 AM 44.2°F6.8°C 41.5°F5.3°C 90% 12.7 mph SW20.4 kmh SW 15.0 mph24.1 kmh 29.46 in997.6 mb 0.00 in0.0 mm 0.00 in0.0 mm 0.24 in6.1 mm
09:50 AM 44.3°F6.8°C 41.6°F5.3°C 90% 12.6 mph SW20.3 kmh SW 15.0 mph24.1 kmh 29.46 in997.6 mb 0.00 in0.0 mm 0.00 in0.0 mm 0.24 in6.1 mm
09:51 AM 44.4°F6.9°C 41.7°F5.4°C 90% 11.2 mph SW18.0 kmh SW 15.0 mph24.1 kmh 29.46 in997.6 mb 0.00 in0.0 mm 0.00 in0.0 mm 0.24 in6.1 mm
09:52 AM 44.5°F6.9°C 42.0°F5.6°C 91% 11.7 mph SW18.8 kmh SW 15.0 mph24.1 kmh 29.46 in997.6 mb 0.00 in0.0 mm 0.00 in0.0 mm 0.24 in6.1 mm
09:53 AM 44.7°F7.1°C 42.2°F5.7°C 91% 14.0 mph SW22.5 kmh SW 16.0 mph25.7 kmh 29.46 in997.6 mb 0.00 in0.0 mm 0.00 in0.0 mm 0.24 in6.1 mm
09:54 AM 44.7°F7.1°C 42.2°F5.7°C 91% 14.2 mph SW22.9 kmh SW 16.0 mph25.7 kmh 29.46 in997.6 mb 0.00 in0.0 mm 0.00 in0.0 mm 0.24 in6.1 mm
09:55 AM 44.7°F7.1°C 41.9°F5.5°C 90% 11.8 mph SW19.0 kmh SW 16.0 mph25.7 kmh 29.46 in997.6 mb 0.00 in0.0 mm 0.00 in0.0 mm 0.24 in6.1 mm
09:56 AM 44.8°F7.1°C 42.0°F5.6°C 90% 13.2 mph SW21.2 kmh SW 17.0 mph27.4 kmh 29.46 in997.6 mb 0.00 in0.0 mm 0.00 in0.0 mm 0.24 in6.1 mm
09:57 AM 44.8°F7.1°C 42.0°F5.6°C 90% 14.2 mph SW22.9 kmh SW 17.0 mph27.4 kmh 29.46 in997.6 mb 0.00 in0.0 mm 0.00 in0.0 mm 0.24 in6.1 mm
09:58 AM 44.9°F7.2°C 42.1°F5.6°C 90% 13.1 mph SW21.1 kmh SW 16.0 mph25.7 kmh 29.46 in997.6 mb 0.00 in0.0 mm 0.00 in0.0 mm 0.24 in6.1 mm
09:59 AM 44.8°F7.1°C 42.0°F5.6°C 90% 11.0 mph SW17.7 kmh SW 16.0 mph25.7 kmh 29.47 in998.0 mb 0.00 in0.0 mm 0.00 in0.0 mm 0.24 in6.1 mm
10:00 AM 44.9°F7.2°C 42.1°F5.6°C 90% 13.8 mph SW22.2 kmh SW 16.0 mph25.7 kmh 29.47 in998.0 mb 0.00 in0.0 mm 0.00 in0.0 mm 0.24 in6.1 mm
10:01 AM 44.8°F7.1°C 42.0°F5.6°C 90% 13.2 mph SW21.2 kmh SW 16.0 mph25.7 kmh 29.47 in998.0 mb 0.00 in0.0 mm 0.00 in0.0 mm 0.24 in6.1 mm
10:02 AM 44.9°F7.2°C 42.1°F5.6°C 90% 11.9 mph SW19.2 kmh SW 15.0 mph24.1 kmh 29.47 in998.0 mb 0.00 in0.0 mm 0.00 in0.0 mm 0.24 in6.1 mm
10:03 AM 44.9°F7.2°C 42.1°F5.6°C 90% 13.1 mph SW21.1 kmh SW 15.0 mph24.1 kmh 29.47 in998.0 mb 0.00 in0.0 mm 0.00 in0.0 mm 0.24 in6.1 mm
10:04 AM 44.8°F7.1°C 42.0°F5.6°C 90% 12.1 mph SW19.5 kmh SW 15.0 mph24.1 kmh 29.47 in998.0 mb 0.00 in0.0 mm 0.00 in0.0 mm 0.24 in6.1 mm
10:05 AM 44.9°F7.2°C 42.1°F5.6°C 90% 12.9 mph SW20.8 kmh SW 17.0 mph27.4 kmh 29.47 in998.0 mb 0.00 in0.0 mm 0.00 in0.0 mm 0.24 in6.1 mm
10:06 AM 44.9°F7.2°C 42.1°F5.6°C 90% 13.8 mph SW22.2 kmh SW 17.0 mph27.4 kmh 29.47 in998.0 mb 0.00 in0.0 mm 0.00 in0.0 mm 0.24 in6.1 mm
10:07 AM 44.9°F7.2°C 42.1°F5.6°C 90% 14.6 mph SW23.5 kmh SW 19.0 mph30.6 kmh 29.47 in998.0 mb 0.00 in0.0 mm 0.00 in0.0 mm 0.24 in6.1 mm
10:08 AM 44.9°F7.2°C 42.1°F5.6°C 90% 14.4 mph SW23.2 kmh SW 19.0 mph30.6 kmh 29.47 in998.0 mb 0.00 in0.0 mm 0.00 in0.0 mm 0.24 in6.1 mm
10:09 AM 44.9°F7.2°C 42.1°F5.6°C 90% 16.0 mph SW25.7 kmh SW 19.0 mph30.6 kmh 29.47 in998.0 mb 0.00 in0.0 mm 0.00 in0.0 mm 0.24 in6.1 mm
10:10 AM 44.8°F7.1°C 42.0°F5.6°C 90% 15.4 mph SW24.8 kmh SW 19.0 mph30.6 kmh 29.47 in998.0 mb 0.00 in0.0 mm 0.00 in0.0 mm 0.24 in6.1 mm
10:11 AM 44.8°F7.1°C 41.8°F5.4°C 89% 15.3 mph SW24.6 kmh SW 18.0 mph29.0 kmh 29.47 in998.0 mb 0.00 in0.0 mm 0.00 in0.0 mm 0.24 in6.1 mm
10:12 AM 44.7°F7.1°C 41.7°F5.4°C 89% 13.7 mph SW22.0 kmh SW 18.0 mph29.0 kmh 29.47 in998.0 mb 0.00 in0.0 mm 0.00 in0.0 mm 0.24 in6.1 mm
10:13 AM 44.7°F7.1°C 41.9°F5.5°C 90% 12.8 mph SW20.6 kmh SW 16.0 mph25.7 kmh 29.47 in998.0 mb 0.00 in0.0 mm 0.00 in0.0 mm 0.24 in6.1 mm
10:14 AM 44.7°F7.1°C 41.9°F5.5°C 90% 11.0 mph SW17.7 kmh SW 15.0 mph24.1 kmh 29.47 in998.0 mb 0.00 in0.0 mm 0.00 in0.0 mm 0.24 in6.1 mm
10:15 AM 44.8°F7.1°C 42.0°F5.6°C 90% 12.0 mph SW19.3 kmh SW 16.0 mph25.7 kmh 29.47 in998.0 mb 0.00 in0.0 mm 0.00 in0.0 mm 0.24 in6.1 mm
10:16 AM 44.9°F7.2°C 42.1°F5.6°C 90% 14.0 mph SW22.5 kmh SW 16.0 mph25.7 kmh 29.47 in998.0 mb 0.00 in0.0 mm 0.00 in0.0 mm 0.24 in6.1 mm
10:17 AM 44.9°F7.2°C 42.1°F5.6°C 90% 14.6 mph SW23.5 kmh SW 16.0 mph25.7 kmh 29.47 in998.0 mb 0.00 in0.0 mm 0.00 in0.0 mm 0.24 in6.1 mm
10:18 AM 44.9°F7.2°C 42.1°F5.6°C 90% 13.3 mph SW21.4 kmh SW 17.0 mph27.4 kmh 29.47 in998.0 mb 0.00 in0.0 mm 0.00 in0.0 mm 0.24 in6.1 mm
10:19 AM 44.9°F7.2°C 42.1°F5.6°C 90% 13.1 mph SW21.1 kmh SW 18.0 mph29.0 kmh 29.47 in998.0 mb 0.00 in0.0 mm 0.00 in0.0 mm 0.24 in6.1 mm
10:20 AM 44.8°F7.1°C 41.8°F5.4°C 89% 13.6 mph SW21.9 kmh SW 18.0 mph29.0 kmh 29.47 in998.0 mb 0.00 in0.0 mm 0.00 in0.0 mm 0.24 in6.1 mm
10:21 AM 44.8°F7.1°C 42.0°F5.6°C 90% 11.0 mph SW17.7 kmh SW 13.0 mph20.9 kmh 29.48 in998.3 mb 0.00 in0.0 mm 0.00 in0.0 mm 0.24 in6.1 mm
10:22 AM 44.8°F7.1°C 42.0°F5.6°C 90% 12.0 mph SW19.3 kmh SW 14.0 mph22.5 kmh 29.48 in998.3 mb 0.00 in0.0 mm 0.00 in0.0 mm 0.24 in6.1 mm
10:23 AM 44.7°F7.1°C 41.9°F5.5°C 90% 12.3 mph SW19.8 kmh SW 13.0 mph20.9 kmh 29.48 in998.3 mb 0.00 in0.0 mm 0.00 in0.0 mm 0.24 in6.1 mm
10:24 AM 44.7°F7.1°C 41.7°F5.4°C 89% 13.0 mph SW20.9 kmh SW 15.0 mph24.1 kmh 29.48 in998.3 mb 0.00 in0.0 mm 0.00 in0.0 mm 0.24 in6.1 mm
10:25 AM 44.7°F7.1°C 41.7°F5.4°C 89% 13.8 mph SW22.2 kmh SW 15.0 mph24.1 kmh 29.48 in998.3 mb 0.00 in0.0 mm 0.00 in0.0 mm 0.24 in6.1 mm
10:26 AM 44.7°F7.1°C 41.7°F5.4°C 89% 12.4 mph SW20.0 kmh SW 15.0 mph24.1 kmh 29.48 in998.3 mb 0.00 in0.0 mm 0.00 in0.0 mm 0.24 in6.1 mm
10:27 AM 44.7°F7.1°C 41.7°F5.4°C 89% 12.5 mph WSW20.1 kmh WSW 14.0 mph22.5 kmh 29.48 in998.3 mb 0.00 in0.0 mm 0.00 in0.0 mm 0.24 in6.1 mm
10:28 AM 44.6°F7.0°C 41.6°F5.3°C 89% 11.3 mph SW18.2 kmh SW 13.0 mph20.9 kmh 29.47 in998.0 mb 0.00 in0.0 mm 0.00 in0.0 mm 0.24 in6.1 mm
10:29 AM 44.5°F6.9°C 41.5°F5.3°C 89% 11.5 mph SW18.5 kmh SW 14.0 mph22.5 kmh 29.48 in998.3 mb 0.00 in0.0 mm 0.00 in0.0 mm 0.24 in6.1 mm
10:30 AM 44.5°F6.9°C 41.5°F5.3°C 89% 11.6 mph SW18.7 kmh SW 14.0 mph22.5 kmh 29.48 in998.3 mb 0.00 in0.0 mm 0.00 in0.0 mm 0.24 in6.1 mm
10:31 AM 44.5°F6.9°C 41.5°F5.3°C 89% 11.7 mph SW18.8 kmh SW 13.0 mph20.9 kmh 29.47 in998.0 mb 0.00 in0.0 mm 0.00 in0.0 mm 0.24 in6.1 mm
10:32 AM 44.4°F6.9°C 41.4°F5.2°C 89% 12.5 mph SW20.1 kmh SW 14.0 mph22.5 kmh 29.47 in998.0 mb 0.00 in0.0 mm 0.00 in0.0 mm 0.24 in6.1 mm
10:33 AM 44.5°F6.9°C 41.8°F5.4°C 90% 12.7 mph SW20.4 kmh SW 14.0 mph22.5 kmh 29.48 in998.3 mb 0.00 in0.0 mm 0.00 in0.0 mm 0.24 in6.1 mm
10:34 AM 44.5°F6.9°C 41.8°F5.4°C 90% 14.0 mph SW22.5 kmh SW 16.0 mph25.7 kmh 29.48 in998.3 mb 0.00 in0.0 mm 0.00 in0.0 mm 0.24 in6.1 mm
10:35 AM 44.6°F7.0°C 41.9°F5.5°C 90% 12.4 mph SW20.0 kmh SW 16.0 mph25.7 kmh 29.48 in998.3 mb 0.00 in0.0 mm 0.00 in0.0 mm 0.24 in6.1 mm
10:36 AM 44.7°F7.1°C 41.9°F5.5°C 90% 12.7 mph SW20.4 kmh SW 14.0 mph22.5 kmh 29.48 in998.3 mb 0.00 in0.0 mm 0.00 in0.0 mm 0.24 in6.1 mm
10:37 AM 44.7°F7.1°C 41.9°F5.5°C 90% 11.6 mph SW18.7 kmh SW 15.0 mph24.1 kmh 29.48 in998.3 mb 0.00 in0.0 mm 0.00 in0.0 mm 0.24 in6.1 mm
10:38 AM 44.8°F7.1°C 42.0°F5.6°C 90% 13.6 mph SW21.9 kmh SW 15.0 mph24.1 kmh 29.48 in998.3 mb 0.00 in0.0 mm 0.00 in0.0 mm 0.24 in6.1 mm
10:39 AM 44.8°F7.1°C 42.0°F5.6°C 90% 11.7 mph WSW18.8 kmh WSW 15.0 mph24.1 kmh 29.48 in998.3 mb 0.00 in0.0 mm 0.00 in0.0 mm 0.24 in6.1 mm
10:40 AM 44.7°F7.1°C 41.7°F5.4°C 89% 12.4 mph WSW20.0 kmh WSW 14.0 mph22.5 kmh 29.48 in998.3 mb 0.00 in0.0 mm 0.00 in0.0 mm 0.24 in6.1 mm
10:41 AM 44.8°F7.1°C 41.8°F5.4°C 89% 11.7 mph SW18.8 kmh SW 14.0 mph22.5 kmh 29.47 in998.0 mb 0.00 in0.0 mm 0.00 in0.0 mm 0.24 in6.1 mm
10:42 AM 44.7°F7.1°C 41.7°F5.4°C 89% 12.0 mph WSW19.3 kmh WSW 13.0 mph20.9 kmh 29.47 in998.0 mb 0.00 in0.0 mm 0.00 in0.0 mm 0.24 in6.1 mm
10:43 AM 44.8°F7.1°C 41.8°F5.4°C 89% 12.0 mph WSW19.3 kmh WSW 14.0 mph22.5 kmh 29.47 in998.0 mb 0.00 in0.0 mm 0.00 in0.0 mm 0.24 in6.1 mm
10:44 AM 44.8°F7.1°C 41.8°F5.4°C 89% 12.0 mph SW19.3 kmh SW 13.0 mph20.9 kmh 29.47 in998.0 mb 0.00 in0.0 mm 0.00 in0.0 mm 0.24 in6.1 mm
10:45 AM 44.8°F7.1°C 41.8°F5.4°C 89% 12.1 mph SW19.5 kmh SW 13.0 mph20.9 kmh 29.48 in998.3 mb 0.00 in0.0 mm 0.00 in0.0 mm 0.24 in6.1 mm
10:46 AM 44.9°F7.2°C 41.9°F5.5°C 89% 12.7 mph SW20.4 kmh SW 14.0 mph22.5 kmh 29.48 in998.3 mb 0.00 in0.0 mm 0.00 in0.0 mm 0.24 in6.1 mm
10:47 AM 44.9°F7.2°C 42.1°F5.6°C 90% 13.3 mph SW21.4 kmh SW 15.0 mph24.1 kmh 29.48 in998.3 mb 0.00 in0.0 mm 0.00 in0.0 mm 0.24 in6.1 mm
10:48 AM 45.0°F7.2°C 42.2°F5.7°C 90% 13.2 mph SW21.2 kmh SW 15.0 mph24.1 kmh 29.48 in998.3 mb 0.00 in0.0 mm 0.00 in0.0 mm 0.24 in6.1 mm
10:49 AM 45.1°F7.3°C 42.1°F5.6°C 89% 13.2 mph SW21.2 kmh SW 14.0 mph22.5 kmh 29.47 in998.0 mb 0.00 in0.0 mm 0.00 in0.0 mm 0.24 in6.1 mm
10:50 AM 45.2°F7.3°C 42.2°F5.7°C 89% 11.5 mph SW18.5 kmh SW 14.0 mph22.5 kmh 29.47 in998.0 mb 0.00 in0.0 mm 0.00 in0.0 mm 0.24 in6.1 mm
10:51 AM 45.3°F7.4°C 42.5°F5.8°C 90% 12.5 mph SW20.1 kmh SW 14.0 mph22.5 kmh 29.48 in998.3 mb 0.00 in0.0 mm 0.00 in0.0 mm 0.24 in6.1 mm
10:52 AM 45.4°F7.4°C 42.6°F5.9°C 90% 12.1 mph SW19.5 kmh SW 14.0 mph22.5 kmh 29.47 in998.0 mb 0.00 in0.0 mm 0.00 in0.0 mm 0.24 in6.1 mm
10:53 AM 45.5°F7.5°C 42.7°F5.9°C 90% 11.7 mph SW18.8 kmh SW 14.0 mph22.5 kmh 29.47 in998.0 mb 0.00 in0.0 mm 0.00 in0.0 mm 0.24 in6.1 mm
10:54 AM 45.6°F7.6°C 42.8°F6.0°C 90% 12.4 mph SW20.0 kmh SW 14.0 mph22.5 kmh 29.48 in998.3 mb 0.00 in0.0 mm 0.00 in0.0 mm 0.24 in6.1 mm
10:55 AM 45.7°F7.6°C 42.6°F5.9°C 89% 12.5 mph SW20.1 kmh SW 14.0 mph22.5 kmh 29.48 in998.3 mb 0.00 in0.0 mm 0.00 in0.0 mm 0.24 in6.1 mm
10:56 AM 45.8°F7.7°C 42.7°F5.9°C 89% 12.8 mph SW20.6 kmh SW 14.0 mph22.5 kmh 29.48 in998.3 mb 0.00 in0.0 mm 0.00 in0.0 mm 0.24 in6.1 mm
10:57 AM 45.8°F7.7°C 42.7°F5.9°C 89% 12.2 mph SW19.6 kmh SW 14.0 mph22.5 kmh 29.47 in998.0 mb 0.00 in0.0 mm 0.00 in0.0 mm 0.24 in6.1 mm
10:58 AM 45.9°F7.7°C 42.8°F6.0°C 89% 12.1 mph SW19.5 kmh SW 14.0 mph22.5 kmh 29.48 in998.3 mb 0.00 in0.0 mm 0.00 in0.0 mm 0.24 in6.1 mm
10:59 AM 46.0°F7.8°C 42.9°F6.1°C 89% 11.2 mph SW18.0 kmh SW 14.0 mph22.5 kmh 29.48 in998.3 mb 0.00 in0.0 mm 0.00 in0.0 mm 0.24 in6.1 mm
11:00 AM 46.1°F7.8°C 43.0°F6.1°C 89% 11.2 mph SW18.0 kmh SW 13.0 mph20.9 kmh 29.48 in998.3 mb 0.00 in0.0 mm 0.00 in0.0 mm 0.24 in6.1 mm
11:01 AM 46.2°F7.9°C 43.1°F6.2°C 89% 12.0 mph SW19.3 kmh SW 14.0 mph22.5 kmh 29.48 in998.3 mb 0.00 in0.0 mm 0.00 in0.0 mm 0.24 in6.1 mm
11:02 AM 46.4°F8.0°C 43.3°F6.3°C 89% 10.8 mph SW17.4 kmh SW 14.0 mph22.5 kmh 29.48 in998.3 mb 0.00 in0.0 mm 0.00 in0.0 mm 0.24 in6.1 mm
11:03 AM 46.4°F8.0°C 43.3°F6.3°C 89% 10.9 mph SW17.5 kmh SW 13.0 mph20.9 kmh 29.48 in998.3 mb 0.00 in0.0 mm 0.00 in0.0 mm 0.24 in6.1 mm
11:04 AM 46.5°F8.1°C 43.4°F6.3°C 89% 11.0 mph SW17.7 kmh SW 12.0 mph19.3 kmh 29.48 in998.3 mb 0.00 in0.0 mm 0.00 in0.0 mm 0.24 in6.1 mm
11:05 AM 46.5°F8.1°C 43.4°F6.3°C 89% 10.9 mph SW17.5 kmh SW 12.0 mph19.3 kmh 29.48 in998.3 mb 0.00 in0.0 mm 0.00 in0.0 mm 0.24 in6.1 mm
11:06 AM 46.6°F8.1°C 43.5°F6.4°C 89% 10.7 mph SW17.2 kmh SW 12.0 mph19.3 kmh 29.48 in998.3 mb 0.00 in0.0 mm 0.00 in0.0 mm 0.24 in6.1 mm
11:07 AM 46.7°F8.2°C 43.6°F6.4°C 89% 10.1 mph SW16.3 kmh SW 12.0 mph19.3 kmh 29.48 in998.3 mb 0.00 in0.0 mm 0.00 in0.0 mm 0.24 in6.1 mm
11:08 AM 46.7°F8.2°C 43.6°F6.4°C 89% 10.1 mph SW16.3 kmh SW 11.0 mph17.7 kmh 29.48 in998.3 mb 0.00 in0.0 mm 0.00 in0.0 mm 0.24 in6.1 mm
11:09 AM 46.7°F8.2°C 43.3°F6.3°C 88% 10.0 mph SW16.1 kmh SW 11.0 mph17.7 kmh 29.48 in998.3 mb 0.00 in0.0 mm 0.00 in0.0 mm 0.24 in6.1 mm
11:10 AM 46.8°F8.2°C 43.4°F6.3°C 88% 10.6 mph SW17.1 kmh SW 12.0 mph19.3 kmh 29.48 in998.3 mb 0.00 in0.0 mm 0.00 in0.0 mm 0.24 in6.1 mm
11:11 AM 46.8°F8.2°C 43.4°F6.3°C 88% 11.1 mph SW17.9 kmh SW 12.0 mph19.3 kmh 29.48 in998.3 mb 0.00 in0.0 mm 0.00 in0.0 mm 0.24 in6.1 mm
11:12 AM 46.9°F8.3°C 43.5°F6.4°C 88% 11.4 mph SW18.3 kmh SW 13.0 mph20.9 kmh 29.48 in998.3 mb 0.00 in0.0 mm 0.00 in0.0 mm 0.24 in6.1 mm
11:13 AM 46.9°F8.3°C 43.5°F6.4°C 88% 9.9 mph SW15.9 kmh SW 13.0 mph20.9 kmh 29.48 in998.3 mb 0.00 in0.0 mm 0.00 in0.0 mm 0.24 in6.1 mm
11:14 AM 47.0°F8.3°C 43.6°F6.4°C 88% 12.2 mph SW19.6 kmh SW 14.0 mph22.5 kmh 29.48 in998.3 mb 0.00 in0.0 mm 0.00 in0.0 mm 0.24 in6.1 mm
11:15 AM 47.1°F8.4°C 43.7°F6.5°C 88% 10.9 mph SW17.5 kmh SW 14.0 mph22.5 kmh 29.48 in998.3 mb 0.00 in0.0 mm 0.00 in0.0 mm 0.24 in6.1 mm
11:16 AM 47.2°F8.4°C 43.8°F6.6°C 88% 10.9 mph SW17.5 kmh SW 13.0 mph20.9 kmh 29.48 in998.3 mb 0.00 in0.0 mm 0.00 in0.0 mm 0.24 in6.1 mm
11:17 AM 47.3°F8.5°C 43.9°F6.6°C 88% 12.2 mph SW19.6 kmh SW 14.0 mph22.5 kmh 29.48 in998.3 mb 0.00 in0.0 mm 0.00 in0.0 mm 0.24 in6.1 mm
11:18 AM 47.4°F8.6°C 44.0°F6.7°C 88% 11.1 mph SW17.9 kmh SW 14.0 mph22.5 kmh 29.48 in998.3 mb 0.00 in0.0 mm 0.00 in0.0 mm 0.24 in6.1 mm
11:19 AM 47.5°F8.6°C 44.1°F6.7°C 88% 10.7 mph SW17.2 kmh SW 13.0 mph20.9 kmh 29.48 in998.3 mb 0.00 in0.0 mm 0.00 in0.0 mm 0.24 in6.1 mm
11:20 AM 47.7°F8.7°C 44.3°F6.8°C 88% 9.9 mph SW15.9 kmh SW 13.0 mph20.9 kmh 29.48 in998.3 mb 0.00 in0.0 mm 0.00 in0.0 mm 0.24 in6.1 mm
11:21 AM 47.9°F8.8°C 44.5°F6.9°C 88% 9.9 mph SW15.9 kmh SW 13.0 mph20.9 kmh 29.48 in998.3 mb 0.00 in0.0 mm 0.00 in0.0 mm 0.24 in6.1 mm
11:22 AM 48.0°F8.9°C 44.6°F7.0°C 88% 12.1 mph SW19.5 kmh SW 15.0 mph24.1 kmh 29.48 in998.3 mb 0.00 in0.0 mm 0.00 in0.0 mm 0.24 in6.1 mm
11:23 AM 48.1°F8.9°C 44.4°F6.9°C 87% 10.5 mph SW16.9 kmh SW 15.0 mph24.1 kmh 29.48 in998.3 mb 0.00 in0.0 mm 0.00 in0.0 mm 0.24 in6.1 mm
11:24 AM 48.2°F9.0°C 44.5°F6.9°C 87% 9.9 mph SW15.9 kmh SW 13.0 mph20.9 kmh 29.49 in998.6 mb 0.00 in0.0 mm 0.00 in0.0 mm 0.24 in6.1 mm
11:25 AM 48.3°F9.1°C 44.6°F7.0°C 87% 9.8 mph SW15.8 kmh SW 13.0 mph20.9 kmh 29.49 in998.6 mb 0.00 in0.0 mm 0.00 in0.0 mm 0.24 in6.1 mm
11:26 AM 48.3°F9.1°C 44.3°F6.8°C 86% 11.4 mph SW18.3 kmh SW 13.0 mph20.9 kmh 29.49 in998.6 mb 0.00 in0.0 mm 0.00 in0.0 mm 0.24 in6.1 mm
11:27 AM 48.5°F9.2°C 44.5°F6.9°C 86% 11.5 mph SW18.5 kmh SW 13.0 mph20.9 kmh 29.49 in998.6 mb 0.00 in0.0 mm 0.00 in0.0 mm 0.24 in6.1 mm
11:28 AM 48.5°F9.2°C 44.5°F6.9°C 86% 9.5 mph SW15.3 kmh SW 13.0 mph20.9 kmh 29.49 in998.6 mb 0.00 in0.0 mm 0.00 in0.0 mm 0.24 in6.1 mm
11:29 AM 48.7°F9.3°C 44.7°F7.1°C 86% 8.6 mph SW13.8 kmh SW 12.0 mph19.3 kmh 29.49 in998.6 mb 0.00 in0.0 mm 0.00 in0.0 mm 0.24 in6.1 mm
11:30 AM 48.7°F9.3°C 44.7°F7.1°C 86% 11.1 mph SW17.9 kmh SW 13.0 mph20.9 kmh 29.49 in998.6 mb 0.00 in0.0 mm 0.00 in0.0 mm 0.24 in6.1 mm
11:31 AM 48.7°F9.3°C 44.7°F7.1°C 86% 11.6 mph SW18.7 kmh SW 14.0 mph22.5 kmh 29.49 in998.6 mb 0.00 in0.0 mm 0.00 in0.0 mm 0.24 in6.1 mm
11:32 AM 48.8°F9.3°C 44.5°F6.9°C 85% 13.0 mph SW20.9 kmh SW 15.0 mph24.1 kmh 29.49 in998.6 mb 0.00 in0.0 mm 0.00 in0.0 mm 0.24 in6.1 mm
11:33 AM 48.8°F9.3°C 44.5°F6.9°C 85% 11.7 mph SW18.8 kmh SW 15.0 mph24.1 kmh 29.49 in998.6 mb 0.00 in0.0 mm 0.00 in0.0 mm 0.24 in6.1 mm
11:34 AM 48.8°F9.3°C 44.5°F6.9°C 85% 9.6 mph SW15.4 kmh SW 13.0 mph20.9 kmh 29.49 in998.6 mb 0.00 in0.0 mm 0.00 in0.0 mm 0.24 in6.1 mm
11:35 AM 48.8°F9.3°C 44.5°F6.9°C 85% 12.1 mph SW19.5 kmh SW 14.0 mph22.5 kmh 29.49 in998.6 mb 0.00 in0.0 mm 0.00 in0.0 mm 0.24 in6.1 mm
11:36 AM 48.8°F9.3°C 44.5°F6.9°C 85% 11.0 mph SW17.7 kmh SW 15.0 mph24.1 kmh 29.49 in998.6 mb 0.00 in0.0 mm 0.00 in0.0 mm 0.24 in6.1 mm
11:37 AM 48.9°F9.4°C 44.6°F7.0°C 85% 12.0 mph WSW19.3 kmh WSW 14.0 mph22.5 kmh 29.49 in998.6 mb 0.00 in0.0 mm 0.00 in0.0 mm 0.24 in6.1 mm
11:38 AM 49.0°F9.4°C 44.7°F7.1°C 85% 9.7 mph SW15.6 kmh SW 12.0 mph19.3 kmh 29.49 in998.6 mb 0.00 in0.0 mm 0.00 in0.0 mm 0.24 in6.1 mm
11:39 AM 49.1°F9.5°C 44.8°F7.1°C 85% 11.8 mph WSW19.0 kmh WSW 14.0 mph22.5 kmh 29.49 in998.6 mb 0.00 in0.0 mm 0.00 in0.0 mm 0.24 in6.1 mm
11:40 AM 49.2°F9.6°C 44.6°F7.0°C 84% 10.3 mph SW16.6 kmh SW 14.0 mph22.5 kmh 29.49 in998.6 mb 0.00 in0.0 mm 0.00 in0.0 mm 0.24 in6.1 mm
11:41 AM 49.3°F9.6°C 44.7°F7.1°C 84% 11.3 mph SW18.2 kmh SW 13.0 mph20.9 kmh 29.49 in998.6 mb 0.00 in0.0 mm 0.00 in0.0 mm 0.24 in6.1 mm
11:42 AM 49.3°F9.6°C 44.7°F7.1°C 84% 12.2 mph SW19.6 kmh SW 14.0 mph22.5 kmh 29.49 in998.6 mb 0.00 in0.0 mm 0.00 in0.0 mm 0.24 in6.1 mm
11:43 AM 49.4°F9.7°C 44.5°F6.9°C 83% 12.3 mph SW19.8 kmh SW 15.0 mph24.1 kmh 29.49 in998.6 mb 0.00 in0.0 mm 0.00 in0.0 mm 0.24 in6.1 mm
11:44 AM 49.4°F9.7°C 44.5°F6.9°C 83% 13.2 mph SW21.2 kmh SW 15.0 mph24.1 kmh 29.49 in998.6 mb 0.00 in0.0 mm 0.00 in0.0 mm 0.24 in6.1 mm
11:45 AM 49.5°F9.7°C 44.6°F7.0°C 83% 11.0 mph SW17.7 kmh SW 14.0 mph22.5 kmh 29.49 in998.6 mb 0.00 in0.0 mm 0.00 in0.0 mm 0.24 in6.1 mm
11:46 AM 49.6°F9.8°C 44.7°F7.1°C 83% 11.0 mph SW17.7 kmh SW 14.0 mph22.5 kmh 29.50 in999.0 mb 0.00 in0.0 mm 0.00 in0.0 mm 0.24 in6.1 mm
11:47 AM 49.7°F9.8°C 44.7°F7.1°C 83% 10.0 mph SW16.1 kmh SW 13.0 mph20.9 kmh 29.50 in999.0 mb 0.00 in0.0 mm 0.00 in0.0 mm 0.24 in6.1 mm
11:48 AM 49.7°F9.8°C 44.7°F7.1°C 83% 9.8 mph SW15.8 kmh SW 12.0 mph19.3 kmh 29.50 in999.0 mb 0.00 in0.0 mm 0.00 in0.0 mm 0.24 in6.1 mm
11:49 AM 49.9°F9.9°C 44.9°F7.2°C 83% 12.3 mph SW19.8 kmh SW 17.0 mph27.4 kmh 29.50 in999.0 mb 0.00 in0.0 mm 0.00 in0.0 mm 0.24 in6.1 mm
11:50 AM 50.1°F10.1°C 44.8°F7.1°C 82% 11.5 mph SW18.5 kmh SW 17.0 mph27.4 kmh 29.50 in999.0 mb 0.00 in0.0 mm 0.00 in0.0 mm 0.24 in6.1 mm
11:51 AM 50.2°F10.1°C 44.9°F7.2°C 82% 12.5 mph SW20.1 kmh SW 15.0 mph24.1 kmh 29.50 in999.0 mb 0.00 in0.0 mm 0.00 in0.0 mm 0.24 in6.1 mm
11:52 AM 50.2°F10.1°C 44.9°F7.2°C 82% 10.9 mph SW17.5 kmh SW 14.0 mph22.5 kmh 29.50 in999.0 mb 0.00 in0.0 mm 0.00 in0.0 mm 0.24 in6.1 mm
11:53 AM 50.2°F10.1°C 44.9°F7.2°C 82% 10.2 mph SW16.4 kmh SW 13.0 mph20.9 kmh 29.50 in999.0 mb 0.00 in0.0 mm 0.00 in0.0 mm 0.24 in6.1 mm
11:54 AM 50.2°F10.1°C 44.6°F7.0°C 81% 10.4 mph SW16.7 kmh SW 13.0 mph20.9 kmh 29.50 in999.0 mb 0.00 in0.0 mm 0.00 in0.0 mm 0.24 in6.1 mm
11:55 AM 50.3°F10.2°C 44.7°F7.1°C 81% 10.3 mph SW16.6 kmh SW 13.0 mph20.9 kmh 29.50 in999.0 mb 0.00 in0.0 mm 0.00 in0.0 mm 0.24 in6.1 mm
11:56 AM 50.3°F10.2°C 45.0°F7.2°C 82% 9.5 mph SW15.3 kmh SW 13.0 mph20.9 kmh 29.50 in999.0 mb 0.00 in0.0 mm 0.00 in0.0 mm 0.24 in6.1 mm
11:57 AM 50.4°F10.2°C 44.8°F7.1°C 81% 12.9 mph SW20.8 kmh SW 15.0 mph24.1 kmh 29.50 in999.0 mb 0.00 in0.0 mm 0.00 in0.0 mm 0.24 in6.1 mm
11:58 AM 50.5°F10.3°C 44.9°F7.2°C 81% 11.2 mph SW18.0 kmh SW 15.0 mph24.1 kmh 29.49 in998.6 mb 0.00 in0.0 mm 0.00 in0.0 mm 0.24 in6.1 mm
11:59 AM 50.5°F10.3°C 44.9°F7.2°C 81% 12.2 mph SW19.6 kmh SW 14.0 mph22.5 kmh 29.50 in999.0 mb 0.00 in0.0 mm 0.00 in0.0 mm 0.24 in6.1 mm
12:00 PM 50.5°F10.3°C 44.6°F7.0°C 80% 12.5 mph WSW20.1 kmh WSW 14.0 mph22.5 kmh 29.50 in999.0 mb 0.00 in0.0 mm 0.00 in0.0 mm 0.24 in6.1 mm
12:01 PM 50.4°F10.2°C 44.5°F6.9°C 80% 12.7 mph WSW20.4 kmh WSW 15.0 mph24.1 kmh 29.50 in999.0 mb 0.00 in0.0 mm 0.00 in0.0 mm 0.24 in6.1 mm
12:02 PM 50.5°F10.3°C 44.6°F7.0°C 80% 14.4 mph SW23.2 kmh SW 16.0 mph25.7 kmh 29.50 in999.0 mb 0.00 in0.0 mm 0.00 in0.0 mm 0.24 in6.1 mm
12:03 PM 50.5°F10.3°C 44.6°F7.0°C 80% 10.6 mph SW17.1 kmh SW 16.0 mph25.7 kmh 29.50 in999.0 mb 0.00 in0.0 mm 0.00 in0.0 mm 0.24 in6.1 mm
12:04 PM 50.5°F10.3°C 44.6°F7.0°C 80% 12.6 mph WSW20.3 kmh WSW 15.0 mph24.1 kmh 29.50 in999.0 mb 0.00 in0.0 mm 0.00 in0.0 mm 0.24 in6.1 mm
12:05 PM 50.6°F10.3°C 44.7°F7.1°C 80% 12.0 mph WSW19.3 kmh WSW 15.0 mph24.1 kmh 29.50 in999.0 mb 0.00 in0.0 mm 0.00 in0.0 mm 0.24 in6.1 mm
12:06 PM 50.6°F10.3°C 44.7°F7.1°C 80% 14.0 mph SW22.5 kmh SW 17.0 mph27.4 kmh 29.50 in999.0 mb 0.00 in0.0 mm 0.00 in0.0 mm 0.24 in6.1 mm
12:07 PM 50.7°F10.4°C 44.8°F7.1°C 80% 12.5 mph SW20.1 kmh SW 13.0 mph20.9 kmh 29.50 in999.0 mb 0.00 in0.0 mm 0.00 in0.0 mm 0.24 in6.1 mm
12:08 PM 50.7°F10.4°C 44.4°F6.9°C 79% 11.6 mph SW18.7 kmh SW 14.0 mph22.5 kmh 29.50 in999.0 mb 0.00 in0.0 mm 0.00 in0.0 mm 0.24 in6.1 mm
12:09 PM 50.8°F10.4°C 44.5°F6.9°C 79% 12.1 mph WSW19.5 kmh WSW 14.0 mph22.5 kmh 29.50 in999.0 mb 0.00 in0.0 mm 0.00 in0.0 mm 0.24 in6.1 mm
12:10 PM 50.7°F10.4°C 44.4°F6.9°C 79% 12.3 mph WSW19.8 kmh WSW 15.0 mph24.1 kmh 29.50 in999.0 mb 0.00 in0.0 mm 0.00 in0.0 mm 0.24 in6.1 mm
12:11 PM 50.7°F10.4°C 44.1°F6.7°C 78% 15.0 mph SW24.1 kmh SW 16.0 mph25.7 kmh 29.50 in999.0 mb 0.00 in0.0 mm 0.00 in0.0 mm 0.24 in6.1 mm
12:12 PM 50.7°F10.4°C 44.4°F6.9°C 79% 12.1 mph SW19.5 kmh SW 16.0 mph25.7 kmh 29.50 in999.0 mb 0.00 in0.0 mm 0.00 in0.0 mm 0.24 in6.1 mm
12:13 PM 50.8°F10.4°C 44.5°F6.9°C 79% 10.6 mph SW17.1 kmh SW 14.0 mph22.5 kmh 29.50 in999.0 mb 0.00 in0.0 mm 0.00 in0.0 mm 0.24 in6.1 mm
12:14 PM 50.9°F10.5°C 44.6°F7.0°C 79% 12.3 mph WSW19.8 kmh WSW 15.0 mph24.1 kmh 29.50 in999.0 mb 0.00 in0.0 mm 0.00 in0.0 mm 0.24 in6.1 mm
12:15 PM 50.9°F10.5°C 44.3°F6.8°C 78% 13.8 mph WSW22.2 kmh WSW 16.0 mph25.7 kmh 29.50 in999.0 mb 0.00 in0.0 mm 0.00 in0.0 mm 0.24 in6.1 mm
12:16 PM 50.8°F10.4°C 43.9°F6.6°C 77% 13.1 mph SW21.1 kmh SW 16.0 mph25.7 kmh 29.50 in999.0 mb 0.00 in0.0 mm 0.00 in0.0 mm 0.24 in6.1 mm
12:17 PM 50.7°F10.4°C 44.1°F6.7°C 78% 11.5 mph SW18.5 kmh SW 15.0 mph24.1 kmh 29.50 in999.0 mb 0.00 in0.0 mm 0.00 in0.0 mm 0.24 in6.1 mm
12:18 PM 50.8°F10.4°C 44.2°F6.8°C 78% 12.0 mph SW19.3 kmh SW 15.0 mph24.1 kmh 29.50 in999.0 mb 0.00 in0.0 mm 0.00 in0.0 mm 0.24 in6.1 mm
12:19 PM 50.8°F10.4°C 43.9°F6.6°C 77% 13.8 mph SW22.2 kmh SW 15.0 mph24.1 kmh 29.50 in999.0 mb 0.00 in0.0 mm 0.00 in0.0 mm 0.24 in6.1 mm
12:20 PM 50.8°F10.4°C 44.2°F6.8°C 78% 11.1 mph SW17.9 kmh SW 15.0 mph24.1 kmh 29.50 in999.0 mb 0.00 in0.0 mm 0.00 in0.0 mm 0.24 in6.1 mm
12:21 PM 50.9°F10.5°C 43.9°F6.6°C 77% 12.0 mph SW19.3 kmh SW 15.0 mph24.1 kmh 29.49 in998.6 mb 0.00 in0.0 mm 0.00 in0.0 mm 0.24 in6.1 mm
12:22 PM 51.0°F10.6°C 44.0°F6.7°C 77% 13.0 mph WSW20.9 kmh WSW 15.0 mph24.1 kmh 29.49 in998.6 mb 0.00 in0.0 mm 0.00 in0.0 mm 0.24 in6.1 mm
12:23 PM 51.1°F10.6°C 44.1°F6.7°C 77% 10.4 mph SW16.7 kmh SW 12.0 mph19.3 kmh 29.50 in999.0 mb 0.00 in0.0 mm 0.00 in0.0 mm 0.24 in6.1 mm
12:24 PM 51.2°F10.7°C 44.2°F6.8°C 77% 10.4 mph SW16.7 kmh SW 12.0 mph19.3 kmh 29.50 in999.0 mb 0.00 in0.0 mm 0.00 in0.0 mm 0.24 in6.1 mm
12:25 PM 51.3°F10.7°C 44.3°F6.8°C 77% 12.4 mph SW20.0 kmh SW 13.0 mph20.9 kmh 29.50 in999.0 mb 0.00 in0.0 mm 0.00 in0.0 mm 0.24 in6.1 mm
12:26 PM 51.3°F10.7°C 44.0°F6.7°C 76% 11.5 mph WSW18.5 kmh WSW 13.0 mph20.9 kmh 29.49 in998.6 mb 0.00 in0.0 mm 0.00 in0.0 mm 0.24 in6.1 mm
12:27 PM 51.2°F10.7°C 43.9°F6.6°C 76% 12.4 mph WSW20.0 kmh WSW 14.0 mph22.5 kmh 29.49 in998.6 mb 0.00 in0.0 mm 0.00 in0.0 mm 0.24 in6.1 mm
12:28 PM 51.1°F10.6°C 43.8°F6.6°C 76% 12.8 mph SW20.6 kmh SW 14.0 mph22.5 kmh 29.49 in998.6 mb 0.00 in0.0 mm 0.00 in0.0 mm 0.24 in6.1 mm
12:29 PM 51.1°F10.6°C 44.1°F6.7°C 77% 11.2 mph SW18.0 kmh SW 14.0 mph22.5 kmh 29.49 in998.6 mb 0.00 in0.0 mm 0.00 in0.0 mm 0.24 in6.1 mm
12:30 PM 51.2°F10.7°C 44.2°F6.8°C 77% 10.8 mph SW17.4 kmh SW 14.0 mph22.5 kmh 29.49 in998.6 mb 0.00 in0.0 mm 0.00 in0.0 mm 0.24 in6.1 mm
12:31 PM 51.2°F10.7°C 43.9°F6.6°C 76% 12.1 mph WSW19.5 kmh WSW 14.0 mph22.5 kmh 29.49 in998.6 mb 0.00 in0.0 mm 0.00 in0.0 mm 0.24 in6.1 mm
12:32 PM 51.2°F10.7°C 43.9°F6.6°C 76% 7.8 mph SW12.6 kmh SW 14.0 mph22.5 kmh 29.50 in999.0 mb 0.00 in0.0 mm 0.00 in0.0 mm 0.24 in6.1 mm
12:33 PM 51.2°F10.7°C 44.2°F6.8°C 77% 6.7 mph SW10.8 kmh SW 10.0 mph16.1 kmh 29.50 in999.0 mb 0.00 in0.0 mm 0.00 in0.0 mm 0.24 in6.1 mm
12:34 PM 51.2°F10.7°C 44.2°F6.8°C 77% 10.1 mph SW16.3 kmh SW 14.0 mph22.5 kmh 29.50 in999.0 mb 0.00 in0.0 mm 0.00 in0.0 mm 0.24 in6.1 mm
12:35 PM 51.4°F10.8°C 44.4°F6.9°C 77% 13.0 mph SW20.9 kmh SW 16.0 mph25.7 kmh 29.49 in998.6 mb 0.00 in0.0 mm 0.00 in0.0 mm 0.24 in6.1 mm
12:36 PM 51.5°F10.8°C 44.5°F6.9°C 77% 10.0 mph SW16.1 kmh SW 12.0 mph19.3 kmh 29.49 in998.6 mb 0.00 in0.0 mm 0.00 in0.0 mm 0.24 in6.1 mm
12:37 PM 51.8°F11.0°C 44.8°F7.1°C 77% 7.8 mph SW12.6 kmh SW 9.0 mph14.5 kmh 29.49 in998.6 mb 0.00 in0.0 mm 0.00 in0.0 mm 0.24 in6.1 mm
12:38 PM 52.0°F11.1°C 45.0°F7.2°C 77% 10.0 mph SSW16.1 kmh SSW 16.0 mph25.7 kmh 29.49 in998.6 mb 0.00 in0.0 mm 0.00 in0.0 mm 0.24 in6.1 mm
12:39 PM 52.2°F11.2°C 44.9°F7.2°C 76% 10.9 mph SW17.5 kmh SW 16.0 mph25.7 kmh 29.49 in998.6 mb 0.00 in0.0 mm 0.00 in0.0 mm 0.24 in6.1 mm
12:40 PM 52.4°F11.3°C 45.1°F7.3°C 76% 9.6 mph SSW15.4 kmh SSW 14.0 mph22.5 kmh 29.49 in998.6 mb 0.00 in0.0 mm 0.00 in0.0 mm 0.24 in6.1 mm
12:41 PM 52.5°F11.4°C 44.8°F7.1°C 75% 11.0 mph SSW17.7 kmh SSW 14.0 mph22.5 kmh 29.49 in998.6 mb 0.00 in0.0 mm 0.00 in0.0 mm 0.24 in6.1 mm
12:42 PM 52.5°F11.4°C 44.8°F7.1°C 75% 10.0 mph SSW16.1 kmh SSW 12.0 mph19.3 kmh 29.49 in998.6 mb 0.00 in0.0 mm 0.00 in0.0 mm 0.24 in6.1 mm
12:43 PM 52.6°F11.4°C 44.9°F7.2°C 75% 11.0 mph SSW17.7 kmh SSW 14.0 mph22.5 kmh 29.49 in998.6 mb 0.00 in0.0 mm 0.00 in0.0 mm 0.24 in6.1 mm
12:44 PM 52.6°F11.4°C 44.9°F7.2°C 75% 13.0 mph SW20.9 kmh SW 16.0 mph25.7 kmh 29.49 in998.6 mb 0.00 in0.0 mm 0.00 in0.0 mm 0.24 in6.1 mm
12:45 PM 52.5°F11.4°C 44.8°F7.1°C 75% 12.8 mph SW20.6 kmh SW 16.0 mph25.7 kmh 29.49 in998.6 mb 0.00 in0.0 mm 0.00 in0.0 mm 0.24 in6.1 mm
12:46 PM 52.5°F11.4°C 44.8°F7.1°C 75% 10.6 mph SW17.1 kmh SW 15.0 mph24.1 kmh 29.49 in998.6 mb 0.00 in0.0 mm 0.00 in0.0 mm 0.24 in6.1 mm
12:47 PM 52.4°F11.3°C 44.7°F7.1°C 75% 12.0 mph SW19.3 kmh SW 14.0 mph22.5 kmh 29.49 in998.6 mb 0.00 in0.0 mm 0.00 in0.0 mm 0.24 in6.1 mm
12:48 PM 52.4°F11.3°C 44.7°F7.1°C 75% 12.0 mph SW19.3 kmh SW 15.0 mph24.1 kmh 29.49 in998.6 mb 0.00 in0.0 mm 0.00 in0.0 mm 0.24 in6.1 mm
12:49 PM 52.4°F11.3°C 44.7°F7.1°C 75% 12.0 mph SW19.3 kmh SW 14.0 mph22.5 kmh 29.49 in998.6 mb 0.00 in0.0 mm 0.00 in0.0 mm 0.24 in6.1 mm
12:50 PM 52.4°F11.3°C 44.7°F7.1°C 75% 13.7 mph SW22.0 kmh SW 16.0 mph25.7 kmh 29.49 in998.6 mb 0.00 in0.0 mm 0.00 in0.0 mm 0.24 in6.1 mm
12:51 PM 52.5°F11.4°C 45.2°F7.3°C 76% 9.8 mph SW15.8 kmh SW 16.0 mph25.7 kmh 29.49 in998.6 mb 0.00 in0.0 mm 0.00 in0.0 mm 0.24 in6.1 mm
12:52 PM 52.6°F11.4°C 44.9°F7.2°C 75% 11.2 mph SW18.0 kmh SW 13.0 mph20.9 kmh 29.49 in998.6 mb 0.00 in0.0 mm 0.00 in0.0 mm 0.24 in6.1 mm
12:53 PM 52.6°F11.4°C 44.9°F7.2°C 75% 10.0 mph SSW16.1 kmh SSW 13.0 mph20.9 kmh 29.49 in998.6 mb 0.00 in0.0 mm 0.00 in0.0 mm 0.24 in6.1 mm
12:54 PM 52.7°F11.5°C 45.0°F7.2°C 75% 8.4 mph SSW13.5 kmh SSW 12.0 mph19.3 kmh 29.49 in998.6 mb 0.00 in0.0 mm 0.00 in0.0 mm 0.24 in6.1 mm
12:55 PM 52.8°F11.6°C 44.7°F7.1°C 74% 11.2 mph SW18.0 kmh SW 13.0 mph20.9 kmh 29.49 in998.6 mb 0.00 in0.0 mm 0.00 in0.0 mm 0.24 in6.1 mm
12:56 PM 52.8°F11.6°C 44.7°F7.1°C 74% 8.8 mph SW14.2 kmh SW 13.0 mph20.9 kmh 29.49 in998.6 mb 0.00 in0.0 mm 0.00 in0.0 mm 0.24 in6.1 mm
12:57 PM 52.9°F11.6°C 45.2°F7.3°C 75% 9.0 mph SW14.5 kmh SW 12.0 mph19.3 kmh 29.49 in998.6 mb 0.00 in0.0 mm 0.00 in0.0 mm 0.24 in6.1 mm
12:58 PM 53.0°F11.7°C 44.9°F7.2°C 74% 11.6 mph SW18.7 kmh SW 13.0 mph20.9 kmh 29.49 in998.6 mb 0.00 in0.0 mm 0.00 in0.0 mm 0.24 in6.1 mm
12:59 PM 53.0°F11.7°C 44.6°F7.0°C 73% 9.9 mph SW15.9 kmh SW 13.0 mph20.9 kmh 29.49 in998.6 mb 0.00 in0.0 mm 0.00 in0.0 mm 0.24 in6.1 mm
01:00 PM 53.0°F11.7°C 44.6°F7.0°C 73% 10.6 mph SW17.1 kmh SW 12.0 mph19.3 kmh 29.49 in998.6 mb 0.00 in0.0 mm 0.00 in0.0 mm 0.24 in6.1 mm
01:01 PM 53.0°F11.7°C 44.6°F7.0°C 73% 11.0 mph SW17.7 kmh SW 14.0 mph22.5 kmh 29.49 in998.6 mb 0.00 in0.0 mm 0.00 in0.0 mm 0.24 in6.1 mm
01:02 PM 53.0°F11.7°C 44.9°F7.2°C 74% 10.9 mph SW17.5 kmh SW 14.0 mph22.5 kmh 29.49 in998.6 mb 0.00 in0.0 mm 0.00 in0.0 mm 0.24 in6.1 mm
01:03 PM 53.0°F11.7°C 44.6°F7.0°C 73% 11.5 mph SW18.5 kmh SW 14.0 mph22.5 kmh 29.49 in998.6 mb 0.00 in0.0 mm 0.00 in0.0 mm 0.24 in6.1 mm
01:04 PM 53.1°F11.7°C 44.7°F7.1°C 73% 9.8 mph SW15.8 kmh SW 14.0 mph22.5 kmh 29.49 in998.6 mb 0.00 in0.0 mm 0.00 in0.0 mm 0.24 in6.1 mm
01:05 PM 53.1°F11.7°C 45.0°F7.2°C 74% 8.3 mph SW13.4 kmh SW 13.0 mph20.9 kmh 29.49 in998.6 mb 0.00 in0.0 mm 0.00 in0.0 mm 0.24 in6.1 mm
01:06 PM 53.2°F11.8°C 45.1°F7.3°C 74% 8.5 mph SSW13.7 kmh SSW 12.0 mph19.3 kmh 29.49 in998.6 mb 0.00 in0.0 mm 0.00 in0.0 mm 0.24 in6.1 mm
01:07 PM 53.2°F11.8°C 44.8°F7.1°C 73% 9.0 mph SW14.5 kmh SW 11.0 mph17.7 kmh 29.49 in998.6 mb 0.00 in0.0 mm 0.00 in0.0 mm 0.24 in6.1 mm
01:08 PM 53.3°F11.8°C 44.9°F7.2°C 73% 10.1 mph SW16.3 kmh SW 13.0 mph20.9 kmh 29.49 in998.6 mb 0.00 in0.0 mm 0.00 in0.0 mm 0.24 in6.1 mm
01:09 PM 53.3°F11.8°C 44.9°F7.2°C 73% 11.5 mph SW18.5 kmh SW 13.0 mph20.9 kmh 29.49 in998.6 mb 0.00 in0.0 mm 0.00 in0.0 mm 0.24 in6.1 mm
01:10 PM 53.2°F11.8°C 44.8°F7.1°C 73% 12.4 mph SW20.0 kmh SW 16.0 mph25.7 kmh 29.50 in999.0 mb 0.00 in0.0 mm 0.00 in0.0 mm 0.24 in6.1 mm
01:11 PM 53.2°F11.8°C 44.8°F7.1°C 73% 10.9 mph SW17.5 kmh SW 16.0 mph25.7 kmh 29.50 in999.0 mb 0.00 in0.0 mm 0.00 in0.0 mm 0.24 in6.1 mm
01:12 PM 53.0°F11.7°C 44.6°F7.0°C 73% 13.7 mph SW22.0 kmh SW 16.0 mph25.7 kmh 29.50 in999.0 mb 0.00 in0.0 mm 0.00 in0.0 mm 0.24 in6.1 mm
01:13 PM 53.0°F11.7°C 44.6°F7.0°C 73% 10.3 mph SW16.6 kmh SW 16.0 mph25.7 kmh 29.50 in999.0 mb 0.00 in0.0 mm 0.00 in0.0 mm 0.24 in6.1 mm
01:14 PM 53.1°F11.7°C 45.0°F7.2°C 74% 10.3 mph SW16.6 kmh SW 14.0 mph22.5 kmh 29.50 in999.0 mb 0.00 in0.0 mm 0.00 in0.0 mm 0.24 in6.1 mm
01:15 PM 53.2°F11.8°C 45.1°F7.3°C 74% 12.7 mph SW20.4 kmh SW 15.0 mph24.1 kmh 29.50 in999.0 mb 0.00 in0.0 mm 0.00 in0.0 mm 0.24 in6.1 mm
01:16 PM 53.2°F11.8°C 45.1°F7.3°C 74% 10.9 mph SW17.5 kmh SW 15.0 mph24.1 kmh 29.50 in999.0 mb 0.00 in0.0 mm 0.00 in0.0 mm 0.24 in6.1 mm
01:17 PM 53.3°F11.8°C 45.2°F7.3°C 74% 11.0 mph SW17.7 kmh SW 13.0 mph20.9 kmh 29.50 in999.0 mb 0.00 in0.0 mm 0.00 in0.0 mm 0.24 in6.1 mm
01:18 PM 53.4°F11.9°C 45.3°F7.4°C 74% 10.0 mph SW16.1 kmh SW 14.0 mph22.5 kmh 29.49 in998.6 mb 0.00 in0.0 mm 0.00 in0.0 mm 0.24 in6.1 mm
01:19 PM 53.5°F11.9°C 45.4°F7.4°C 74% 12.3 mph SW19.8 kmh SW 15.0 mph24.1 kmh 29.49 in998.6 mb 0.00 in0.0 mm 0.00 in0.0 mm 0.24 in6.1 mm
01:20 PM 53.4°F11.9°C 45.3°F7.4°C 74% 9.8 mph SW15.8 kmh SW 15.0 mph24.1 kmh 29.50 in999.0 mb 0.00 in0.0 mm 0.00 in0.0 mm 0.24 in6.1 mm
01:21 PM 53.4°F11.9°C 45.3°F7.4°C 74% 12.0 mph SSW19.3 kmh SSW 15.0 mph24.1 kmh 29.50 in999.0 mb 0.00 in0.0 mm 0.00 in0.0 mm 0.24 in6.1 mm
01:22 PM 53.3°F11.8°C 44.9°F7.2°C 73% 11.0 mph SW17.7 kmh SW 15.0 mph24.1 kmh 29.49 in998.6 mb 0.00 in0.0 mm 0.00 in0.0 mm 0.24 in6.1 mm
01:23 PM 53.3°F11.8°C 44.9°F7.2°C 73% 10.2 mph SW16.4 kmh SW 13.0 mph20.9 kmh 29.49 in998.6 mb 0.00 in0.0 mm 0.00 in0.0 mm 0.24 in6.1 mm
01:24 PM 53.3°F11.8°C 44.9°F7.2°C 73% 10.5 mph SW16.9 kmh SW 14.0 mph22.5 kmh 29.50 in999.0 mb 0.00 in0.0 mm 0.00 in0.0 mm 0.24 in6.1 mm
01:25 PM 53.2°F11.8°C 44.8°F7.1°C 73% 12.3 mph SW19.8 kmh SW 14.0 mph22.5 kmh 29.49 in998.6 mb 0.00 in0.0 mm 0.00 in0.0 mm 0.24 in6.1 mm
01:26 PM 53.3°F11.8°C 44.9°F7.2°C 73% 9.6 mph SW15.4 kmh SW 14.0 mph22.5 kmh 29.50 in999.0 mb 0.00 in0.0 mm 0.00 in0.0 mm 0.24 in6.1 mm
01:27 PM 53.3°F11.8°C 44.9°F7.2°C 73% 9.2 mph SW14.8 kmh SW 13.0 mph20.9 kmh 29.50 in999.0 mb 0.00 in0.0 mm 0.00 in0.0 mm 0.24 in6.1 mm
01:28 PM 53.3°F11.8°C 44.9°F7.2°C 73% 11.0 mph SW17.7 kmh SW 12.0 mph19.3 kmh 29.49 in998.6 mb 0.00 in0.0 mm 0.00 in0.0 mm 0.24 in6.1 mm
01:29 PM 53.2°F11.8°C 44.8°F7.1°C 73% 10.0 mph SW16.1 kmh SW 13.0 mph20.9 kmh 29.50 in999.0 mb 0.00 in0.0 mm 0.00 in0.0 mm 0.24 in6.1 mm
01:30 PM 53.3°F11.8°C 44.9°F7.2°C 73% 11.7 mph SW18.8 kmh SW 13.0 mph20.9 kmh 29.50 in999.0 mb 0.00 in0.0 mm 0.00 in0.0 mm 0.24 in6.1 mm
01:31 PM 53.4°F11.9°C 45.0°F7.2°C 73% 11.3 mph SW18.2 kmh SW 14.0 mph22.5 kmh 29.50 in999.0 mb 0.00 in0.0 mm 0.00 in0.0 mm 0.24 in6.1 mm
01:32 PM 53.3°F11.8°C 44.9°F7.2°C 73% 9.5 mph SW15.3 kmh SW 14.0 mph22.5 kmh 29.50 in999.0 mb 0.00 in0.0 mm 0.00 in0.0 mm 0.24 in6.1 mm
01:33 PM 53.3°F11.8°C 44.9°F7.2°C 73% 10.8 mph SW17.4 kmh SW 14.0 mph22.5 kmh 29.50 in999.0 mb 0.00 in0.0 mm 0.00 in0.0 mm 0.24 in6.1 mm
01:34 PM 53.3°F11.8°C 44.9°F7.2°C 73% 9.2 mph SW14.8 kmh SW 13.0 mph20.9 kmh 29.50 in999.0 mb 0.00 in0.0 mm 0.00 in0.0 mm 0.24 in6.1 mm
01:35 PM 53.3°F11.8°C 44.9°F7.2°C 73% 8.5 mph SW13.7 kmh SW 13.0 mph20.9 kmh 29.49 in998.6 mb 0.00 in0.0 mm 0.00 in0.0 mm 0.24 in6.1 mm
01:36 PM 53.3°F11.8°C 44.9°F7.2°C 73% 12.2 mph SW19.6 kmh SW 14.0 mph22.5 kmh 29.50 in999.0 mb 0.00 in0.0 mm 0.00 in0.0 mm 0.24 in6.1 mm
01:37 PM 53.2°F11.8°C 44.4°F6.9°C 72% 10.6 mph SW17.1 kmh SW 14.0 mph22.5 kmh 29.49 in998.6 mb 0.00 in0.0 mm 0.00 in0.0 mm 0.24 in6.1 mm
01:38 PM 53.1°F11.7°C 44.3°F6.8°C 72% 9.0 mph SW14.5 kmh SW 12.0 mph19.3 kmh 29.49 in998.6 mb 0.00 in0.0 mm 0.00 in0.0 mm 0.24 in6.1 mm
01:39 PM 53.1°F11.7°C 44.3°F6.8°C 72% 11.0 mph SW17.7 kmh SW 13.0 mph20.9 kmh 29.49 in998.6 mb 0.00 in0.0 mm 0.00 in0.0 mm 0.24 in6.1 mm
01:40 PM 53.2°F11.8°C 44.8°F7.1°C 73% 9.3 mph SW15.0 kmh SW 11.0 mph17.7 kmh 29.49 in998.6 mb 0.00 in0.0 mm 0.00 in0.0 mm 0.24 in6.1 mm
01:41 PM 53.3°F11.8°C 44.9°F7.2°C 73% 12.0 mph SW19.3 kmh SW 14.0 mph22.5 kmh 29.49 in998.6 mb 0.00 in0.0 mm 0.00 in0.0 mm 0.24 in6.1 mm
01:42 PM 53.4°F11.9°C 44.6°F7.0°C 72% 11.0 mph SW17.7 kmh SW 13.0 mph20.9 kmh 29.49 in998.6 mb 0.00 in0.0 mm 0.00 in0.0 mm 0.24 in6.1 mm
01:43 PM 53.5°F11.9°C 45.1°F7.3°C 73% 10.9 mph SW17.5 kmh SW 12.0 mph19.3 kmh 29.49 in998.6 mb 0.00 in0.0 mm 0.00 in0.0 mm 0.24 in6.1 mm
01:44 PM 53.6°F12.0°C 44.8°F7.1°C 72% 10.7 mph SW17.2 kmh SW 13.0 mph20.9 kmh 29.49 in998.6 mb 0.00 in0.0 mm 0.00 in0.0 mm 0.24 in6.1 mm
01:45 PM 53.7°F12.1°C 44.9°F7.2°C 72% 9.4 mph SW15.1 kmh SW 14.0 mph22.5 kmh 29.49 in998.6 mb 0.00 in0.0 mm 0.00 in0.0 mm 0.24 in6.1 mm
01:46 PM 53.8°F12.1°C 45.0°F7.2°C 72% 11.3 mph SW18.2 kmh SW 15.0 mph24.1 kmh 29.49 in998.6 mb 0.00 in0.0 mm 0.00 in0.0 mm 0.24 in6.1 mm
01:47 PM 53.7°F12.1°C 44.5°F6.9°C 71% 9.4 mph SW15.1 kmh SW 15.0 mph24.1 kmh 29.49 in998.6 mb 0.00 in0.0 mm 0.00 in0.0 mm 0.24 in6.1 mm
01:48 PM 53.7°F12.1°C 44.5°F6.9°C 71% 8.0 mph SW12.9 kmh SW 10.0 mph16.1 kmh 29.50 in999.0 mb 0.00 in0.0 mm 0.00 in0.0 mm 0.24 in6.1 mm
01:49 PM 53.7°F12.1°C 44.9°F7.2°C 72% 9.0 mph SW14.5 kmh SW 10.0 mph16.1 kmh 29.49 in998.6 mb 0.00 in0.0 mm 0.00 in0.0 mm 0.24 in6.1 mm
01:50 PM 53.7°F12.1°C 44.5°F6.9°C 71% 7.6 mph SW12.2 kmh SW 10.0 mph16.1 kmh 29.50 in999.0 mb 0.00 in0.0 mm 0.00 in0.0 mm 0.24 in6.1 mm
01:51 PM 53.7°F12.1°C 44.9°F7.2°C 72% 8.2 mph SW13.2 kmh SW 12.0 mph19.3 kmh 29.49 in998.6 mb 0.00 in0.0 mm 0.00 in0.0 mm 0.24 in6.1 mm
01:52 PM 53.7°F12.1°C 44.9°F7.2°C 72% 8.7 mph SW14.0 kmh SW 13.0 mph20.9 kmh 29.49 in998.6 mb 0.00 in0.0 mm 0.00 in0.0 mm 0.24 in6.1 mm
01:53 PM 53.6°F12.0°C 44.8°F7.1°C 72% 10.0 mph SSW16.1 kmh SSW 11.0 mph17.7 kmh 29.49 in998.6 mb 0.00 in0.0 mm 0.00 in0.0 mm 0.24 in6.1 mm
01:54 PM 53.5°F11.9°C 44.7°F7.1°C 72% 7.0 mph SSW11.3 kmh SSW 10.0 mph16.1 kmh 29.49 in998.6 mb 0.00 in0.0 mm 0.00 in0.0 mm 0.24 in6.1 mm
01:55 PM 53.6°F12.0°C 45.2°F7.3°C 73% 8.0 mph SSW12.9 kmh SSW 11.0 mph17.7 kmh 29.50 in999.0 mb 0.00 in0.0 mm 0.00 in0.0 mm 0.24 in6.1 mm
01:56 PM 53.6°F12.0°C 45.2°F7.3°C 73% 11.3 mph SW18.2 kmh SW 15.0 mph24.1 kmh 29.50 in999.0 mb 0.00 in0.0 mm 0.00 in0.0 mm 0.24 in6.1 mm
01:57 PM 53.6°F12.0°C 44.8°F7.1°C 72% 11.0 mph SW17.7 kmh SW 14.0 mph22.5 kmh 29.50 in999.0 mb 0.00 in0.0 mm 0.00 in0.0 mm 0.24 in6.1 mm
01:58 PM 53.5°F11.9°C 44.7°F7.1°C 72% 12.0 mph SW19.3 kmh SW 14.0 mph22.5 kmh 29.50 in999.0 mb 0.00 in0.0 mm 0.00 in0.0 mm 0.24 in6.1 mm
01:59 PM 53.5°F11.9°C 44.7°F7.1°C 72% 11.5 mph SW18.5 kmh SW 12.0 mph19.3 kmh 29.50 in999.0 mb 0.00 in0.0 mm 0.00 in0.0 mm 0.24 in6.1 mm
02:00 PM 53.5°F11.9°C 44.7°F7.1°C 72% 10.7 mph SW17.2 kmh SW 13.0 mph20.9 kmh 29.50 in999.0 mb 0.00 in0.0 mm 0.00 in0.0 mm 0.24 in6.1 mm
02:01 PM 53.5°F11.9°C 44.7°F7.1°C 72% 11.0 mph SW17.7 kmh SW 13.0 mph20.9 kmh 29.50 in999.0 mb 0.00 in0.0 mm 0.00 in0.0 mm 0.24 in6.1 mm
02:02 PM 53.5°F11.9°C 45.1°F7.3°C 73% 11.0 mph SW17.7 kmh SW 15.0 mph24.1 kmh 29.50 in999.0 mb 0.00 in0.0 mm 0.00 in0.0 mm 0.24 in6.1 mm
02:03 PM 53.5°F11.9°C 44.7°F7.1°C 72% 12.0 mph SW19.3 kmh SW 15.0 mph24.1 kmh 29.50 in999.0 mb 0.00 in0.0 mm 0.00 in0.0 mm 0.24 in6.1 mm
02:04 PM 53.6°F12.0°C 44.8°F7.1°C 72% 12.2 mph SW19.6 kmh SW 14.0 mph22.5 kmh 29.50 in999.0 mb 0.00 in0.0 mm 0.00 in0.0 mm 0.24 in6.1 mm
02:05 PM 53.7°F12.1°C 44.9°F7.2°C 72% 10.0 mph SW16.1 kmh SW 14.0 mph22.5 kmh 29.50 in999.0 mb 0.00 in0.0 mm 0.00 in0.0 mm 0.24 in6.1 mm
02:06 PM 53.8°F12.1°C 45.0°F7.2°C 72% 8.5 mph SW13.7 kmh SW 12.0 mph19.3 kmh 29.50 in999.0 mb 0.00 in0.0 mm 0.00 in0.0 mm 0.24 in6.1 mm
02:07 PM 53.9°F12.2°C 45.4°F7.4°C 73% 8.2 mph SSW13.2 kmh SSW 12.0 mph19.3 kmh 29.50 in999.0 mb 0.00 in0.0 mm 0.00 in0.0 mm 0.24 in6.1 mm
02:08 PM 54.1°F12.3°C 45.3°F7.4°C 72% 7.0 mph SSW11.3 kmh SSW 9.0 mph14.5 kmh 29.49 in998.6 mb 0.00 in0.0 mm 0.00 in0.0 mm 0.24 in6.1 mm
02:09 PM 54.2°F12.3°C 45.0°F7.2°C 71% 9.0 mph SSW14.5 kmh SSW 11.0 mph17.7 kmh 29.50 in999.0 mb 0.00 in0.0 mm 0.00 in0.0 mm 0.24 in6.1 mm
02:10 PM 54.1°F12.3°C 44.9°F7.2°C 71% 12.0 mph SW19.3 kmh SW 16.0 mph25.7 kmh 29.50 in999.0 mb 0.00 in0.0 mm 0.00 in0.0 mm 0.24 in6.1 mm
02:11 PM 54.1°F12.3°C 44.9°F7.2°C 71% 12.0 mph SW19.3 kmh SW 16.0 mph25.7 kmh 29.49 in998.6 mb 0.00 in0.0 mm 0.00 in0.0 mm 0.24 in6.1 mm
02:12 PM 54.1°F12.3°C 44.9°F7.2°C 71% 13.0 mph SW20.9 kmh SW 16.0 mph25.7 kmh 29.50 in999.0 mb 0.00 in0.0 mm 0.00 in0.0 mm 0.24 in6.1 mm
02:13 PM 54.0°F12.2°C 44.8°F7.1°C 71% 10.4 mph SW16.7 kmh SW 15.0 mph24.1 kmh 29.50 in999.0 mb 0.00 in0.0 mm 0.00 in0.0 mm 0.24 in6.1 mm
02:14 PM 53.9°F12.2°C 44.7°F7.1°C 71% 10.9 mph SW17.5 kmh SW 15.0 mph24.1 kmh 29.50 in999.0 mb 0.00 in0.0 mm 0.00 in0.0 mm 0.24 in6.1 mm
02:15 PM 53.9°F12.2°C 44.3°F6.8°C 70% 11.0 mph SW17.7 kmh SW 13.0 mph20.9 kmh 29.49 in998.6 mb 0.00 in0.0 mm 0.00 in0.0 mm 0.24 in6.1 mm
02:16 PM 53.8°F12.1°C 44.2°F6.8°C 70% 10.0 mph SSW16.1 kmh SSW 13.0 mph20.9 kmh 29.49 in998.6 mb 0.00 in0.0 mm 0.00 in0.0 mm 0.24 in6.1 mm
02:17 PM 53.8°F12.1°C 44.6°F7.0°C 71% 11.4 mph SW18.3 kmh SW 13.0 mph20.9 kmh 29.49 in998.6 mb 0.00 in0.0 mm 0.00 in0.0 mm 0.24 in6.1 mm
02:18 PM 53.8°F12.1°C 44.2°F6.8°C 70% 8.5 mph SW13.7 kmh SW 13.0 mph20.9 kmh 29.49 in998.6 mb 0.00 in0.0 mm 0.00 in0.0 mm 0.24 in6.1 mm
02:19 PM 53.9°F12.2°C 44.7°F7.1°C 71% 8.7 mph SW14.0 kmh SW 12.0 mph19.3 kmh 29.50 in999.0 mb 0.00 in0.0 mm 0.00 in0.0 mm 0.24 in6.1 mm
02:20 PM 54.0°F12.2°C 44.8°F7.1°C 71% 9.0 mph SSW14.5 kmh SSW 13.0 mph20.9 kmh 29.50 in999.0 mb 0.00 in0.0 mm 0.00 in0.0 mm 0.24 in6.1 mm
02:21 PM 54.1°F12.3°C 44.9°F7.2°C 71% 7.0 mph SSW11.3 kmh SSW 9.0 mph14.5 kmh 29.50 in999.0 mb 0.00 in0.0 mm 0.00 in0.0 mm 0.24 in6.1 mm
02:22 PM 54.1°F12.3°C 44.9°F7.2°C 71% 11.2 mph SW18.0 kmh SW 14.0 mph22.5 kmh 29.50 in999.0 mb 0.00 in0.0 mm 0.00 in0.0 mm 0.24 in6.1 mm
02:23 PM 54.3°F12.4°C 45.1°F7.3°C 71% 10.7 mph SW17.2 kmh SW 14.0 mph22.5 kmh 29.50 in999.0 mb 0.00 in0.0 mm 0.00 in0.0 mm 0.24 in6.1 mm
02:24 PM 54.2°F12.3°C 44.6°F7.0°C 70% 8.7 mph SSW14.0 kmh SSW 13.0 mph20.9 kmh 29.50 in999.0 mb 0.00 in0.0 mm 0.00 in0.0 mm 0.24 in6.1 mm
02:25 PM 54.3°F12.4°C 45.1°F7.3°C 71% 8.4 mph SSW13.5 kmh SSW 13.0 mph20.9 kmh 29.50 in999.0 mb 0.00 in0.0 mm 0.00 in0.0 mm 0.24 in6.1 mm
02:26 PM 54.4°F12.4°C 45.2°F7.3°C 71% 9.0 mph S14.5 kmh S 12.0 mph19.3 kmh 29.50 in999.0 mb 0.00 in0.0 mm 0.00 in0.0 mm 0.24 in6.1 mm
02:27 PM 54.5°F12.5°C 44.9°F7.2°C 70% 6.0 mph SSW9.7 kmh SSW 8.0 mph12.9 kmh 29.50 in999.0 mb 0.00 in0.0 mm 0.00 in0.0 mm 0.24 in6.1 mm
02:28 PM 54.4°F12.4°C 44.8°F7.1°C 70% 6.4 mph SW10.3 kmh SW 9.0 mph14.5 kmh 29.50 in999.0 mb 0.00 in0.0 mm 0.00 in0.0 mm 0.24 in6.1 mm
02:29 PM 54.5°F12.5°C 45.3°F7.4°C 71% 8.4 mph SW13.5 kmh SW 12.0 mph19.3 kmh 29.50 in999.0 mb 0.00 in0.0 mm 0.00 in0.0 mm 0.24 in6.1 mm
02:30 PM 54.5°F12.5°C 44.9°F7.2°C 70% 9.7 mph SSW15.6 kmh SSW 12.0 mph19.3 kmh 29.50 in999.0 mb 0.00 in0.0 mm 0.00 in0.0 mm 0.24 in6.1 mm
02:31 PM 54.4°F12.4°C 44.8°F7.1°C 70% 9.6 mph SSW15.4 kmh SSW 12.0 mph19.3 kmh 29.50 in999.0 mb 0.00 in0.0 mm 0.00 in0.0 mm 0.24 in6.1 mm
02:32 PM 54.4°F12.4°C 45.2°F7.3°C 71% 8.9 mph SW14.3 kmh SW 12.0 mph19.3 kmh 29.50 in999.0 mb 0.00 in0.0 mm 0.00 in0.0 mm 0.24 in6.1 mm
02:33 PM 54.5°F12.5°C 45.3°F7.4°C 71% 8.0 mph SW12.9 kmh SW 11.0 mph17.7 kmh 29.50 in999.0 mb 0.00 in0.0 mm 0.00 in0.0 mm 0.24 in6.1 mm
02:34 PM 54.5°F12.5°C 44.9°F7.2°C 70% 11.0 mph SW17.7 kmh SW 14.0 mph22.5 kmh 29.50 in999.0 mb 0.00 in0.0 mm 0.00 in0.0 mm 0.24 in6.1 mm
02:35 PM 54.5°F12.5°C 44.9°F7.2°C 70% 6.6 mph SW10.6 kmh SW 7.0 mph11.3 kmh 29.50 in999.0 mb 0.00 in0.0 mm 0.00 in0.0 mm 0.24 in6.1 mm
02:36 PM 54.5°F12.5°C 45.3°F7.4°C 71% 9.8 mph SW15.8 kmh SW 11.0 mph17.7 kmh 29.50 in999.0 mb 0.00 in0.0 mm 0.00 in0.0 mm 0.24 in6.1 mm
02:37 PM 54.4°F12.4°C 45.2°F7.3°C 71% 8.3 mph SW13.4 kmh SW 11.0 mph17.7 kmh 29.50 in999.0 mb 0.00 in0.0 mm 0.00 in0.0 mm 0.24 in6.1 mm
02:38 PM 54.5°F12.5°C 44.9°F7.2°C 70% 10.0 mph SW16.1 kmh SW 13.0 mph20.9 kmh 29.50 in999.0 mb 0.00 in0.0 mm 0.00 in0.0 mm 0.24 in6.1 mm
02:39 PM 54.5°F12.5°C 44.9°F7.2°C 70% 13.0 mph SW20.9 kmh SW 15.0 mph24.1 kmh 29.50 in999.0 mb 0.00 in0.0 mm 0.00 in0.0 mm 0.24 in6.1 mm
02:40 PM 54.4°F12.4°C 44.8°F7.1°C 70% 11.8 mph SW19.0 kmh SW 15.0 mph24.1 kmh 29.50 in999.0 mb 0.00 in0.0 mm 0.00 in0.0 mm 0.24 in6.1 mm
02:41 PM 54.5°F12.5°C 45.3°F7.4°C 71% 10.0 mph SW16.1 kmh SW 12.0 mph19.3 kmh 29.50 in999.0 mb 0.00 in0.0 mm 0.00 in0.0 mm 0.24 in6.1 mm
02:42 PM 54.5°F12.5°C 45.3°F7.4°C 71% 11.0 mph SW17.7 kmh SW 13.0 mph20.9 kmh 29.50 in999.0 mb 0.00 in0.0 mm 0.00 in0.0 mm 0.24 in6.1 mm
02:43 PM 54.6°F12.6°C 45.0°F7.2°C 70% 12.1 mph SW19.5 kmh SW 14.0 mph22.5 kmh 29.50 in999.0 mb 0.00 in0.0 mm 0.00 in0.0 mm 0.24 in6.1 mm
02:44 PM 54.6°F12.6°C 44.6°F7.0°C 69% 10.8 mph SW17.4 kmh SW 14.0 mph22.5 kmh 29.50 in999.0 mb 0.00 in0.0 mm 0.00 in0.0 mm 0.24 in6.1 mm
02:45 PM 54.6°F12.6°C 44.6°F7.0°C 69% 11.3 mph SW18.2 kmh SW 14.0 mph22.5 kmh 29.50 in999.0 mb 0.00 in0.0 mm 0.00 in0.0 mm 0.24 in6.1 mm
02:46 PM 54.6°F12.6°C 44.6°F7.0°C 69% 11.1 mph SW17.9 kmh SW 13.0 mph20.9 kmh 29.50 in999.0 mb 0.00 in0.0 mm 0.00 in0.0 mm 0.24 in6.1 mm
02:47 PM 54.5°F12.5°C 44.5°F6.9°C 69% 11.5 mph SW18.5 kmh SW 15.0 mph24.1 kmh 29.50 in999.0 mb 0.00 in0.0 mm 0.00 in0.0 mm 0.24 in6.1 mm
02:48 PM 54.4°F12.4°C 44.8°F7.1°C 70% 10.8 mph SW17.4 kmh SW 15.0 mph24.1 kmh 29.50 in999.0 mb 0.00 in0.0 mm 0.00 in0.0 mm 0.24 in6.1 mm
02:49 PM 54.4°F12.4°C 44.8°F7.1°C 70% 8.8 mph SW14.2 kmh SW 14.0 mph22.5 kmh 29.50 in999.0 mb 0.00 in0.0 mm 0.00 in0.0 mm 0.24 in6.1 mm
02:50 PM 54.6°F12.6°C 45.0°F7.2°C 70% 10.3 mph SW16.6 kmh SW 13.0 mph20.9 kmh 29.50 in999.0 mb 0.00 in0.0 mm 0.00 in0.0 mm 0.24 in6.1 mm
02:51 PM 54.6°F12.6°C 45.0°F7.2°C 70% 12.0 mph SW19.3 kmh SW 13.0 mph20.9 kmh 29.50 in999.0 mb 0.00 in0.0 mm 0.00 in0.0 mm 0.24 in6.1 mm
02:52 PM 54.6°F12.6°C 45.0°F7.2°C 70% 11.0 mph SW17.7 kmh SW 13.0 mph20.9 kmh 29.50 in999.0 mb 0.00 in0.0 mm 0.00 in0.0 mm 0.24 in6.1 mm
02:53 PM 54.6°F12.6°C 45.0°F7.2°C 70% 12.0 mph SW19.3 kmh SW 15.0 mph24.1 kmh 29.50 in999.0 mb 0.00 in0.0 mm 0.00 in0.0 mm 0.24 in6.1 mm
02:54 PM 54.6°F12.6°C 45.0°F7.2°C 70% 11.2 mph SW18.0 kmh SW 13.0 mph20.9 kmh 29.50 in999.0 mb 0.00 in0.0 mm 0.00 in0.0 mm 0.24 in6.1 mm
02:55 PM 54.6°F12.6°C 45.0°F7.2°C 70% 9.5 mph SW15.3 kmh SW 13.0 mph20.9 kmh 29.50 in999.0 mb 0.00 in0.0 mm 0.00 in0.0 mm 0.24 in6.1 mm
02:56 PM 54.6°F12.6°C 45.0°F7.2°C 70% 7.8 mph SW12.6 kmh SW 12.0 mph19.3 kmh 29.50 in999.0 mb 0.00 in0.0 mm 0.00 in0.0 mm 0.24 in6.1 mm
02:57 PM 54.6°F12.6°C 45.0°F7.2°C 70% 8.7 mph SW14.0 kmh SW 11.0 mph17.7 kmh 29.50 in999.0 mb 0.00 in0.0 mm 0.00 in0.0 mm 0.24 in6.1 mm
02:58 PM 54.6°F12.6°C 45.0°F7.2°C 70% 7.4 mph SW11.9 kmh SW 11.0 mph17.7 kmh 29.50 in999.0 mb 0.00 in0.0 mm 0.00 in0.0 mm 0.24 in6.1 mm
02:59 PM 54.6°F12.6°C 45.0°F7.2°C 70% 12.1 mph SW19.5 kmh SW 15.0 mph24.1 kmh 29.50 in999.0 mb 0.00 in0.0 mm 0.00 in0.0 mm 0.24 in6.1 mm
03:00 PM 54.7°F12.6°C 45.5°F7.5°C 71% 12.1 mph SW19.5 kmh SW 16.0 mph25.7 kmh 29.50 in999.0 mb 0.00 in0.0 mm 0.00 in0.0 mm 0.24 in6.1 mm
03:01 PM 54.8°F12.7°C 45.2°F7.3°C 70% 9.9 mph SW15.9 kmh SW 16.0 mph25.7 kmh 29.50 in999.0 mb 0.00 in0.0 mm 0.00 in0.0 mm 0.24 in6.1 mm
03:02 PM 54.8°F12.7°C 45.2°F7.3°C 70% 9.6 mph SW15.4 kmh SW 14.0 mph22.5 kmh 29.50 in999.0 mb 0.00 in0.0 mm 0.00 in0.0 mm 0.24 in6.1 mm
03:03 PM 54.9°F12.7°C 44.9°F7.2°C 69% 12.7 mph SW20.4 kmh SW 15.0 mph24.1 kmh 29.50 in999.0 mb 0.00 in0.0 mm 0.00 in0.0 mm 0.24 in6.1 mm
03:04 PM 54.8°F12.7°C 44.8°F7.1°C 69% 13.7 mph SW22.0 kmh SW 17.0 mph27.4 kmh 29.50 in999.0 mb 0.00 in0.0 mm 0.00 in0.0 mm 0.24 in6.1 mm
03:05 PM 54.7°F12.6°C 44.7°F7.1°C 69% 13.0 mph SW20.9 kmh SW 16.0 mph25.7 kmh 29.50 in999.0 mb 0.00 in0.0 mm 0.00 in0.0 mm 0.24 in6.1 mm
03:06 PM 54.7°F12.6°C 44.7°F7.1°C 69% 12.0 mph SW19.3 kmh SW 14.0 mph22.5 kmh 29.50 in999.0 mb 0.00 in0.0 mm 0.00 in0.0 mm 0.24 in6.1 mm
03:07 PM 54.6°F12.6°C 44.6°F7.0°C 69% 12.0 mph SW19.3 kmh SW 15.0 mph24.1 kmh 29.50 in999.0 mb 0.00 in0.0 mm 0.00 in0.0 mm 0.24 in6.1 mm
03:08 PM 54.7°F12.6°C 44.7°F7.1°C 69% 13.0 mph SW20.9 kmh SW 15.0 mph24.1 kmh 29.50 in999.0 mb 0.00 in0.0 mm 0.00 in0.0 mm 0.24 in6.1 mm
03:09 PM 54.7°F12.6°C 44.7°F7.1°C 69% 12.0 mph SW19.3 kmh SW 14.0 mph22.5 kmh 29.50 in999.0 mb 0.00 in0.0 mm 0.00 in0.0 mm 0.24 in6.1 mm
03:10 PM 54.8°F12.7°C 44.8°F7.1°C 69% 12.0 mph SW19.3 kmh SW 15.0 mph24.1 kmh 29.50 in999.0 mb 0.01 in0.3 mm 0.60 in15.2 mm 0.24 in6.1 mm
03:11 PM 54.8°F12.7°C 44.8°F7.1°C 69% 13.0 mph SW20.9 kmh SW 17.0 mph27.4 kmh 29.50 in999.0 mb 0.01 in0.3 mm 0.00 in0.0 mm 0.24 in6.1 mm
03:12 PM 54.8°F12.7°C 44.8°F7.1°C 69% 10.1 mph SW16.3 kmh SW 13.0 mph20.9 kmh 29.50 in999.0 mb 0.01 in0.3 mm 0.00 in0.0 mm 0.24 in6.1 mm
03:13 PM 54.8°F12.7°C 44.8°F7.1°C 69% 12.4 mph SW20.0 kmh SW 14.0 mph22.5 kmh 29.50 in999.0 mb 0.01 in0.3 mm 0.00 in0.0 mm 0.24 in6.1 mm
03:14 PM 54.8°F12.7°C 44.8°F7.1°C 69% 11.0 mph SW17.7 kmh SW 12.0 mph19.3 kmh 29.50 in999.0 mb 0.01 in0.3 mm 0.00 in0.0 mm 0.24 in6.1 mm
03:15 PM 54.8°F12.7°C 45.2°F7.3°C 70% 8.0 mph SW12.9 kmh SW 10.0 mph16.1 kmh 29.50 in999.0 mb 0.01 in0.3 mm 0.00 in0.0 mm 0.24 in6.1 mm
03:16 PM 54.8°F12.7°C 45.2°F7.3°C 70% 9.0 mph SW14.5 kmh SW 9.0 mph14.5 kmh 29.50 in999.0 mb 0.01 in0.3 mm 0.00 in0.0 mm 0.24 in6.1 mm
03:17 PM 54.9°F12.7°C 45.3°F7.4°C 70% 10.5 mph SW16.9 kmh SW 14.0 mph22.5 kmh 29.50 in999.0 mb 0.01 in0.3 mm 0.00 in0.0 mm 0.24 in6.1 mm
03:18 PM 54.8°F12.7°C 44.8°F7.1°C 69% 9.0 mph SW14.5 kmh SW 12.0 mph19.3 kmh 29.50 in999.0 mb 0.01 in0.3 mm 0.00 in0.0 mm 0.24 in6.1 mm
03:19 PM 54.9°F12.7°C 45.3°F7.4°C 70% 6.0 mph SSW9.7 kmh SSW 9.0 mph14.5 kmh 29.50 in999.0 mb 0.01 in0.3 mm 0.00 in0.0 mm 0.24 in6.1 mm
03:20 PM 54.9°F12.7°C 45.3°F7.4°C 70% 7.6 mph SW12.2 kmh SW 10.0 mph16.1 kmh 29.50 in999.0 mb 0.01 in0.3 mm 0.00 in0.0 mm 0.24 in6.1 mm
03:21 PM 54.9°F12.7°C 45.3°F7.4°C 70% 10.6 mph SW17.1 kmh SW 14.0 mph22.5 kmh 29.50 in999.0 mb 0.01 in0.3 mm 0.00 in0.0 mm 0.24 in6.1 mm
03:22 PM 54.9°F12.7°C 45.3°F7.4°C 70% 13.5 mph SW21.7 kmh SW 16.0 mph25.7 kmh 29.50 in999.0 mb 0.01 in0.3 mm 0.00 in0.0 mm 0.24 in6.1 mm
03:23 PM 54.8°F12.7°C 44.8°F7.1°C 69% 12.1 mph SW19.5 kmh SW 16.0 mph25.7 kmh 29.50 in999.0 mb 0.01 in0.3 mm 0.00 in0.0 mm 0.24 in6.1 mm
03:24 PM 54.7°F12.6°C 45.1°F7.3°C 70% 11.1 mph SW17.9 kmh SW 15.0 mph24.1 kmh 29.50 in999.0 mb 0.01 in0.3 mm 0.00 in0.0 mm 0.24 in6.1 mm
03:25 PM 54.6°F12.6°C 45.0°F7.2°C 70% 10.0 mph SW16.1 kmh SW 13.0 mph20.9 kmh 29.50 in999.0 mb 0.01 in0.3 mm 0.00 in0.0 mm 0.24 in6.1 mm
03:26 PM 54.6°F12.6°C 45.0°F7.2°C 70% 9.0 mph SW14.5 kmh SW 13.0 mph20.9 kmh 29.50 in999.0 mb 0.01 in0.3 mm 0.00 in0.0 mm 0.24 in6.1 mm
03:27 PM 54.5°F12.5°C 44.9°F7.2°C 70% 11.3 mph SW18.2 kmh SW 13.0 mph20.9 kmh 29.50 in999.0 mb 0.01 in0.3 mm 0.00 in0.0 mm 0.24 in6.1 mm
03:28 PM 54.5°F12.5°C 44.9°F7.2°C 70% 11.0 mph SW17.7 kmh SW 15.0 mph24.1 kmh 29.50 in999.0 mb 0.01 in0.3 mm 0.00 in0.0 mm 0.24 in6.1 mm
03:29 PM 54.5°F12.5°C 44.9°F7.2°C 70% 11.0 mph SW17.7 kmh SW 14.0 mph22.5 kmh 29.50 in999.0 mb 0.01 in0.3 mm 0.00 in0.0 mm 0.24 in6.1 mm
03:30 PM 54.5°F12.5°C 45.3°F7.4°C 71% 12.0 mph SW19.3 kmh SW 12.0 mph19.3 kmh 29.50 in999.0 mb 0.01 in0.3 mm 0.00 in0.0 mm 0.24 in6.1 mm
03:31 PM 54.6°F12.6°C 45.4°F7.4°C 71% 11.0 mph SW17.7 kmh SW 12.0 mph19.3 kmh 29.50 in999.0 mb 0.01 in0.3 mm 0.00 in0.0 mm 0.24 in6.1 mm
03:32 PM 54.6°F12.6°C 45.0°F7.2°C 70% 9.0 mph SW14.5 kmh SW 12.0 mph19.3 kmh 29.50 in999.0 mb 0.01 in0.3 mm 0.00 in0.0 mm 0.24 in6.1 mm
03:33 PM 54.5°F12.5°C 44.9°F7.2°C 70% 11.0 mph SW17.7 kmh SW 13.0 mph20.9 kmh 29.50 in999.0 mb 0.01 in0.3 mm 0.00 in0.0 mm 0.24 in6.1 mm
03:34 PM 54.5°F12.5°C 44.9°F7.2°C 70% 11.0 mph SW17.7 kmh SW 13.0 mph20.9 kmh 29.50 in999.0 mb 0.01 in0.3 mm 0.00 in0.0 mm 0.24 in6.1 mm
03:35 PM 54.6°F12.6°C 45.0°F7.2°C 70% 12.7 mph SW20.4 kmh SW 13.0 mph20.9 kmh 29.50 in999.0 mb 0.01 in0.3 mm 0.00 in0.0 mm 0.24 in6.1 mm
03:36 PM 54.5°F12.5°C 44.9°F7.2°C 70% 10.6 mph SW17.1 kmh SW 13.0 mph20.9 kmh 29.50 in999.0 mb 0.01 in0.3 mm 0.00 in0.0 mm 0.24 in6.1 mm
03:37 PM 54.5°F12.5°C 45.3°F7.4°C 71% 10.0 mph SSW16.1 kmh SSW 13.0 mph20.9 kmh 29.50 in999.0 mb 0.01 in0.3 mm 0.00 in0.0 mm 0.24 in6.1 mm
03:38 PM 54.5°F12.5°C 45.3°F7.4°C 71% 9.0 mph SSW14.5 kmh SSW 12.0 mph19.3 kmh 29.50 in999.0 mb 0.01 in0.3 mm 0.00 in0.0 mm 0.24 in6.1 mm
03:39 PM 54.4°F12.4°C 45.2°F7.3°C 71% 8.0 mph SW12.9 kmh SW 11.0 mph17.7 kmh 29.50 in999.0 mb 0.01 in0.3 mm 0.00 in0.0 mm 0.24 in6.1 mm
03:40 PM 54.4°F12.4°C 45.2°F7.3°C 71% 8.0 mph SW12.9 kmh SW 10.0 mph16.1 kmh 29.50 in999.0 mb 0.01 in0.3 mm 0.00 in0.0 mm 0.24 in6.1 mm
03:41 PM 54.4°F12.4°C 45.2°F7.3°C 71% 6.7 mph SW10.8 kmh SW 8.0 mph12.9 kmh 29.50 in999.0 mb 0.01 in0.3 mm 0.00 in0.0 mm 0.24 in6.1 mm
03:42 PM 54.3°F12.4°C 45.1°F7.3°C 71% 7.5 mph SW12.1 kmh SW 10.0 mph16.1 kmh 29.50 in999.0 mb 0.01 in0.3 mm 0.00 in0.0 mm 0.24 in6.1 mm
03:43 PM 54.3°F12.4°C 45.1°F7.3°C 71% 6.8 mph SW10.9 kmh SW 10.0 mph16.1 kmh 29.50 in999.0 mb 0.01 in0.3 mm 0.00 in0.0 mm 0.24 in6.1 mm
03:44 PM 54.3°F12.4°C 45.1°F7.3°C 71% 6.0 mph SW9.7 kmh SW 8.0 mph12.9 kmh 29.50 in999.0 mb 0.01 in0.3 mm 0.00 in0.0 mm 0.24 in6.1 mm
03:45 PM 54.3°F12.4°C 45.1°F7.3°C 71% 7.0 mph SW11.3 kmh SW 9.0 mph14.5 kmh 29.49 in998.6 mb 0.01 in0.3 mm 0.00 in0.0 mm 0.24 in6.1 mm
03:46 PM 54.1°F12.3°C 44.9°F7.2°C 71% 8.5 mph SW13.7 kmh SW 11.0 mph17.7 kmh 29.49 in998.6 mb 0.01 in0.3 mm 0.00 in0.0 mm 0.24 in6.1 mm
03:47 PM 54.1°F12.3°C 44.9°F7.2°C 71% 9.0 mph SW14.5 kmh SW 12.0 mph19.3 kmh 29.50 in999.0 mb 0.01 in0.3 mm 0.00 in0.0 mm 0.24 in6.1 mm
03:48 PM 53.9°F12.2°C 44.7°F7.1°C 71% 7.0 mph SW11.3 kmh SW 10.0 mph16.1 kmh 29.50 in999.0 mb 0.01 in0.3 mm 0.00 in0.0 mm 0.24 in6.1 mm
03:49 PM 53.9°F12.2°C 45.1°F7.3°C 72% 8.7 mph SW14.0 kmh SW 9.0 mph14.5 kmh 29.49 in998.6 mb 0.01 in0.3 mm 0.00 in0.0 mm 0.24 in6.1 mm
03:50 PM 53.8°F12.1°C 45.0°F7.2°C 72% 8.6 mph SW13.8 kmh SW 11.0 mph17.7 kmh 29.49 in998.6 mb 0.01 in0.3 mm 0.00 in0.0 mm 0.24 in6.1 mm
03:51 PM 53.7°F12.1°C 44.9°F7.2°C 72% 7.8 mph SW12.6 kmh SW 11.0 mph17.7 kmh 29.49 in998.6 mb 0.01 in0.3 mm 0.00 in0.0 mm 0.24 in6.1 mm
03:52 PM 53.7°F12.1°C 44.9°F7.2°C 72% 8.5 mph SW13.7 kmh SW 11.0 mph17.7 kmh 29.49 in998.6 mb 0.01 in0.3 mm 0.00 in0.0 mm 0.24 in6.1 mm
03:53 PM 53.7°F12.1°C 44.9°F7.2°C 72% 8.3 mph SW13.4 kmh SW 11.0 mph17.7 kmh 29.49 in998.6 mb 0.01 in0.3 mm 0.00 in0.0 mm 0.24 in6.1 mm
03:54 PM 53.6°F12.0°C 44.8°F7.1°C 72% 8.7 mph SW14.0 kmh SW 10.0 mph16.1 kmh 29.50 in999.0 mb 0.01 in0.3 mm 0.00 in0.0 mm 0.24 in6.1 mm
03:55 PM 53.6°F12.0°C 44.8°F7.1°C 72% 8.0 mph SW12.9 kmh SW 10.0 mph16.1 kmh 29.50 in999.0 mb 0.01 in0.3 mm 0.00 in0.0 mm 0.24 in6.1 mm
03:56 PM 53.6°F12.0°C 44.8°F7.1°C 72% 9.0 mph SW14.5 kmh SW 10.0 mph16.1 kmh 29.50 in999.0 mb 0.01 in0.3 mm 0.00 in0.0 mm 0.24 in6.1 mm
03:57 PM 53.6°F12.0°C 44.8°F7.1°C 72% 7.2 mph SW11.6 kmh SW 9.0 mph14.5 kmh 29.50 in999.0 mb 0.01 in0.3 mm 0.00 in0.0 mm 0.24 in6.1 mm
03:58 PM 53.6°F12.0°C 44.8°F7.1°C 72% 8.8 mph SW14.2 kmh SW 10.0 mph16.1 kmh 29.50 in999.0 mb 0.01 in0.3 mm 0.00 in0.0 mm 0.24 in6.1 mm
03:59 PM 53.6°F12.0°C 44.8°F7.1°C 72% 7.9 mph SW12.7 kmh SW 10.0 mph16.1 kmh 29.50 in999.0 mb 0.01 in0.3 mm 0.00 in0.0 mm 0.24 in6.1 mm
04:00 PM 53.6°F12.0°C 44.8°F7.1°C 72% 6.6 mph SW10.6 kmh SW 10.0 mph16.1 kmh 29.50 in999.0 mb 0.01 in0.3 mm 0.00 in0.0 mm 0.24 in6.1 mm
04:01 PM 53.5°F11.9°C 44.7°F7.1°C 72% 9.0 mph WSW14.5 kmh WSW 11.0 mph17.7 kmh 29.50 in999.0 mb 0.01 in0.3 mm 0.00 in0.0 mm 0.24 in6.1 mm
04:02 PM 53.4°F11.9°C 44.6°F7.0°C 72% 9.0 mph WSW14.5 kmh WSW 11.0 mph17.7 kmh 29.50 in999.0 mb 0.01 in0.3 mm 0.00 in0.0 mm 0.24 in6.1 mm
04:03 PM 53.4°F11.9°C 45.0°F7.2°C 73% 10.0 mph SW16.1 kmh SW 12.0 mph19.3 kmh 29.50 in999.0 mb 0.01 in0.3 mm 0.00 in0.0 mm 0.24 in6.1 mm
04:04 PM 53.3°F11.8°C 44.9°F7.2°C 73% 9.0 mph SW14.5 kmh SW 12.0 mph19.3 kmh 29.50 in999.0 mb 0.01 in0.3 mm 0.00 in0.0 mm 0.24 in6.1 mm
04:05 PM 53.3°F11.8°C 44.9°F7.2°C 73% 9.0 mph SW14.5 kmh SW 11.0 mph17.7 kmh 29.50 in999.0 mb 0.01 in0.3 mm 0.00 in0.0 mm 0.24 in6.1 mm
04:06 PM 53.3°F11.8°C 44.9°F7.2°C 73% 10.0 mph SW16.1 kmh SW 13.0 mph20.9 kmh 29.50 in999.0 mb 0.01 in0.3 mm 0.00 in0.0 mm 0.24 in6.1 mm
04:07 PM 53.4°F11.9°C 45.0°F7.2°C 73% 8.0 mph SW12.9 kmh SW 9.0 mph14.5 kmh 29.50 in999.0 mb 0.01 in0.3 mm 0.00 in0.0 mm 0.24 in6.1 mm
04:08 PM 53.3°F11.8°C 44.9°F7.2°C 73% 7.5 mph SW12.1 kmh SW 9.0 mph14.5 kmh 29.50 in999.0 mb 0.01 in0.3 mm 0.00 in0.0 mm 0.24 in6.1 mm
04:09 PM 53.3°F11.8°C 44.9°F7.2°C 73% 7.6 mph SW12.2 kmh SW 11.0 mph17.7 kmh 29.50 in999.0 mb 0.01 in0.3 mm 0.00 in0.0 mm 0.24 in6.1 mm
04:10 PM 53.2°F11.8°C 44.8°F7.1°C 73% 9.0 mph SW14.5 kmh SW 11.0 mph17.7 kmh 29.50 in999.0 mb 0.00 in0.0 mm 0.00 in0.0 mm 0.24 in6.1 mm
04:11 PM 53.1°F11.7°C 44.7°F7.1°C 73% 8.8 mph SW14.2 kmh SW 11.0 mph17.7 kmh 29.49 in998.6 mb 0.00 in0.0 mm 0.00 in0.0 mm 0.24 in6.1 mm
04:12 PM 53.1°F11.7°C 44.7°F7.1°C 73% 9.3 mph SW15.0 kmh SW 12.0 mph19.3 kmh 29.50 in999.0 mb 0.00 in0.0 mm 0.00 in0.0 mm 0.24 in6.1 mm
04:13 PM 53.2°F11.8°C 45.1°F7.3°C 74% 7.0 mph SW11.3 kmh SW 10.0 mph16.1 kmh 29.49 in998.6 mb 0.00 in0.0 mm 0.00 in0.0 mm 0.24 in6.1 mm
04:14 PM 53.2°F11.8°C 45.1°F7.3°C 74% 7.0 mph SW11.3 kmh SW 9.0 mph14.5 kmh 29.50 in999.0 mb 0.00 in0.0 mm 0.00 in0.0 mm 0.24 in6.1 mm
04:15 PM 53.2°F11.8°C 44.8°F7.1°C 73% 9.5 mph SW15.3 kmh SW 11.0 mph17.7 kmh 29.50 in999.0 mb 0.00 in0.0 mm 0.00 in0.0 mm 0.24 in6.1 mm
04:16 PM 53.3°F11.8°C 44.9°F7.2°C 73% 8.0 mph SW12.9 kmh SW 11.0 mph17.7 kmh 29.50 in999.0 mb 0.00 in0.0 mm 0.00 in0.0 mm 0.24 in6.1 mm
04:17 PM 53.3°F11.8°C 45.2°F7.3°C 74% 6.0 mph SW9.7 kmh SW 7.0 mph11.3 kmh 29.50 in999.0 mb 0.00 in0.0 mm 0.00 in0.0 mm 0.24 in6.1 mm
04:18 PM 53.3°F11.8°C 44.9°F7.2°C 73% 8.0 mph SW12.9 kmh SW 11.0 mph17.7 kmh 29.50 in999.0 mb 0.00 in0.0 mm 0.00 in0.0 mm 0.24 in6.1 mm
04:19 PM 53.3°F11.8°C 44.9°F7.2°C 73% 8.3 mph SW13.4 kmh SW 10.0 mph16.1 kmh 29.50 in999.0 mb 0.00 in0.0 mm 0.00 in0.0 mm 0.24 in6.1 mm
04:20 PM 53.2°F11.8°C 45.1°F7.3°C 74% 8.0 mph SW12.9 kmh SW 10.0 mph16.1 kmh 29.50 in999.0 mb 0.00 in0.0 mm 0.00 in0.0 mm 0.24 in6.1 mm
04:21 PM 53.1°F11.7°C 44.7°F7.1°C 73% 10.0 mph WSW16.1 kmh WSW 12.0 mph19.3 kmh 29.49 in998.6 mb 0.00 in0.0 mm 0.00 in0.0 mm 0.24 in6.1 mm
04:22 PM 53.1°F11.7°C 44.7°F7.1°C 73% 9.2 mph WSW14.8 kmh WSW 10.0 mph16.1 kmh 29.49 in998.6 mb 0.00 in0.0 mm 0.00 in0.0 mm 0.24 in6.1 mm
04:23 PM 52.9°F11.6°C 44.8°F7.1°C 74% 9.0 mph WSW14.5 kmh WSW 10.0 mph16.1 kmh 29.49 in998.6 mb 0.00 in0.0 mm 0.00 in0.0 mm 0.24 in6.1 mm
04:24 PM 52.8°F11.6°C 44.7°F7.1°C 74% 9.0 mph WSW14.5 kmh WSW 10.0 mph16.1 kmh 29.50 in999.0 mb 0.00 in0.0 mm 0.00 in0.0 mm 0.24 in6.1 mm
04:25 PM 52.8°F11.6°C 44.7°F7.1°C 74% 9.0 mph WSW14.5 kmh WSW 11.0 mph17.7 kmh 29.50 in999.0 mb 0.00 in0.0 mm 0.00 in0.0 mm 0.24 in6.1 mm
04:26 PM 52.6°F11.4°C 44.6°F7.0°C 74% 9.0 mph WSW14.5 kmh WSW 10.0 mph16.1 kmh 29.50 in999.0 mb 0.00 in0.0 mm 0.00 in0.0 mm 0.24 in6.1 mm
04:27 PM 52.5°F11.4°C 44.5°F6.9°C 74% 8.0 mph SW12.9 kmh SW 11.0 mph17.7 kmh 29.50 in999.0 mb 0.00 in0.0 mm 0.00 in0.0 mm 0.24 in6.1 mm
04:28 PM 52.5°F11.4°C 44.5°F6.9°C 74% 7.0 mph SW11.3 kmh SW 9.0 mph14.5 kmh 29.50 in999.0 mb 0.00 in0.0 mm 0.00 in0.0 mm 0.24 in6.1 mm
04:29 PM 52.4°F11.3°C 44.7°F7.1°C 75% 8.0 mph SW12.9 kmh SW 9.0 mph14.5 kmh 29.50 in999.0 mb 0.00 in0.0 mm 0.00 in0.0 mm 0.24 in6.1 mm
04:30 PM 52.4°F11.3°C 44.7°F7.1°C 75% 7.0 mph WSW11.3 kmh WSW 8.0 mph12.9 kmh 29.50 in999.0 mb 0.00 in0.0 mm 0.00 in0.0 mm 0.24 in6.1 mm
04:31 PM 52.4°F11.3°C 44.7°F7.1°C 75% 6.0 mph SW9.7 kmh SW 7.0 mph11.3 kmh 29.50 in999.0 mb 0.00 in0.0 mm 0.00 in0.0 mm 0.24 in6.1 mm
04:32 PM 52.4°F11.3°C 44.7°F7.1°C 75% 5.0 mph SW8.0 kmh SW 6.0 mph9.7 kmh 29.50 in999.0 mb 0.00 in0.0 mm 0.00 in0.0 mm 0.24 in6.1 mm
04:33 PM 52.3°F11.3°C 44.6°F7.0°C 75% 6.4 mph SW10.3 kmh SW 8.0 mph12.9 kmh 29.50 in999.0 mb 0.00 in0.0 mm 0.00 in0.0 mm 0.24 in6.1 mm
04:34 PM 52.3°F11.3°C 44.6°F7.0°C 75% 6.1 mph SW9.8 kmh SW 8.0 mph12.9 kmh 29.50 in999.0 mb 0.00 in0.0 mm 0.00 in0.0 mm 0.24 in6.1 mm
04:35 PM 52.3°F11.3°C 45.0°F7.2°C 76% 6.0 mph SW9.7 kmh SW 8.0 mph12.9 kmh 29.50 in999.0 mb 0.00 in0.0 mm 0.00 in0.0 mm 0.24 in6.1 mm
04:36 PM 52.3°F11.3°C 45.0°F7.2°C 76% 7.0 mph SW11.3 kmh SW 8.0 mph12.9 kmh 29.50 in999.0 mb 0.00 in0.0 mm 0.00 in0.0 mm 0.24 in6.1 mm
04:37 PM 52.4°F11.3°C 45.1°F7.3°C 76% 6.0 mph SW9.7 kmh SW 8.0 mph12.9 kmh 29.50 in999.0 mb 0.00 in0.0 mm 0.00 in0.0 mm 0.24 in6.1 mm
04:38 PM 52.4°F11.3°C 45.1°F7.3°C 76% 6.0 mph SW9.7 kmh SW 8.0 mph12.9 kmh 29.50 in999.0 mb 0.00 in0.0 mm 0.00 in0.0 mm 0.24 in6.1 mm
04:39 PM 52.3°F11.3°C 44.6°F7.0°C 75% 7.9 mph SW12.7 kmh SW 11.0 mph17.7 kmh 29.50 in999.0 mb 0.00 in0.0 mm 0.00 in0.0 mm 0.24 in6.1 mm
04:40 PM 52.3°F11.3°C 45.0°F7.2°C 76% 6.5 mph SW10.5 kmh SW 11.0 mph17.7 kmh 29.50 in999.0 mb 0.00 in0.0 mm 0.00 in0.0 mm 0.24 in6.1 mm
04:41 PM 52.4°F11.3°C 45.1°F7.3°C 76% 6.0 mph SW9.7 kmh SW 7.0 mph11.3 kmh 29.50 in999.0 mb 0.00 in0.0 mm 0.00 in0.0 mm 0.24 in6.1 mm
04:42 PM 52.4°F11.3°C 45.1°F7.3°C 76% 7.0 mph SW11.3 kmh SW 9.0 mph14.5 kmh 29.50 in999.0 mb 0.00 in0.0 mm 0.00 in0.0 mm 0.24 in6.1 mm
04:43 PM 52.4°F11.3°C 45.1°F7.3°C 76% 6.5 mph WSW10.5 kmh WSW 8.0 mph12.9 kmh 29.50 in999.0 mb 0.00 in0.0 mm 0.00 in0.0 mm 0.24 in6.1 mm
04:44 PM 52.4°F11.3°C 45.1°F7.3°C 76% 5.8 mph SW9.3 kmh SW 8.0 mph12.9 kmh 29.50 in999.0 mb 0.00 in0.0 mm 0.00 in0.0 mm 0.24 in6.1 mm
04:45 PM 52.4°F11.3°C 45.1°F7.3°C 76% 7.1 mph SW11.4 kmh SW 10.0 mph16.1 kmh 29.50 in999.0 mb 0.00 in0.0 mm 0.00 in0.0 mm 0.24 in6.1 mm
04:46 PM 52.4°F11.3°C 45.1°F7.3°C 76% 6.1 mph SSW9.8 kmh SSW 10.0 mph16.1 kmh 29.50 in999.0 mb 0.00 in0.0 mm 0.00 in0.0 mm 0.24 in6.1 mm
04:47 PM 52.5°F11.4°C 45.5°F7.5°C 77% 7.0 mph SW11.3 kmh SW 10.0 mph16.1 kmh 29.50 in999.0 mb 0.00 in0.0 mm 0.00 in0.0 mm 0.24 in6.1 mm
04:48 PM 52.6°F11.4°C 45.6°F7.6°C 77% 8.0 mph SSW12.9 kmh SSW 11.0 mph17.7 kmh 29.50 in999.0 mb 0.00 in0.0 mm 0.00 in0.0 mm 0.24 in6.1 mm
04:49 PM 52.6°F11.4°C 45.6°F7.6°C 77% 8.9 mph SSW14.3 kmh SSW 10.0 mph16.1 kmh 29.50 in999.0 mb 0.00 in0.0 mm 0.00 in0.0 mm 0.24 in6.1 mm
04:50 PM 52.6°F11.4°C 45.9°F7.7°C 78% 7.7 mph SSW12.4 kmh SSW 10.0 mph16.1 kmh 29.50 in999.0 mb 0.00 in0.0 mm 0.00 in0.0 mm 0.24 in6.1 mm
04:51 PM 52.7°F11.5°C 46.0°F7.8°C 78% 7.0 mph S11.3 kmh S 10.0 mph16.1 kmh 29.50 in999.0 mb 0.00 in0.0 mm 0.00 in0.0 mm 0.24 in6.1 mm
04:52 PM 52.7°F11.5°C 46.0°F7.8°C 78% 8.3 mph SSW13.4 kmh SSW 11.0 mph17.7 kmh 29.50 in999.0 mb 0.00 in0.0 mm 0.00 in0.0 mm 0.24 in6.1 mm
04:53 PM 52.7°F11.5°C 46.4°F8.0°C 79% 13.0 mph SSW20.9 kmh SSW 17.0 mph27.4 kmh 29.50 in999.0 mb 0.00 in0.0 mm 0.00 in0.0 mm 0.24 in6.1 mm
04:54 PM 52.6°F11.4°C 45.9°F7.7°C 78% 13.0 mph SSW20.9 kmh SSW 16.0 mph25.7 kmh 29.50 in999.0 mb 0.00 in0.0 mm 0.00 in0.0 mm 0.24 in6.1 mm
04:55 PM 52.3°F11.3°C 45.6°F7.6°C 78% 14.0 mph SW22.5 kmh SW 14.0 mph22.5 kmh 29.50 in999.0 mb 0.00 in0.0 mm 0.00 in0.0 mm 0.24 in6.1 mm
04:56 PM 51.9°F11.1°C 45.3°F7.4°C 78% 11.0 mph SW17.7 kmh SW 14.0 mph22.5 kmh 29.50 in999.0 mb 0.00 in0.0 mm 0.00 in0.0 mm 0.24 in6.1 mm
04:57 PM 51.6°F10.9°C 45.0°F7.2°C 78% 13.0 mph SW20.9 kmh SW 15.0 mph24.1 kmh 29.50 in999.0 mb 0.00 in0.0 mm 0.00 in0.0 mm 0.24 in6.1 mm
04:58 PM 51.3°F10.7°C 44.7°F7.1°C 78% 13.0 mph WSW20.9 kmh WSW 15.0 mph24.1 kmh 29.50 in999.0 mb 0.00 in0.0 mm 0.00 in0.0 mm 0.24 in6.1 mm
04:59 PM 51.0°F10.6°C 44.7°F7.1°C 79% 13.3 mph SW21.4 kmh SW 15.0 mph24.1 kmh 29.50 in999.0 mb 0.00 in0.0 mm 0.00 in0.0 mm 0.24 in6.1 mm
05:00 PM 50.7°F10.4°C 44.4°F6.9°C 79% 12.0 mph WSW19.3 kmh WSW 13.0 mph20.9 kmh 29.50 in999.0 mb 0.00 in0.0 mm 0.00 in0.0 mm 0.24 in6.1 mm
05:01 PM 50.4°F10.2°C 44.1°F6.7°C 79% 12.0 mph WSW19.3 kmh WSW 12.0 mph19.3 kmh 29.50 in999.0 mb 0.00 in0.0 mm 0.00 in0.0 mm 0.24 in6.1 mm
05:02 PM 50.2°F10.1°C 43.9°F6.6°C 79% 11.0 mph WSW17.7 kmh WSW 12.0 mph19.3 kmh 29.50 in999.0 mb 0.00 in0.0 mm 0.00 in0.0 mm 0.24 in6.1 mm
05:03 PM 49.9°F9.9°C 44.0°F6.7°C 80% 11.0 mph WSW17.7 kmh WSW 12.0 mph19.3 kmh 29.50 in999.0 mb 0.00 in0.0 mm 0.00 in0.0 mm 0.24 in6.1 mm
05:04 PM 49.7°F9.8°C 44.1°F6.7°C 81% 10.8 mph SW17.4 kmh SW 11.0 mph17.7 kmh 29.50 in999.0 mb 0.00 in0.0 mm 0.00 in0.0 mm 0.24 in6.1 mm
05:05 PM 49.6°F9.8°C 44.3°F6.8°C 82% 10.6 mph SW17.1 kmh SW 12.0 mph19.3 kmh 29.51 in999.3 mb 0.00 in0.0 mm 0.00 in0.0 mm 0.24 in6.1 mm
05:06 PM 49.4°F9.7°C 44.1°F6.7°C 82% 11.0 mph SW17.7 kmh SW 13.0 mph20.9 kmh 29.51 in999.3 mb 0.00 in0.0 mm 0.00 in0.0 mm 0.24 in6.1 mm
05:07 PM 49.4°F9.7°C 44.1°F6.7°C 82% 11.0 mph SW17.7 kmh SW 13.0 mph20.9 kmh 29.51 in999.3 mb 0.00 in0.0 mm 0.00 in0.0 mm 0.24 in6.1 mm
05:08 PM 49.4°F9.7°C 44.5°F6.9°C 83% 11.7 mph SW18.8 kmh SW 12.0 mph19.3 kmh 29.51 in999.3 mb 0.00 in0.0 mm 0.00 in0.0 mm 0.24 in6.1 mm
05:09 PM 49.4°F9.7°C 44.5°F6.9°C 83% 9.8 mph SW15.8 kmh SW 12.0 mph19.3 kmh 29.51 in999.3 mb 0.00 in0.0 mm 0.00 in0.0 mm 0.24 in6.1 mm
05:10 PM 49.3°F9.6°C 44.4°F6.9°C 83% 10.0 mph SW16.1 kmh SW 12.0 mph19.3 kmh 29.51 in999.3 mb 0.00 in0.0 mm 0.00 in0.0 mm 0.24 in6.1 mm
05:11 PM 49.3°F9.6°C 44.7°F7.1°C 84% 10.0 mph SW16.1 kmh SW 12.0 mph19.3 kmh 29.51 in999.3 mb 0.00 in0.0 mm 0.00 in0.0 mm 0.24 in6.1 mm
05:12 PM 49.3°F9.6°C 44.7°F7.1°C 84% 10.1 mph SW16.3 kmh SW 12.0 mph19.3 kmh 29.51 in999.3 mb 0.00 in0.0 mm 0.00 in0.0 mm 0.24 in6.1 mm
05:13 PM 49.3°F9.6°C 44.7°F7.1°C 84% 8.3 mph SW13.4 kmh SW 12.0 mph19.3 kmh 29.51 in999.3 mb 0.00 in0.0 mm 0.00 in0.0 mm 0.24 in6.1 mm
05:14 PM 49.4°F9.7°C 44.8°F7.1°C 84% 7.7 mph SW12.4 kmh SW 10.0 mph16.1 kmh 29.51 in999.3 mb 0.00 in0.0 mm 0.00 in0.0 mm 0.24 in6.1 mm
05:15 PM 49.5°F9.7°C 45.2°F7.3°C 85% 8.6 mph SW13.8 kmh SW 11.0 mph17.7 kmh 29.51 in999.3 mb 0.00 in0.0 mm 0.00 in0.0 mm 0.24 in6.1 mm
05:16 PM 49.6°F9.8°C 45.0°F7.2°C 84% 7.0 mph SW11.3 kmh SW 11.0 mph17.7 kmh 29.51 in999.3 mb 0.00 in0.0 mm 0.00 in0.0 mm 0.24 in6.1 mm
05:17 PM 49.6°F9.8°C 45.0°F7.2°C 84% 7.0 mph SW11.3 kmh SW 10.0 mph16.1 kmh 29.51 in999.3 mb 0.00 in0.0 mm 0.00 in0.0 mm 0.24 in6.1 mm
05:18 PM 49.6°F9.8°C 45.3°F7.4°C 85% 6.0 mph SW9.7 kmh SW 8.0 mph12.9 kmh 29.51 in999.3 mb 0.00 in0.0 mm 0.00 in0.0 mm 0.24 in6.1 mm
05:19 PM 49.7°F9.8°C 45.4°F7.4°C 85% 10.4 mph SW16.7 kmh SW 12.0 mph19.3 kmh 29.51 in999.3 mb 0.00 in0.0 mm 0.00 in0.0 mm 0.24 in6.1 mm
05:20 PM 49.7°F9.8°C 45.4°F7.4°C 85% 7.0 mph SW11.3 kmh SW 9.0 mph14.5 kmh 29.51 in999.3 mb 0.00 in0.0 mm 0.00 in0.0 mm 0.24 in6.1 mm
05:21 PM 49.8°F9.9°C 45.2°F7.3°C 84% 10.0 mph SW16.1 kmh SW 13.0 mph20.9 kmh 29.51 in999.3 mb 0.00 in0.0 mm 0.00 in0.0 mm 0.24 in6.1 mm
05:22 PM 49.9°F9.9°C 45.3°F7.4°C 84% 8.0 mph SSW12.9 kmh SSW 11.0 mph17.7 kmh 29.51 in999.3 mb 0.00 in0.0 mm 0.00 in0.0 mm 0.24 in6.1 mm
05:23 PM 50.0°F10.0°C 45.4°F7.4°C 84% 8.0 mph SSW12.9 kmh SSW 11.0 mph17.7 kmh 29.51 in999.3 mb 0.00 in0.0 mm 0.00 in0.0 mm 0.24 in6.1 mm
05:24 PM 50.1°F10.1°C 45.5°F7.5°C 84% 8.0 mph SSW12.9 kmh SSW 10.0 mph16.1 kmh 29.51 in999.3 mb 0.00 in0.0 mm 0.00 in0.0 mm 0.24 in6.1 mm
05:25 PM 50.2°F10.1°C 45.2°F7.3°C 83% 6.7 mph SSW10.8 kmh SSW 9.0 mph14.5 kmh 29.51 in999.3 mb 0.00 in0.0 mm 0.00 in0.0 mm 0.24 in6.1 mm
05:26 PM 50.2°F10.1°C 45.2°F7.3°C 83% 6.5 mph S10.5 kmh S 9.0 mph14.5 kmh 29.51 in999.3 mb 0.00 in0.0 mm 0.00 in0.0 mm 0.24 in6.1 mm
05:27 PM 50.3°F10.2°C 45.3°F7.4°C 83% 6.2 mph SW10.0 kmh SW 9.0 mph14.5 kmh 29.51 in999.3 mb 0.00 in0.0 mm 0.00 in0.0 mm 0.24 in6.1 mm
05:28 PM 50.3°F10.2°C 45.3°F7.4°C 83% 6.0 mph SW9.7 kmh SW 8.0 mph12.9 kmh 29.51 in999.3 mb 0.00 in0.0 mm 0.00 in0.0 mm 0.24 in6.1 mm
05:29 PM 50.4°F10.2°C 45.1°F7.3°C 82% 7.0 mph SSW11.3 kmh SSW 13.0 mph20.9 kmh 29.51 in999.3 mb 0.00 in0.0 mm 0.00 in0.0 mm 0.24 in6.1 mm
05:30 PM 50.4°F10.2°C 45.4°F7.4°C 83% 9.3 mph SSW15.0 kmh SSW 12.0 mph19.3 kmh 29.51 in999.3 mb 0.00 in0.0 mm 0.00 in0.0 mm 0.24 in6.1 mm
05:31 PM 50.4°F10.2°C 45.1°F7.3°C 82% 9.0 mph SW14.5 kmh SW 12.0 mph19.3 kmh 29.51 in999.3 mb 0.00 in0.0 mm 0.00 in0.0 mm 0.24 in6.1 mm
05:32 PM 50.4°F10.2°C 45.1°F7.3°C 82% 7.0 mph SW11.3 kmh SW 8.0 mph12.9 kmh 29.51 in999.3 mb 0.00 in0.0 mm 0.00 in0.0 mm 0.24 in6.1 mm
05:33 PM 50.4°F10.2°C 45.1°F7.3°C 82% 9.0 mph SSW14.5 kmh SSW 10.0 mph16.1 kmh 29.50 in999.0 mb 0.00 in0.0 mm 0.00 in0.0 mm 0.24 in6.1 mm
05:34 PM 50.3°F10.2°C 45.0°F7.2°C 82% 5.6 mph SW9.0 kmh SW 6.0 mph9.7 kmh 29.51 in999.3 mb 0.00 in0.0 mm 0.00 in0.0 mm 0.24 in6.1 mm
05:35 PM 50.3°F10.2°C 44.7°F7.1°C 81% 6.7 mph SW10.8 kmh SW 9.0 mph14.5 kmh 29.50 in999.0 mb 0.00 in0.0 mm 0.00 in0.0 mm 0.24 in6.1 mm
05:36 PM 50.2°F10.1°C 44.6°F7.0°C 81% 6.5 mph SW10.5 kmh SW 9.0 mph14.5 kmh 29.50 in999.0 mb 0.00 in0.0 mm 0.00 in0.0 mm 0.24 in6.1 mm
05:37 PM 50.1°F10.1°C 44.8°F7.1°C 82% 7.4 mph SW11.9 kmh SW 10.0 mph16.1 kmh 29.50 in999.0 mb 0.00 in0.0 mm 0.00 in0.0 mm 0.24 in6.1 mm
05:38 PM 50.1°F10.1°C 44.8°F7.1°C 82% 7.0 mph SW11.3 kmh SW 9.0 mph14.5 kmh 29.50 in999.0 mb 0.00 in0.0 mm 0.00 in0.0 mm 0.24 in6.1 mm
05:39 PM 50.0°F10.0°C 44.7°F7.1°C 82% 9.0 mph SW14.5 kmh SW 10.0 mph16.1 kmh 29.50 in999.0 mb 0.00 in0.0 mm 0.00 in0.0 mm 0.24 in6.1 mm
05:40 PM 50.0°F10.0°C 44.7°F7.1°C 82% 8.0 mph S12.9 kmh S 11.0 mph17.7 kmh 29.50 in999.0 mb 0.00 in0.0 mm 0.00 in0.0 mm 0.24 in6.1 mm
05:41 PM 50.0°F10.0°C 44.7°F7.1°C 82% 6.3 mph SSW10.1 kmh SSW 8.0 mph12.9 kmh 29.50 in999.0 mb 0.00 in0.0 mm 0.00 in0.0 mm 0.24 in6.1 mm
05:42 PM 49.9°F9.9°C 44.6°F7.0°C 82% 8.8 mph SSW14.2 kmh SSW 10.0 mph16.1 kmh 29.50 in999.0 mb 0.00 in0.0 mm 0.00 in0.0 mm 0.24 in6.1 mm
05:43 PM 49.9°F9.9°C 44.6°F7.0°C 82% 6.9 mph SSW11.1 kmh SSW 10.0 mph16.1 kmh 29.50 in999.0 mb 0.00 in0.0 mm 0.00 in0.0 mm 0.24 in6.1 mm
05:44 PM 49.9°F9.9°C 44.6°F7.0°C 82% 6.3 mph SW10.1 kmh SW 8.0 mph12.9 kmh 29.50 in999.0 mb 0.00 in0.0 mm 0.00 in0.0 mm 0.24 in6.1 mm
05:45 PM 50.0°F10.0°C 44.7°F7.1°C 82% 6.4 mph SSW10.3 kmh SSW 11.0 mph17.7 kmh 29.50 in999.0 mb 0.00 in0.0 mm 0.00 in0.0 mm 0.24 in6.1 mm
05:46 PM 50.0°F10.0°C 44.4°F6.9°C 81% 8.0 mph SSW12.9 kmh SSW 10.0 mph16.1 kmh 29.50 in999.0 mb 0.00 in0.0 mm 0.00 in0.0 mm 0.24 in6.1 mm
05:47 PM 49.9°F9.9°C 44.3°F6.8°C 81% 8.0 mph SSW12.9 kmh SSW 10.0 mph16.1 kmh 29.50 in999.0 mb 0.00 in0.0 mm 0.00 in0.0 mm 0.24 in6.1 mm
05:48 PM 49.9°F9.9°C 44.3°F6.8°C 81% 5.0 mph SSW8.0 kmh SSW 7.0 mph11.3 kmh 29.50 in999.0 mb 0.00 in0.0 mm 0.00 in0.0 mm 0.24 in6.1 mm
05:49 PM 50.0°F10.0°C 44.4°F6.9°C 81% 7.0 mph SSW11.3 kmh SSW 9.0 mph14.5 kmh 29.50 in999.0 mb 0.00 in0.0 mm 0.00 in0.0 mm 0.24 in6.1 mm
05:50 PM 49.9°F9.9°C 44.3°F6.8°C 81% 7.0 mph SSW11.3 kmh SSW 9.0 mph14.5 kmh 29.50 in999.0 mb 0.00 in0.0 mm 0.00 in0.0 mm 0.24 in6.1 mm
05:51 PM 49.9°F9.9°C 44.3°F6.8°C 81% 4.9 mph SSW7.9 kmh SSW 5.0 mph8.0 kmh 29.50 in999.0 mb 0.00 in0.0 mm 0.00 in0.0 mm 0.24 in6.1 mm
05:52 PM 50.0°F10.0°C 44.4°F6.9°C 81% 4.0 mph SSW6.4 kmh SSW 6.0 mph9.7 kmh 29.50 in999.0 mb 0.00 in0.0 mm 0.00 in0.0 mm 0.24 in6.1 mm
05:53 PM 50.0°F10.0°C 44.4°F6.9°C 81% 7.0 mph S11.3 kmh S 9.0 mph14.5 kmh 29.50 in999.0 mb 0.00 in0.0 mm 0.00 in0.0 mm 0.24 in6.1 mm
05:54 PM 50.0°F10.0°C 44.4°F6.9°C 81% 3.0 mph SSW4.8 kmh SSW 4.0 mph6.4 kmh 29.50 in999.0 mb 0.00 in0.0 mm 0.00 in0.0 mm 0.24 in6.1 mm
05:55 PM 50.1°F10.1°C 44.5°F6.9°C 81% 3.3 mph SSW5.3 kmh SSW 5.0 mph8.0 kmh 29.50 in999.0 mb 0.00 in0.0 mm 0.00 in0.0 mm 0.24 in6.1 mm
05:56 PM 50.1°F10.1°C 44.5°F6.9°C 81% 3.9 mph SSW6.3 kmh SSW 6.0 mph9.7 kmh 29.50 in999.0 mb 0.00 in0.0 mm 0.00 in0.0 mm 0.24 in6.1 mm
05:57 PM 50.1°F10.1°C 44.5°F6.9°C 81% 4.8 mph S7.7 kmh S 6.0 mph9.7 kmh 29.50 in999.0 mb 0.00 in0.0 mm 0.00 in0.0 mm 0.24 in6.1 mm
05:58 PM 50.0°F10.0°C 44.4°F6.9°C 81% 5.0 mph SSW8.0 kmh SSW 6.0 mph9.7 kmh 29.50 in999.0 mb 0.00 in0.0 mm 0.00 in0.0 mm 0.24 in6.1 mm
05:59 PM 50.0°F10.0°C 44.4°F6.9°C 81% 4.0 mph SSW6.4 kmh SSW 6.0 mph9.7 kmh 29.50 in999.0 mb 0.00 in0.0 mm 0.00 in0.0 mm 0.24 in6.1 mm
06:00 PM 50.0°F10.0°C 44.4°F6.9°C 81% 4.0 mph SSW6.4 kmh SSW 7.0 mph11.3 kmh 29.50 in999.0 mb 0.00 in0.0 mm 0.00 in0.0 mm 0.24 in6.1 mm
06:01 PM 50.0°F10.0°C 44.4°F6.9°C 81% 4.0 mph SSW6.4 kmh SSW 5.0 mph8.0 kmh 29.50 in999.0 mb 0.00 in0.0 mm 0.00 in0.0 mm 0.24 in6.1 mm
06:02 PM 50.0°F10.0°C 44.4°F6.9°C 81% 2.8 mph SW4.5 kmh SW 5.0 mph8.0 kmh 29.50 in999.0 mb 0.00 in0.0 mm 0.00 in0.0 mm 0.24 in6.1 mm
06:03 PM 50.0°F10.0°C 44.4°F6.9°C 81% 3.0 mph SSW4.8 kmh SSW 4.0 mph6.4 kmh 29.50 in999.0 mb 0.00 in0.0 mm 0.00 in0.0 mm 0.24 in6.1 mm
06:04 PM 50.0°F10.0°C 44.4°F6.9°C 81% 2.0 mph S3.2 kmh S 3.0 mph4.8 kmh 29.50 in999.0 mb 0.00 in0.0 mm 0.00 in0.0 mm 0.24 in6.1 mm
06:05 PM 50.0°F10.0°C 44.4°F6.9°C 81% 2.6 mph S4.2 kmh S 3.0 mph4.8 kmh 29.50 in999.0 mb 0.00 in0.0 mm 0.00 in0.0 mm 0.24 in6.1 mm
06:06 PM 50.0°F10.0°C 44.4°F6.9°C 81% 4.0 mph S6.4 kmh S 5.0 mph8.0 kmh 29.50 in999.0 mb 0.00 in0.0 mm 0.00 in0.0 mm 0.24 in6.1 mm
06:07 PM 50.0°F10.0°C 44.4°F6.9°C 81% 3.0 mph SSW4.8 kmh SSW 5.0 mph8.0 kmh 29.50 in999.0 mb 0.00 in0.0 mm 0.00 in0.0 mm 0.24 in6.1 mm
06:08 PM 50.0°F10.0°C 44.4°F6.9°C 81% 4.0 mph SSW6.4 kmh SSW 6.0 mph9.7 kmh 29.50 in999.0 mb 0.00 in0.0 mm 0.00 in0.0 mm 0.24 in6.1 mm
06:09 PM 50.0°F10.0°C 44.4°F6.9°C 81% 3.4 mph SW5.5 kmh SW 4.0 mph6.4 kmh 29.50 in999.0 mb 0.00 in0.0 mm 0.00 in0.0 mm 0.24 in6.1 mm
06:10 PM 50.0°F10.0°C 44.4°F6.9°C 81% 3.5 mph SW5.6 kmh SW 5.0 mph8.0 kmh 29.50 in999.0 mb 0.00 in0.0 mm 0.00 in0.0 mm 0.24 in6.1 mm
06:11 PM 50.0°F10.0°C 44.4°F6.9°C 81% 2.0 mph SSW3.2 kmh SSW 4.0 mph6.4 kmh 29.50 in999.0 mb 0.00 in0.0 mm 0.00 in0.0 mm 0.24 in6.1 mm
06:12 PM 50.0°F10.0°C 44.4°F6.9°C 81% 3.0 mph SSW4.8 kmh SSW 3.0 mph4.8 kmh 29.50 in999.0 mb 0.00 in0.0 mm 0.00 in0.0 mm 0.24 in6.1 mm
06:13 PM 50.0°F10.0°C 44.4°F6.9°C 81% 2.1 mph SW3.4 kmh SW 3.0 mph4.8 kmh 29.50 in999.0 mb 0.00 in0.0 mm 0.00 in0.0 mm 0.24 in6.1 mm
06:14 PM 49.9°F9.9°C 44.3°F6.8°C 81% 1.9 mph SW3.1 kmh SW 3.0 mph4.8 kmh 29.50 in999.0 mb 0.00 in0.0 mm 0.00 in0.0 mm 0.24 in6.1 mm
06:15 PM 49.9°F9.9°C 44.3°F6.8°C 81% 2.0 mph SSW3.2 kmh SSW 3.0 mph4.8 kmh 29.50 in999.0 mb 0.00 in0.0 mm 0.00 in0.0 mm 0.24 in6.1 mm
06:16 PM 49.9°F9.9°C 44.3°F6.8°C 81% 3.0 mph SSW4.8 kmh SSW 5.0 mph8.0 kmh 29.50 in999.0 mb 0.00 in0.0 mm 0.00 in0.0 mm 0.24 in6.1 mm
06:17 PM 49.9°F9.9°C 44.3°F6.8°C 81% 2.9 mph SW4.7 kmh SW 3.0 mph4.8 kmh 29.50 in999.0 mb 0.00 in0.0 mm 0.00 in0.0 mm 0.24 in6.1 mm
06:18 PM 49.9°F9.9°C 44.3°F6.8°C 81% 2.6 mph SW4.2 kmh SW 4.0 mph6.4 kmh 29.50 in999.0 mb 0.00 in0.0 mm 0.00 in0.0 mm 0.24 in6.1 mm
06:19 PM 49.9°F9.9°C 44.3°F6.8°C 81% 2.9 mph SW4.7 kmh SW 4.0 mph6.4 kmh 29.50 in999.0 mb 0.00 in0.0 mm 0.00 in0.0 mm 0.24 in6.1 mm
06:20 PM 49.9°F9.9°C 44.3°F6.8°C 81% 3.0 mph SSW4.8 kmh SSW 4.0 mph6.4 kmh 29.50 in999.0 mb 0.00 in0.0 mm 0.00 in0.0 mm 0.24 in6.1 mm
06:21 PM 49.8°F9.9°C 44.2°F6.8°C 81% 2.0 mph SSW3.2 kmh SSW 4.0 mph6.4 kmh 29.50 in999.0 mb 0.00 in0.0 mm 0.00 in0.0 mm 0.24 in6.1 mm
06:22 PM 49.9°F9.9°C 44.6°F7.0°C 82% 1.7 mph SW2.7 kmh SW 2.0 mph3.2 kmh 29.50 in999.0 mb 0.00 in0.0 mm 0.00 in0.0 mm 0.24 in6.1 mm
06:23 PM 49.8°F9.9°C 44.5°F6.9°C 82% 1.6 mph SW2.6 kmh SW 2.0 mph3.2 kmh 29.50 in999.0 mb 0.00 in0.0 mm 0.00 in0.0 mm 0.24 in6.1 mm
06:24 PM 49.8°F9.9°C 44.5°F6.9°C 82% 2.0 mph SSW3.2 kmh SSW 4.0 mph6.4 kmh 29.50 in999.0 mb 0.00 in0.0 mm 0.00 in0.0 mm 0.24 in6.1 mm
06:25 PM 49.7°F9.8°C 44.4°F6.9°C 82% 1.0 mph SSW1.6 kmh SSW 2.0 mph3.2 kmh 29.50 in999.0 mb 0.00 in0.0 mm 0.00 in0.0 mm 0.24 in6.1 mm
06:26 PM 49.7°F9.8°C 44.4°F6.9°C 82% 1.2 mph SW1.9 kmh SW 2.0 mph3.2 kmh 29.50 in999.0 mb 0.00 in0.0 mm 0.00 in0.0 mm 0.24 in6.1 mm
06:27 PM 49.7°F9.8°C 44.4°F6.9°C 82% 2.0 mph SW3.2 kmh SW 3.0 mph4.8 kmh 29.50 in999.0 mb 0.00 in0.0 mm 0.00 in0.0 mm 0.24 in6.1 mm
06:28 PM 49.6°F9.8°C 44.3°F6.8°C 82% 1.7 mph SW2.7 kmh SW 3.0 mph4.8 kmh 29.50 in999.0 mb 0.00 in0.0 mm 0.00 in0.0 mm 0.24 in6.1 mm
06:29 PM 49.7°F9.8°C 44.4°F6.9°C 82% 2.5 mph SW4.0 kmh SW 4.0 mph6.4 kmh 29.50 in999.0 mb 0.00 in0.0 mm 0.00 in0.0 mm 0.24 in6.1 mm
06:30 PM 49.6°F9.8°C 44.3°F6.8°C 82% 2.8 mph SW4.5 kmh SW 4.0 mph6.4 kmh 29.50 in999.0 mb 0.00 in0.0 mm 0.00 in0.0 mm 0.24 in6.1 mm
06:31 PM 49.6°F9.8°C 44.3°F6.8°C 82% 3.0 mph SSW4.8 kmh SSW 4.0 mph6.4 kmh 29.50 in999.0 mb 0.00 in0.0 mm 0.00 in0.0 mm 0.24 in6.1 mm
06:32 PM 49.6°F9.8°C 44.3°F6.8°C 82% 3.0 mph SSW4.8 kmh SSW 4.0 mph6.4 kmh 29.50 in999.0 mb 0.00 in0.0 mm 0.00 in0.0 mm 0.24 in6.1 mm
06:33 PM 49.5°F9.7°C 44.2°F6.8°C 82% 2.0 mph SW3.2 kmh SW 2.0 mph3.2 kmh 29.50 in999.0 mb 0.00 in0.0 mm 0.00 in0.0 mm 0.24 in6.1 mm
06:34 PM 49.5°F9.7°C 44.2°F6.8°C 82% 2.5 mph SW4.0 kmh SW 3.0 mph4.8 kmh 29.50 in999.0 mb 0.00 in0.0 mm 0.00 in0.0 mm 0.24 in6.1 mm
06:35 PM 49.5°F9.7°C 44.2°F6.8°C 82% 2.9 mph SW4.7 kmh SW 4.0 mph6.4 kmh 29.50 in999.0 mb 0.00 in0.0 mm 0.00 in0.0 mm 0.24 in6.1 mm
06:36 PM 49.5°F9.7°C 44.2°F6.8°C 82% 3.0 mph SSW4.8 kmh SSW 4.0 mph6.4 kmh 29.50 in999.0 mb 0.00 in0.0 mm 0.00 in0.0 mm 0.24 in6.1 mm
06:37 PM 49.4°F9.7°C 44.1°F6.7°C 82% 2.0 mph SSW3.2 kmh SSW 3.0 mph4.8 kmh 29.50 in999.0 mb 0.00 in0.0 mm 0.00 in0.0 mm 0.24 in6.1 mm
06:38 PM 49.4°F9.7°C 44.1°F6.7°C 82% 1.2 mph SW1.9 kmh SW 2.0 mph3.2 kmh 29.50 in999.0 mb 0.00 in0.0 mm 0.00 in0.0 mm 0.24 in6.1 mm
06:39 PM 49.4°F9.7°C 44.1°F6.7°C 82% 2.1 mph SW3.4 kmh SW 3.0 mph4.8 kmh 29.50 in999.0 mb 0.00 in0.0 mm 0.00 in0.0 mm 0.24 in6.1 mm
06:40 PM 49.3°F9.6°C 44.0°F6.7°C 82% 2.0 mph SW3.2 kmh SW 3.0 mph4.8 kmh 29.50 in999.0 mb 0.00 in0.0 mm 0.00 in0.0 mm 0.24 in6.1 mm
06:41 PM 49.2°F9.6°C 43.6°F6.4°C 81% 0.8 mph SW1.3 kmh SW 3.0 mph4.8 kmh 29.50 in999.0 mb 0.00 in0.0 mm 0.00 in0.0 mm 0.24 in6.1 mm
06:42 PM 49.0°F9.4°C 43.4°F6.3°C 81% 0.7 mph SW1.1 kmh SW 2.0 mph3.2 kmh 29.50 in999.0 mb 0.00 in0.0 mm 0.00 in0.0 mm 0.24 in6.1 mm
06:43 PM 48.7°F9.3°C 42.8°F6.0°C 80% Calm Calm 1.0 mph1.6 kmh 29.50 in999.0 mb 0.00 in0.0 mm 0.00 in0.0 mm 0.24 in6.1 mm
06:44 PM 48.4°F9.1°C 42.5°F5.8°C 80% Calm Calm 1.0 mph1.6 kmh 29.50 in999.0 mb 0.00 in0.0 mm 0.00 in0.0 mm 0.24 in6.1 mm
06:45 PM 48.2°F9.0°C 42.0°F5.6°C 79% Calm Calm 1.0 mph1.6 kmh 29.50 in999.0 mb 0.00 in0.0 mm 0.00 in0.0 mm 0.24 in6.1 mm
06:46 PM 48.0°F8.9°C 42.1°F5.6°C 80% 0.1 mph SW0.2 kmh SW 1.0 mph1.6 kmh 29.50 in999.0 mb 0.00 in0.0 mm 0.00 in0.0 mm 0.24 in6.1 mm
06:47 PM 47.8°F8.8°C 41.9°F5.5°C 80% Calm Calm 1.0 mph1.6 kmh 29.50 in999.0 mb 0.00 in0.0 mm 0.00 in0.0 mm 0.24 in6.1 mm
06:48 PM 47.7°F8.7°C 41.8°F5.4°C 80% 0.2 mph SW0.3 kmh SW 1.0 mph1.6 kmh 29.50 in999.0 mb 0.00 in0.0 mm 0.00 in0.0 mm 0.24 in6.1 mm
06:49 PM 47.5°F8.6°C 42.0°F5.6°C 81% Calm Calm 1.0 mph1.6 kmh 29.50 in999.0 mb 0.00 in0.0 mm 0.00 in0.0 mm 0.24 in6.1 mm
06:50 PM 47.4°F8.6°C 41.9°F5.5°C 81% Calm Calm 1.0 mph1.6 kmh 29.50 in999.0 mb 0.00 in0.0 mm 0.00 in0.0 mm 0.24 in6.1 mm
06:51 PM 47.3°F8.5°C 41.8°F5.4°C 81% Calm Calm -- 29.49 in998.6 mb 0.00 in0.0 mm 0.00 in0.0 mm 0.24 in6.1 mm
06:52 PM 47.3°F8.5°C 41.8°F5.4°C 81% 0.3 mph SW0.5 kmh SW 1.0 mph1.6 kmh 29.49 in998.6 mb 0.00 in0.0 mm 0.00 in0.0 mm 0.24 in6.1 mm
06:53 PM 47.2°F8.4°C 42.0°F5.6°C 82% 1.3 mph SW2.1 kmh SW 2.0 mph3.2 kmh 29.49 in998.6 mb 0.00 in0.0 mm 0.00 in0.0 mm 0.24 in6.1 mm
06:54 PM 47.1°F8.4°C 41.9°F5.5°C 82% 1.5 mph SW2.4 kmh SW 2.0 mph3.2 kmh 29.50 in999.0 mb 0.00 in0.0 mm 0.00 in0.0 mm 0.24 in6.1 mm
06:55 PM 47.1°F8.4°C 41.9°F5.5°C 82% 1.0 mph SSW1.6 kmh SSW 2.0 mph3.2 kmh 29.49 in998.6 mb 0.00 in0.0 mm 0.00 in0.0 mm 0.24 in6.1 mm
06:56 PM 47.0°F8.3°C 41.8°F5.4°C 82% 2.0 mph SSW3.2 kmh SSW 3.0 mph4.8 kmh 29.49 in998.6 mb 0.00 in0.0 mm 0.00 in0.0 mm 0.24 in6.1 mm
06:57 PM 47.0°F8.3°C 41.8°F5.4°C 82% 2.0 mph SSW3.2 kmh SSW 3.0 mph4.8 kmh 29.49 in998.6 mb 0.00 in0.0 mm 0.00 in0.0 mm 0.24 in6.1 mm
06:58 PM 46.9°F8.3°C 42.0°F5.6°C 83% 2.1 mph SW3.4 kmh SW 3.0 mph4.8 kmh 29.49 in998.6 mb 0.00 in0.0 mm 0.00 in0.0 mm 0.24 in6.1 mm
06:59 PM 47.0°F8.3°C 42.1°F5.6°C 83% 2.4 mph SW3.9 kmh SW 3.0 mph4.8 kmh 29.49 in998.6 mb 0.00 in0.0 mm 0.00 in0.0 mm 0.24 in6.1 mm
07:00 PM 47.0°F8.3°C 42.4°F5.8°C 84% 2.0 mph SW3.2 kmh SW 3.0 mph4.8 kmh 29.49 in998.6 mb 0.00 in0.0 mm 0.00 in0.0 mm 0.24 in6.1 mm
07:01 PM 47.0°F8.3°C 42.4°F5.8°C 84% 2.7 mph SSW4.3 kmh SSW 4.0 mph6.4 kmh 29.49 in998.6 mb 0.00 in0.0 mm 0.00 in0.0 mm 0.24 in6.1 mm
07:02 PM 47.1°F8.4°C 42.8°F6.0°C 85% 3.6 mph SE5.8 kmh SE 4.0 mph6.4 kmh 29.49 in998.6 mb 0.00 in0.0 mm 0.00 in0.0 mm 0.24 in6.1 mm
07:03 PM 47.2°F8.4°C 42.9°F6.1°C 85% 3.0 mph ESE4.8 kmh ESE 4.0 mph6.4 kmh 29.49 in998.6 mb 0.00 in0.0 mm 0.00 in0.0 mm 0.24 in6.1 mm
07:04 PM 47.4°F8.6°C 43.1°F6.2°C 85% 2.0 mph ESE3.2 kmh ESE 3.0 mph4.8 kmh 29.49 in998.6 mb 0.00 in0.0 mm 0.00 in0.0 mm 0.24 in6.1 mm
07:05 PM 47.5°F8.6°C 43.2°F6.2°C 85% 2.9 mph SE4.7 kmh SE 3.0 mph4.8 kmh 29.49 in998.6 mb 0.00 in0.0 mm 0.00 in0.0 mm 0.24 in6.1 mm
07:06 PM 47.5°F8.6°C 43.2°F6.2°C 85% 2.0 mph SE3.2 kmh SE 3.0 mph4.8 kmh 29.49 in998.6 mb 0.00 in0.0 mm 0.00 in0.0 mm 0.24 in6.1 mm
07:07 PM 47.5°F8.6°C 43.2°F6.2°C 85% 1.5 mph SE2.4 kmh SE 2.0 mph3.2 kmh 29.49 in998.6 mb 0.00 in0.0 mm 0.00 in0.0 mm 0.24 in6.1 mm
07:08 PM 47.6°F8.7°C 43.3°F6.3°C 85% 3.0 mph ESE4.8 kmh ESE 4.0 mph6.4 kmh 29.49 in998.6 mb 0.00 in0.0 mm 0.00 in0.0 mm 0.24 in6.1 mm
07:09 PM 47.6°F8.7°C 43.3°F6.3°C 85% 3.0 mph ESE4.8 kmh ESE 3.0 mph4.8 kmh 29.49 in998.6 mb 0.00 in0.0 mm 0.00 in0.0 mm 0.24 in6.1 mm
07:10 PM 47.6°F8.7°C 43.3°F6.3°C 85% 2.3 mph SE3.7 kmh SE 3.0 mph4.8 kmh 29.49 in998.6 mb 0.00 in0.0 mm 0.00 in0.0 mm 0.24 in6.1 mm
07:11 PM 47.7°F8.7°C 43.4°F6.3°C 85% 2.4 mph SE3.9 kmh SE 3.0 mph4.8 kmh 29.49 in998.6 mb 0.00 in0.0 mm 0.00 in0.0 mm 0.24 in6.1 mm
07:12 PM 47.7°F8.7°C 43.4°F6.3°C 85% 2.0 mph ESE3.2 kmh ESE 3.0 mph4.8 kmh 29.49 in998.6 mb 0.00 in0.0 mm 0.00 in0.0 mm 0.24 in6.1 mm
07:13 PM 47.6°F8.7°C 43.3°F6.3°C 85% 2.0 mph ESE3.2 kmh ESE 3.0 mph4.8 kmh 29.49 in998.6 mb 0.00 in0.0 mm 0.00 in0.0 mm 0.24 in6.1 mm
07:14 PM 47.7°F8.7°C 43.4°F6.3°C 85% 3.0 mph SE4.8 kmh SE 3.0 mph4.8 kmh 29.49 in998.6 mb 0.00 in0.0 mm 0.00 in0.0 mm 0.24 in6.1 mm
07:15 PM 47.6°F8.7°C 43.3°F6.3°C 85% 3.0 mph ESE4.8 kmh ESE 4.0 mph6.4 kmh 29.49 in998.6 mb 0.00 in0.0 mm 0.00 in0.0 mm 0.24 in6.1 mm
07:16 PM 47.7°F8.7°C 43.4°F6.3°C 85% 3.0 mph ESE4.8 kmh ESE 4.0 mph6.4 kmh 29.49 in998.6 mb 0.00 in0.0 mm 0.00 in0.0 mm 0.24 in6.1 mm
07:17 PM 47.7°F8.7°C 43.4°F6.3°C 85% 3.3 mph SE5.3 kmh SE 4.0 mph6.4 kmh 29.49 in998.6 mb 0.00 in0.0 mm 0.00 in0.0 mm 0.24 in6.1 mm
07:18 PM 47.6°F8.7°C 43.3°F6.3°C 85% 2.9 mph SE4.7 kmh SE 4.0 mph6.4 kmh 29.49 in998.6 mb 0.00 in0.0 mm 0.00 in0.0 mm 0.24 in6.1 mm
07:19 PM 47.6°F8.7°C 43.3°F6.3°C 85% 2.1 mph SE3.4 kmh SE 4.0 mph6.4 kmh 29.49 in998.6 mb 0.00 in0.0 mm 0.00 in0.0 mm 0.24 in6.1 mm
07:20 PM 47.7°F8.7°C 43.4°F6.3°C 85% 2.5 mph SE4.0 kmh SE 3.0 mph4.8 kmh 29.49 in998.6 mb 0.00 in0.0 mm 0.00 in0.0 mm 0.24 in6.1 mm
07:21 PM 47.7°F8.7°C 43.4°F6.3°C 85% 2.7 mph SE4.3 kmh SE 4.0 mph6.4 kmh 29.49 in998.6 mb 0.00 in0.0 mm 0.00 in0.0 mm 0.24 in6.1 mm
07:22 PM 47.6°F8.7°C 43.3°F6.3°C 85% 3.0 mph ESE4.8 kmh ESE 3.0 mph4.8 kmh 29.49 in998.6 mb 0.00 in0.0 mm 0.00 in0.0 mm 0.24 in6.1 mm
07:23 PM 47.6°F8.7°C 43.3°F6.3°C 85% 2.0 mph ESE3.2 kmh ESE 3.0 mph4.8 kmh 29.49 in998.6 mb 0.00 in0.0 mm 0.00 in0.0 mm 0.24 in6.1 mm
07:24 PM 47.6°F8.7°C 43.3°F6.3°C 85% 2.0 mph ESE3.2 kmh ESE 3.0 mph4.8 kmh 29.49 in998.6 mb 0.00 in0.0 mm 0.00 in0.0 mm 0.24 in6.1 mm
07:25 PM 47.6°F8.7°C 43.3°F6.3°C 85% 2.0 mph ESE3.2 kmh ESE 4.0 mph6.4 kmh 29.49 in998.6 mb 0.00 in0.0 mm 0.00 in0.0 mm 0.24 in6.1 mm
07:26 PM 47.6°F8.7°C 43.3°F6.3°C 85% 2.0 mph ESE3.2 kmh ESE 3.0 mph4.8 kmh 29.48 in998.3 mb 0.00 in0.0 mm 0.00 in0.0 mm 0.24 in6.1 mm
07:27 PM 47.6°F8.7°C 43.3°F6.3°C 85% 3.0 mph ESE4.8 kmh ESE 3.0 mph4.8 kmh 29.48 in998.3 mb 0.00 in0.0 mm 0.00 in0.0 mm 0.24 in6.1 mm
07:28 PM 47.6°F8.7°C 43.3°F6.3°C 85% 2.0 mph ESE3.2 kmh ESE 3.0 mph4.8 kmh 29.48 in998.3 mb 0.00 in0.0 mm 0.00 in0.0 mm 0.24 in6.1 mm
07:29 PM 47.6°F8.7°C 43.3°F6.3°C 85% 2.0 mph ESE3.2 kmh ESE 2.0 mph3.2 kmh 29.49 in998.6 mb 0.00 in0.0 mm 0.00 in0.0 mm 0.24 in6.1 mm
07:30 PM 47.6°F8.7°C 43.3°F6.3°C 85% 1.0 mph ESE1.6 kmh ESE 2.0 mph3.2 kmh 29.49 in998.6 mb 0.00 in0.0 mm 0.00 in0.0 mm 0.24 in6.1 mm
07:31 PM 47.6°F8.7°C 43.3°F6.3°C 85% 2.0 mph ESE3.2 kmh ESE 3.0 mph4.8 kmh 29.48 in998.3 mb 0.00 in0.0 mm 0.00 in0.0 mm 0.24 in6.1 mm
07:32 PM 47.6°F8.7°C 43.3°F6.3°C 85% 2.4 mph SE3.9 kmh SE 3.0 mph4.8 kmh 29.49 in998.6 mb 0.00 in0.0 mm 0.00 in0.0 mm 0.24 in6.1 mm
07:33 PM 47.6°F8.7°C 43.3°F6.3°C 85% 2.3 mph SE3.7 kmh SE 3.0 mph4.8 kmh 29.49 in998.6 mb 0.00 in0.0 mm 0.00 in0.0 mm 0.24 in6.1 mm
07:34 PM 47.6°F8.7°C 43.3°F6.3°C 85% 1.7 mph SE2.7 kmh SE 3.0 mph4.8 kmh 29.48 in998.3 mb 0.00 in0.0 mm 0.00 in0.0 mm 0.24 in6.1 mm
07:35 PM 47.6°F8.7°C 43.3°F6.3°C 85% 2.0 mph ESE3.2 kmh ESE 3.0 mph4.8 kmh 29.48 in998.3 mb 0.00 in0.0 mm 0.00 in0.0 mm 0.24 in6.1 mm
07:36 PM 47.6°F8.7°C 43.3°F